<?xml version="1.0" encoding="UTF-8" standalone="no" ?>
<gpx xmlns="http://www.topografix.com/GPX/1/1" xmlns:xsi="http://www.w3.org/2001/XMLSchema-instance" xsi:schemaLocation="http://www.topografix.com/GPX/1/1 http://www.topografix.com/GPX/1/1/gpx.xsd" version="1.1" creator="VisuGPX - https://www.visugpx.com">
  <metadata>
    <name>Randonnée du 08/10/2020 à 10:27</name>
  </metadata>
  <trk>
    <name><![CDATA[Randonnée du 08/10/2020 à 10:27]]></name>
    <trkseg>
      <trkpt lat="43.60389" lon="1.44308">
        <ele>145</ele>
        <time>2020-10-08T10:35:15+02:00</time>
      </trkpt>
      <trkpt lat="43.60385" lon="1.44276">
        <ele>145</ele>
        <time>2020-10-08T10:35:30+02:00</time>
      </trkpt>
      <trkpt lat="43.60377" lon="1.44247">
        <ele>145</ele>
        <time>2020-10-08T10:35:40+02:00</time>
      </trkpt>
      <trkpt lat="43.60358" lon="1.44222">
        <ele>146</ele>
        <time>2020-10-08T10:35:47+02:00</time>
      </trkpt>
      <trkpt lat="43.60344" lon="1.44196">
        <ele>146</ele>
        <time>2020-10-08T10:35:57+02:00</time>
      </trkpt>
      <trkpt lat="43.60325" lon="1.44178">
        <ele>146</ele>
        <time>2020-10-08T10:36:06+02:00</time>
      </trkpt>
      <trkpt lat="43.60302" lon="1.44162">
        <ele>146</ele>
        <time>2020-10-08T10:36:14+02:00</time>
      </trkpt>
      <trkpt lat="43.60284" lon="1.44142">
        <ele>146</ele>
        <time>2020-10-08T10:36:20+02:00</time>
      </trkpt>
      <trkpt lat="43.60261" lon="1.44132">
        <ele>146</ele>
        <time>2020-10-08T10:36:25+02:00</time>
      </trkpt>
      <trkpt lat="43.6024" lon="1.44116">
        <ele>147</ele>
        <time>2020-10-08T10:36:31+02:00</time>
      </trkpt>
      <trkpt lat="43.60223" lon="1.44092">
        <ele>147</ele>
        <time>2020-10-08T10:36:38+02:00</time>
      </trkpt>
      <trkpt lat="43.60209" lon="1.44068">
        <ele>146</ele>
        <time>2020-10-08T10:36:44+02:00</time>
      </trkpt>
      <trkpt lat="43.60196" lon="1.44041">
        <ele>146</ele>
        <time>2020-10-08T10:36:50+02:00</time>
      </trkpt>
      <trkpt lat="43.6018" lon="1.44016">
        <ele>146</ele>
        <time>2020-10-08T10:36:56+02:00</time>
      </trkpt>
      <trkpt lat="43.60168" lon="1.43989">
        <ele>144</ele>
        <time>2020-10-08T10:37:03+02:00</time>
      </trkpt>
      <trkpt lat="43.60146" lon="1.43975">
        <ele>143</ele>
        <time>2020-10-08T10:37:12+02:00</time>
      </trkpt>
      <trkpt lat="43.60124" lon="1.43956">
        <ele>141</ele>
        <time>2020-10-08T10:37:20+02:00</time>
      </trkpt>
      <trkpt lat="43.6011" lon="1.43927">
        <ele>138</ele>
        <time>2020-10-08T10:37:27+02:00</time>
      </trkpt>
      <trkpt lat="43.60085" lon="1.43921">
        <ele>133</ele>
        <time>2020-10-08T10:37:35+02:00</time>
      </trkpt>
      <trkpt lat="43.60063" lon="1.43942">
        <ele>133</ele>
        <time>2020-10-08T10:37:42+02:00</time>
      </trkpt>
      <trkpt lat="43.60046" lon="1.43962">
        <ele>134</ele>
        <time>2020-10-08T10:37:49+02:00</time>
      </trkpt>
      <trkpt lat="43.60024" lon="1.43982">
        <ele>133</ele>
        <time>2020-10-08T10:37:56+02:00</time>
      </trkpt>
      <trkpt lat="43.60006" lon="1.44004">
        <ele>134</ele>
        <time>2020-10-08T10:38:03+02:00</time>
      </trkpt>
      <trkpt lat="43.59986" lon="1.44026">
        <ele>134</ele>
        <time>2020-10-08T10:38:09+02:00</time>
      </trkpt>
      <trkpt lat="43.59967" lon="1.44007">
        <ele>132</ele>
        <time>2020-10-08T10:38:21+02:00</time>
      </trkpt>
      <trkpt lat="43.59962" lon="1.43975">
        <ele>132</ele>
        <time>2020-10-08T10:38:28+02:00</time>
      </trkpt>
      <trkpt lat="43.59955" lon="1.43946">
        <ele>132</ele>
        <time>2020-10-08T10:38:34+02:00</time>
      </trkpt>
      <trkpt lat="43.59947" lon="1.43915">
        <ele>132</ele>
        <time>2020-10-08T10:38:40+02:00</time>
      </trkpt>
      <trkpt lat="43.59943" lon="1.43882">
        <ele>132</ele>
        <time>2020-10-08T10:38:46+02:00</time>
      </trkpt>
      <trkpt lat="43.59935" lon="1.43847">
        <ele>132</ele>
        <time>2020-10-08T10:38:51+02:00</time>
      </trkpt>
      <trkpt lat="43.59919" lon="1.43825">
        <ele>139</ele>
        <time>2020-10-08T10:38:54+02:00</time>
      </trkpt>
      <trkpt lat="43.59913" lon="1.43789">
        <ele>142</ele>
        <time>2020-10-08T10:38:58+02:00</time>
      </trkpt>
      <trkpt lat="43.59905" lon="1.43751">
        <ele>142</ele>
        <time>2020-10-08T10:39:02+02:00</time>
      </trkpt>
      <trkpt lat="43.59899" lon="1.43712">
        <ele>141</ele>
        <time>2020-10-08T10:39:06+02:00</time>
      </trkpt>
      <trkpt lat="43.59893" lon="1.43678">
        <ele>139</ele>
        <time>2020-10-08T10:39:10+02:00</time>
      </trkpt>
      <trkpt lat="43.59888" lon="1.43644">
        <ele>137</ele>
        <time>2020-10-08T10:39:17+02:00</time>
      </trkpt>
      <trkpt lat="43.59881" lon="1.43612">
        <ele>139</ele>
        <time>2020-10-08T10:39:23+02:00</time>
      </trkpt>
      <trkpt lat="43.59874" lon="1.43576">
        <ele>139</ele>
        <time>2020-10-08T10:39:30+02:00</time>
      </trkpt>
      <trkpt lat="43.59868" lon="1.43542">
        <ele>139</ele>
        <time>2020-10-08T10:39:37+02:00</time>
      </trkpt>
      <trkpt lat="43.59862" lon="1.43511">
        <ele>138</ele>
        <time>2020-10-08T10:39:43+02:00</time>
      </trkpt>
      <trkpt lat="43.59856" lon="1.43475">
        <ele>138</ele>
        <time>2020-10-08T10:39:48+02:00</time>
      </trkpt>
      <trkpt lat="43.59852" lon="1.43438">
        <ele>138</ele>
        <time>2020-10-08T10:39:53+02:00</time>
      </trkpt>
      <trkpt lat="43.59849" lon="1.43403">
        <ele>138</ele>
        <time>2020-10-08T10:39:59+02:00</time>
      </trkpt>
      <trkpt lat="43.59848" lon="1.43371">
        <ele>138</ele>
        <time>2020-10-08T10:40:04+02:00</time>
      </trkpt>
      <trkpt lat="43.59838" lon="1.43335">
        <ele>137</ele>
        <time>2020-10-08T10:40:10+02:00</time>
      </trkpt>
      <trkpt lat="43.59828" lon="1.43303">
        <ele>137</ele>
        <time>2020-10-08T10:40:16+02:00</time>
      </trkpt>
      <trkpt lat="43.59822" lon="1.43269">
        <ele>138</ele>
        <time>2020-10-08T10:40:22+02:00</time>
      </trkpt>
      <trkpt lat="43.59812" lon="1.43238">
        <ele>137</ele>
        <time>2020-10-08T10:40:28+02:00</time>
      </trkpt>
      <trkpt lat="43.59811" lon="1.43206">
        <ele>137</ele>
        <time>2020-10-08T10:40:33+02:00</time>
      </trkpt>
      <trkpt lat="43.5981" lon="1.43174">
        <ele>137</ele>
        <time>2020-10-08T10:40:39+02:00</time>
      </trkpt>
      <trkpt lat="43.59806" lon="1.43139">
        <ele>137</ele>
        <time>2020-10-08T10:40:46+02:00</time>
      </trkpt>
      <trkpt lat="43.59811" lon="1.43108">
        <ele>137</ele>
        <time>2020-10-08T10:40:57+02:00</time>
      </trkpt>
      <trkpt lat="43.59828" lon="1.43084">
        <ele>137</ele>
        <time>2020-10-08T10:41:06+02:00</time>
      </trkpt>
      <trkpt lat="43.59849" lon="1.4307">
        <ele>137</ele>
        <time>2020-10-08T10:41:12+02:00</time>
      </trkpt>
      <trkpt lat="43.59867" lon="1.4305">
        <ele>137</ele>
        <time>2020-10-08T10:41:17+02:00</time>
      </trkpt>
      <trkpt lat="43.59887" lon="1.43032">
        <ele>137</ele>
        <time>2020-10-08T10:41:23+02:00</time>
      </trkpt>
      <trkpt lat="43.5991" lon="1.43023">
        <ele>136</ele>
        <time>2020-10-08T10:41:32+02:00</time>
      </trkpt>
      <trkpt lat="43.5993" lon="1.43005">
        <ele>136</ele>
        <time>2020-10-08T10:41:38+02:00</time>
      </trkpt>
      <trkpt lat="43.59951" lon="1.42987">
        <ele>136</ele>
        <time>2020-10-08T10:41:43+02:00</time>
      </trkpt>
      <trkpt lat="43.59971" lon="1.42969">
        <ele>136</ele>
        <time>2020-10-08T10:41:48+02:00</time>
      </trkpt>
      <trkpt lat="43.59993" lon="1.42954">
        <ele>137</ele>
        <time>2020-10-08T10:41:54+02:00</time>
      </trkpt>
      <trkpt lat="43.60016" lon="1.42938">
        <ele>137</ele>
        <time>2020-10-08T10:42:00+02:00</time>
      </trkpt>
      <trkpt lat="43.60037" lon="1.42919">
        <ele>137</ele>
        <time>2020-10-08T10:42:05+02:00</time>
      </trkpt>
      <trkpt lat="43.60057" lon="1.42907">
        <ele>137</ele>
        <time>2020-10-08T10:42:10+02:00</time>
      </trkpt>
      <trkpt lat="43.6008" lon="1.42892">
        <ele>137</ele>
        <time>2020-10-08T10:42:16+02:00</time>
      </trkpt>
      <trkpt lat="43.60097" lon="1.42865">
        <ele>137</ele>
        <time>2020-10-08T10:42:32+02:00</time>
      </trkpt>
      <trkpt lat="43.60117" lon="1.42879">
        <ele>137</ele>
        <time>2020-10-08T10:44:30+02:00</time>
      </trkpt>
      <trkpt lat="43.6014" lon="1.42866">
        <ele>138</ele>
        <time>2020-10-08T10:44:39+02:00</time>
      </trkpt>
      <trkpt lat="43.60159" lon="1.42847">
        <ele>138</ele>
        <time>2020-10-08T10:44:46+02:00</time>
      </trkpt>
      <trkpt lat="43.60177" lon="1.42824">
        <ele>138</ele>
        <time>2020-10-08T10:44:53+02:00</time>
      </trkpt>
      <trkpt lat="43.6019" lon="1.42788">
        <ele>137</ele>
        <time>2020-10-08T10:45:12+02:00</time>
      </trkpt>
      <trkpt lat="43.60213" lon="1.42774">
        <ele>136</ele>
        <time>2020-10-08T10:45:20+02:00</time>
      </trkpt>
      <trkpt lat="43.6023" lon="1.42747">
        <ele>134</ele>
        <time>2020-10-08T10:45:26+02:00</time>
      </trkpt>
      <trkpt lat="43.60244" lon="1.4272">
        <ele>133</ele>
        <time>2020-10-08T10:45:31+02:00</time>
      </trkpt>
      <trkpt lat="43.60256" lon="1.42693">
        <ele>132</ele>
        <time>2020-10-08T10:45:36+02:00</time>
      </trkpt>
      <trkpt lat="43.60267" lon="1.42663">
        <ele>133</ele>
        <time>2020-10-08T10:45:41+02:00</time>
      </trkpt>
      <trkpt lat="43.60278" lon="1.42633">
        <ele>132</ele>
        <time>2020-10-08T10:45:46+02:00</time>
      </trkpt>
      <trkpt lat="43.60286" lon="1.42601">
        <ele>132</ele>
        <time>2020-10-08T10:45:51+02:00</time>
      </trkpt>
      <trkpt lat="43.60294" lon="1.42571">
        <ele>133</ele>
        <time>2020-10-08T10:45:56+02:00</time>
      </trkpt>
      <trkpt lat="43.60302" lon="1.42541">
        <ele>132</ele>
        <time>2020-10-08T10:46:01+02:00</time>
      </trkpt>
      <trkpt lat="43.60308" lon="1.42506">
        <ele>131</ele>
        <time>2020-10-08T10:46:07+02:00</time>
      </trkpt>
      <trkpt lat="43.60317" lon="1.42472">
        <ele>131</ele>
        <time>2020-10-08T10:46:12+02:00</time>
      </trkpt>
      <trkpt lat="43.60322" lon="1.42436">
        <ele>132</ele>
        <time>2020-10-08T10:46:18+02:00</time>
      </trkpt>
      <trkpt lat="43.60328" lon="1.42406">
        <ele>132</ele>
        <time>2020-10-08T10:46:28+02:00</time>
      </trkpt>
      <trkpt lat="43.60334" lon="1.4237">
        <ele>132</ele>
        <time>2020-10-08T10:46:35+02:00</time>
      </trkpt>
      <trkpt lat="43.60339" lon="1.42337">
        <ele>132</ele>
        <time>2020-10-08T10:46:40+02:00</time>
      </trkpt>
      <trkpt lat="43.60344" lon="1.42306">
        <ele>132</ele>
        <time>2020-10-08T10:46:45+02:00</time>
      </trkpt>
      <trkpt lat="43.60349" lon="1.42274">
        <ele>132</ele>
        <time>2020-10-08T10:46:50+02:00</time>
      </trkpt>
      <trkpt lat="43.60356" lon="1.42242">
        <ele>132</ele>
        <time>2020-10-08T10:46:55+02:00</time>
      </trkpt>
      <trkpt lat="43.60363" lon="1.42211">
        <ele>132</ele>
        <time>2020-10-08T10:47:00+02:00</time>
      </trkpt>
      <trkpt lat="43.60371" lon="1.42178">
        <ele>132</ele>
        <time>2020-10-08T10:47:05+02:00</time>
      </trkpt>
      <trkpt lat="43.60377" lon="1.42145">
        <ele>131</ele>
        <time>2020-10-08T10:47:10+02:00</time>
      </trkpt>
      <trkpt lat="43.60384" lon="1.42111">
        <ele>131</ele>
        <time>2020-10-08T10:47:15+02:00</time>
      </trkpt>
      <trkpt lat="43.60391" lon="1.42082">
        <ele>131</ele>
        <time>2020-10-08T10:47:20+02:00</time>
      </trkpt>
      <trkpt lat="43.60397" lon="1.4205">
        <ele>131</ele>
        <time>2020-10-08T10:47:25+02:00</time>
      </trkpt>
      <trkpt lat="43.60407" lon="1.42017">
        <ele>131</ele>
        <time>2020-10-08T10:47:32+02:00</time>
      </trkpt>
      <trkpt lat="43.60416" lon="1.41984">
        <ele>131</ele>
        <time>2020-10-08T10:47:37+02:00</time>
      </trkpt>
      <trkpt lat="43.60424" lon="1.41951">
        <ele>131</ele>
        <time>2020-10-08T10:47:42+02:00</time>
      </trkpt>
      <trkpt lat="43.60433" lon="1.41919">
        <ele>131</ele>
        <time>2020-10-08T10:47:47+02:00</time>
      </trkpt>
      <trkpt lat="43.60443" lon="1.41888">
        <ele>131</ele>
        <time>2020-10-08T10:47:52+02:00</time>
      </trkpt>
      <trkpt lat="43.60453" lon="1.41857">
        <ele>131</ele>
        <time>2020-10-08T10:47:57+02:00</time>
      </trkpt>
      <trkpt lat="43.60463" lon="1.41824">
        <ele>131</ele>
        <time>2020-10-08T10:48:02+02:00</time>
      </trkpt>
      <trkpt lat="43.60477" lon="1.41795">
        <ele>131</ele>
        <time>2020-10-08T10:48:07+02:00</time>
      </trkpt>
      <trkpt lat="43.60479" lon="1.41763">
        <ele>131</ele>
        <time>2020-10-08T10:48:11+02:00</time>
      </trkpt>
      <trkpt lat="43.60492" lon="1.41735">
        <ele>131</ele>
        <time>2020-10-08T10:48:16+02:00</time>
      </trkpt>
      <trkpt lat="43.60505" lon="1.41708">
        <ele>131</ele>
        <time>2020-10-08T10:48:21+02:00</time>
      </trkpt>
      <trkpt lat="43.60518" lon="1.41681">
        <ele>131</ele>
        <time>2020-10-08T10:48:26+02:00</time>
      </trkpt>
      <trkpt lat="43.60531" lon="1.41654">
        <ele>131</ele>
        <time>2020-10-08T10:48:31+02:00</time>
      </trkpt>
      <trkpt lat="43.60552" lon="1.41628">
        <ele>131</ele>
        <time>2020-10-08T10:48:36+02:00</time>
      </trkpt>
      <trkpt lat="43.60566" lon="1.41601">
        <ele>131</ele>
        <time>2020-10-08T10:48:41+02:00</time>
      </trkpt>
      <trkpt lat="43.60579" lon="1.41574">
        <ele>131</ele>
        <time>2020-10-08T10:48:46+02:00</time>
      </trkpt>
      <trkpt lat="43.60592" lon="1.41545">
        <ele>131</ele>
        <time>2020-10-08T10:48:51+02:00</time>
      </trkpt>
      <trkpt lat="43.60599" lon="1.41515">
        <ele>131</ele>
        <time>2020-10-08T10:48:55+02:00</time>
      </trkpt>
      <trkpt lat="43.60617" lon="1.41485">
        <ele>130</ele>
        <time>2020-10-08T10:49:00+02:00</time>
      </trkpt>
      <trkpt lat="43.60632" lon="1.41461">
        <ele>130</ele>
        <time>2020-10-08T10:49:05+02:00</time>
      </trkpt>
      <trkpt lat="43.60652" lon="1.41431">
        <ele>131</ele>
        <time>2020-10-08T10:49:10+02:00</time>
      </trkpt>
      <trkpt lat="43.60668" lon="1.41407">
        <ele>131</ele>
        <time>2020-10-08T10:49:14+02:00</time>
      </trkpt>
      <trkpt lat="43.60686" lon="1.4138">
        <ele>131</ele>
        <time>2020-10-08T10:49:19+02:00</time>
      </trkpt>
      <trkpt lat="43.60704" lon="1.41351">
        <ele>131</ele>
        <time>2020-10-08T10:49:24+02:00</time>
      </trkpt>
      <trkpt lat="43.6072" lon="1.41322">
        <ele>131</ele>
        <time>2020-10-08T10:49:29+02:00</time>
      </trkpt>
      <trkpt lat="43.60736" lon="1.41294">
        <ele>131</ele>
        <time>2020-10-08T10:49:34+02:00</time>
      </trkpt>
      <trkpt lat="43.60751" lon="1.41265">
        <ele>131</ele>
        <time>2020-10-08T10:49:40+02:00</time>
      </trkpt>
      <trkpt lat="43.60768" lon="1.41235">
        <ele>131</ele>
        <time>2020-10-08T10:49:46+02:00</time>
      </trkpt>
      <trkpt lat="43.60789" lon="1.41224">
        <ele>131</ele>
        <time>2020-10-08T10:49:53+02:00</time>
      </trkpt>
      <trkpt lat="43.60802" lon="1.41195">
        <ele>130</ele>
        <time>2020-10-08T10:50:02+02:00</time>
      </trkpt>
      <trkpt lat="43.6081" lon="1.41165">
        <ele>132</ele>
        <time>2020-10-08T10:50:11+02:00</time>
      </trkpt>
      <trkpt lat="43.60814" lon="1.41133">
        <ele>132</ele>
        <time>2020-10-08T10:50:18+02:00</time>
      </trkpt>
      <trkpt lat="43.60802" lon="1.41101">
        <ele>134</ele>
        <time>2020-10-08T10:50:24+02:00</time>
      </trkpt>
      <trkpt lat="43.60791" lon="1.4107">
        <ele>136</ele>
        <time>2020-10-08T10:50:31+02:00</time>
      </trkpt>
      <trkpt lat="43.60782" lon="1.41039">
        <ele>137</ele>
        <time>2020-10-08T10:50:37+02:00</time>
      </trkpt>
      <trkpt lat="43.60772" lon="1.41009">
        <ele>137</ele>
        <time>2020-10-08T10:50:43+02:00</time>
      </trkpt>
      <trkpt lat="43.60761" lon="1.40979">
        <ele>138</ele>
        <time>2020-10-08T10:50:50+02:00</time>
      </trkpt>
      <trkpt lat="43.60747" lon="1.40948">
        <ele>138</ele>
        <time>2020-10-08T10:50:56+02:00</time>
      </trkpt>
      <trkpt lat="43.60729" lon="1.40925">
        <ele>138</ele>
        <time>2020-10-08T10:51:01+02:00</time>
      </trkpt>
      <trkpt lat="43.60714" lon="1.40902">
        <ele>137</ele>
        <time>2020-10-08T10:51:06+02:00</time>
      </trkpt>
      <trkpt lat="43.60698" lon="1.40879">
        <ele>137</ele>
        <time>2020-10-08T10:51:11+02:00</time>
      </trkpt>
      <trkpt lat="43.60683" lon="1.40855">
        <ele>137</ele>
        <time>2020-10-08T10:51:16+02:00</time>
      </trkpt>
      <trkpt lat="43.60667" lon="1.40831">
        <ele>137</ele>
        <time>2020-10-08T10:51:21+02:00</time>
      </trkpt>
      <trkpt lat="43.60651" lon="1.40807">
        <ele>137</ele>
        <time>2020-10-08T10:51:26+02:00</time>
      </trkpt>
      <trkpt lat="43.60636" lon="1.40782">
        <ele>137</ele>
        <time>2020-10-08T10:51:31+02:00</time>
      </trkpt>
      <trkpt lat="43.60618" lon="1.40759">
        <ele>137</ele>
        <time>2020-10-08T10:51:37+02:00</time>
      </trkpt>
      <trkpt lat="43.60594" lon="1.40753">
        <ele>136</ele>
        <time>2020-10-08T10:51:44+02:00</time>
      </trkpt>
      <trkpt lat="43.60572" lon="1.40747">
        <ele>136</ele>
        <time>2020-10-08T10:51:50+02:00</time>
      </trkpt>
      <trkpt lat="43.60548" lon="1.40737">
        <ele>136</ele>
        <time>2020-10-08T10:51:56+02:00</time>
      </trkpt>
      <trkpt lat="43.60551" lon="1.40705">
        <ele>137</ele>
        <time>2020-10-08T10:52:07+02:00</time>
      </trkpt>
      <trkpt lat="43.60565" lon="1.40677">
        <ele>137</ele>
        <time>2020-10-08T10:52:14+02:00</time>
      </trkpt>
      <trkpt lat="43.60581" lon="1.40653">
        <ele>137</ele>
        <time>2020-10-08T10:52:20+02:00</time>
      </trkpt>
      <trkpt lat="43.60588" lon="1.40621">
        <ele>137</ele>
        <time>2020-10-08T10:52:26+02:00</time>
      </trkpt>
      <trkpt lat="43.60599" lon="1.40592">
        <ele>139</ele>
        <time>2020-10-08T10:52:32+02:00</time>
      </trkpt>
      <trkpt lat="43.60603" lon="1.40561">
        <ele>140</ele>
        <time>2020-10-08T10:52:39+02:00</time>
      </trkpt>
      <trkpt lat="43.60587" lon="1.40536">
        <ele>140</ele>
        <time>2020-10-08T10:52:46+02:00</time>
      </trkpt>
      <trkpt lat="43.60572" lon="1.4051">
        <ele>140</ele>
        <time>2020-10-08T10:52:52+02:00</time>
      </trkpt>
      <trkpt lat="43.60553" lon="1.40489">
        <ele>141</ele>
        <time>2020-10-08T10:52:59+02:00</time>
      </trkpt>
      <trkpt lat="43.60528" lon="1.40483">
        <ele>140</ele>
        <time>2020-10-08T10:53:04+02:00</time>
      </trkpt>
      <trkpt lat="43.60505" lon="1.40477">
        <ele>139</ele>
        <time>2020-10-08T10:53:09+02:00</time>
      </trkpt>
      <trkpt lat="43.60482" lon="1.40476">
        <ele>139</ele>
        <time>2020-10-08T10:53:15+02:00</time>
      </trkpt>
      <trkpt lat="43.60461" lon="1.40491">
        <ele>138</ele>
        <time>2020-10-08T10:53:23+02:00</time>
      </trkpt>
      <trkpt lat="43.60444" lon="1.40516">
        <ele>138</ele>
        <time>2020-10-08T10:53:31+02:00</time>
      </trkpt>
      <trkpt lat="43.60426" lon="1.40496">
        <ele>138</ele>
        <time>2020-10-08T10:53:45+02:00</time>
      </trkpt>
      <trkpt lat="43.60407" lon="1.40471">
        <ele>138</ele>
        <time>2020-10-08T10:53:53+02:00</time>
      </trkpt>
      <trkpt lat="43.60391" lon="1.40447">
        <ele>138</ele>
        <time>2020-10-08T10:53:59+02:00</time>
      </trkpt>
      <trkpt lat="43.60372" lon="1.40426">
        <ele>138</ele>
        <time>2020-10-08T10:54:07+02:00</time>
      </trkpt>
      <trkpt lat="43.60351" lon="1.40408">
        <ele>138</ele>
        <time>2020-10-08T10:54:15+02:00</time>
      </trkpt>
      <trkpt lat="43.60328" lon="1.40391">
        <ele>138</ele>
        <time>2020-10-08T10:54:21+02:00</time>
      </trkpt>
      <trkpt lat="43.60305" lon="1.40382">
        <ele>138</ele>
        <time>2020-10-08T10:54:26+02:00</time>
      </trkpt>
      <trkpt lat="43.60281" lon="1.40377">
        <ele>139</ele>
        <time>2020-10-08T10:54:31+02:00</time>
      </trkpt>
      <trkpt lat="43.60256" lon="1.40373">
        <ele>139</ele>
        <time>2020-10-08T10:54:37+02:00</time>
      </trkpt>
      <trkpt lat="43.60231" lon="1.40372">
        <ele>139</ele>
        <time>2020-10-08T10:54:44+02:00</time>
      </trkpt>
      <trkpt lat="43.60208" lon="1.4037">
        <ele>139</ele>
        <time>2020-10-08T10:54:56+02:00</time>
      </trkpt>
      <trkpt lat="43.60199" lon="1.40338">
        <ele>140</ele>
        <time>2020-10-08T10:55:11+02:00</time>
      </trkpt>
      <trkpt lat="43.60182" lon="1.40315">
        <ele>141</ele>
        <time>2020-10-08T10:55:21+02:00</time>
      </trkpt>
      <trkpt lat="43.60165" lon="1.40294">
        <ele>141</ele>
        <time>2020-10-08T10:55:31+02:00</time>
      </trkpt>
      <trkpt lat="43.60147" lon="1.40274">
        <ele>142</ele>
        <time>2020-10-08T10:55:40+02:00</time>
      </trkpt>
      <trkpt lat="43.60128" lon="1.40254">
        <ele>144</ele>
        <time>2020-10-08T10:55:49+02:00</time>
      </trkpt>
      <trkpt lat="43.60108" lon="1.40235">
        <ele>146</ele>
        <time>2020-10-08T10:56:00+02:00</time>
      </trkpt>
      <trkpt lat="43.60084" lon="1.40233">
        <ele>147</ele>
        <time>2020-10-08T10:56:11+02:00</time>
      </trkpt>
      <trkpt lat="43.60071" lon="1.4026">
        <ele>145</ele>
        <time>2020-10-08T10:56:17+02:00</time>
      </trkpt>
      <trkpt lat="43.60056" lon="1.40285">
        <ele>143</ele>
        <time>2020-10-08T10:56:24+02:00</time>
      </trkpt>
      <trkpt lat="43.60032" lon="1.40296">
        <ele>143</ele>
        <time>2020-10-08T10:56:32+02:00</time>
      </trkpt>
      <trkpt lat="43.60009" lon="1.40302">
        <ele>143</ele>
        <time>2020-10-08T10:56:39+02:00</time>
      </trkpt>
      <trkpt lat="43.59986" lon="1.40302">
        <ele>143</ele>
        <time>2020-10-08T10:56:47+02:00</time>
      </trkpt>
      <trkpt lat="43.59962" lon="1.40294">
        <ele>143</ele>
        <time>2020-10-08T10:56:57+02:00</time>
      </trkpt>
      <trkpt lat="43.59941" lon="1.40282">
        <ele>143</ele>
        <time>2020-10-08T10:57:03+02:00</time>
      </trkpt>
      <trkpt lat="43.59916" lon="1.40277">
        <ele>145</ele>
        <time>2020-10-08T10:57:13+02:00</time>
      </trkpt>
      <trkpt lat="43.59893" lon="1.40273">
        <ele>146</ele>
        <time>2020-10-08T10:57:20+02:00</time>
      </trkpt>
      <trkpt lat="43.59868" lon="1.40272">
        <ele>147</ele>
        <time>2020-10-08T10:57:28+02:00</time>
      </trkpt>
      <trkpt lat="43.59845" lon="1.40279">
        <ele>147</ele>
        <time>2020-10-08T10:57:36+02:00</time>
      </trkpt>
      <trkpt lat="43.59827" lon="1.40297">
        <ele>146</ele>
        <time>2020-10-08T10:58:26+02:00</time>
      </trkpt>
      <trkpt lat="43.59824" lon="1.4033">
        <ele>145</ele>
        <time>2020-10-08T10:59:19+02:00</time>
      </trkpt>
      <trkpt lat="43.5983" lon="1.40363">
        <ele>143</ele>
        <time>2020-10-08T10:59:26+02:00</time>
      </trkpt>
      <trkpt lat="43.59818" lon="1.40392">
        <ele>141</ele>
        <time>2020-10-08T10:59:36+02:00</time>
      </trkpt>
      <trkpt lat="43.59795" lon="1.40393">
        <ele>141</ele>
        <time>2020-10-08T10:59:42+02:00</time>
      </trkpt>
      <trkpt lat="43.5977" lon="1.40389">
        <ele>141</ele>
        <time>2020-10-08T10:59:48+02:00</time>
      </trkpt>
      <trkpt lat="43.59747" lon="1.40385">
        <ele>142</ele>
        <time>2020-10-08T10:59:54+02:00</time>
      </trkpt>
      <trkpt lat="43.59723" lon="1.40388">
        <ele>142</ele>
        <time>2020-10-08T11:00:02+02:00</time>
      </trkpt>
      <trkpt lat="43.59699" lon="1.40383">
        <ele>142</ele>
        <time>2020-10-08T11:00:16+02:00</time>
      </trkpt>
      <trkpt lat="43.59675" lon="1.40381">
        <ele>142</ele>
        <time>2020-10-08T11:00:23+02:00</time>
      </trkpt>
      <trkpt lat="43.59651" lon="1.4038">
        <ele>142</ele>
        <time>2020-10-08T11:00:29+02:00</time>
      </trkpt>
      <trkpt lat="43.59625" lon="1.40382">
        <ele>142</ele>
        <time>2020-10-08T11:00:36+02:00</time>
      </trkpt>
      <trkpt lat="43.59598" lon="1.40388">
        <ele>142</ele>
        <time>2020-10-08T11:00:42+02:00</time>
      </trkpt>
      <trkpt lat="43.59572" lon="1.40392">
        <ele>142</ele>
        <time>2020-10-08T11:00:48+02:00</time>
      </trkpt>
      <trkpt lat="43.59557" lon="1.40367">
        <ele>142</ele>
        <time>2020-10-08T11:01:30+02:00</time>
      </trkpt>
      <trkpt lat="43.59569" lon="1.40339">
        <ele>142</ele>
        <time>2020-10-08T11:01:39+02:00</time>
      </trkpt>
      <trkpt lat="43.59582" lon="1.40313">
        <ele>142</ele>
        <time>2020-10-08T11:01:50+02:00</time>
      </trkpt>
      <trkpt lat="43.596" lon="1.40292">
        <ele>143</ele>
        <time>2020-10-08T11:01:59+02:00</time>
      </trkpt>
      <trkpt lat="43.5961" lon="1.40262">
        <ele>143</ele>
        <time>2020-10-08T11:02:07+02:00</time>
      </trkpt>
      <trkpt lat="43.59604" lon="1.40232">
        <ele>144</ele>
        <time>2020-10-08T11:02:22+02:00</time>
      </trkpt>
      <trkpt lat="43.59584" lon="1.40216">
        <ele>144</ele>
        <time>2020-10-08T11:02:30+02:00</time>
      </trkpt>
      <trkpt lat="43.59564" lon="1.40203">
        <ele>145</ele>
        <time>2020-10-08T11:02:37+02:00</time>
      </trkpt>
      <trkpt lat="43.59543" lon="1.40187">
        <ele>144</ele>
        <time>2020-10-08T11:02:44+02:00</time>
      </trkpt>
      <trkpt lat="43.59547" lon="1.40154">
        <ele>147</ele>
        <time>2020-10-08T11:02:56+02:00</time>
      </trkpt>
      <trkpt lat="43.59559" lon="1.40127">
        <ele>149</ele>
        <time>2020-10-08T11:03:30+02:00</time>
      </trkpt>
      <trkpt lat="43.59568" lon="1.40096">
        <ele>151</ele>
        <time>2020-10-08T11:03:45+02:00</time>
      </trkpt>
      <trkpt lat="43.5958" lon="1.40067">
        <ele>151</ele>
        <time>2020-10-08T11:03:56+02:00</time>
      </trkpt>
      <trkpt lat="43.5959" lon="1.40038">
        <ele>151</ele>
        <time>2020-10-08T11:04:05+02:00</time>
      </trkpt>
      <trkpt lat="43.59596" lon="1.40004">
        <ele>151</ele>
        <time>2020-10-08T11:04:15+02:00</time>
      </trkpt>
      <trkpt lat="43.59601" lon="1.39972">
        <ele>151</ele>
        <time>2020-10-08T11:04:23+02:00</time>
      </trkpt>
      <trkpt lat="43.59608" lon="1.39943">
        <ele>152</ele>
        <time>2020-10-08T11:04:31+02:00</time>
      </trkpt>
      <trkpt lat="43.59614" lon="1.39909">
        <ele>152</ele>
        <time>2020-10-08T11:04:39+02:00</time>
      </trkpt>
      <trkpt lat="43.59619" lon="1.39879">
        <ele>152</ele>
        <time>2020-10-08T11:04:47+02:00</time>
      </trkpt>
      <trkpt lat="43.59622" lon="1.39844">
        <ele>152</ele>
        <time>2020-10-08T11:04:55+02:00</time>
      </trkpt>
      <trkpt lat="43.59626" lon="1.39813">
        <ele>152</ele>
        <time>2020-10-08T11:05:02+02:00</time>
      </trkpt>
      <trkpt lat="43.59629" lon="1.3978">
        <ele>153</ele>
        <time>2020-10-08T11:05:11+02:00</time>
      </trkpt>
      <trkpt lat="43.5963" lon="1.39748">
        <ele>152</ele>
        <time>2020-10-08T11:05:21+02:00</time>
      </trkpt>
      <trkpt lat="43.59631" lon="1.39715">
        <ele>148</ele>
        <time>2020-10-08T11:05:31+02:00</time>
      </trkpt>
      <trkpt lat="43.59632" lon="1.39682">
        <ele>149</ele>
        <time>2020-10-08T11:05:40+02:00</time>
      </trkpt>
      <trkpt lat="43.59632" lon="1.39647">
        <ele>151</ele>
        <time>2020-10-08T11:05:48+02:00</time>
      </trkpt>
      <trkpt lat="43.59632" lon="1.39615">
        <ele>152</ele>
        <time>2020-10-08T11:05:53+02:00</time>
      </trkpt>
      <trkpt lat="43.59633" lon="1.39583">
        <ele>152</ele>
        <time>2020-10-08T11:05:58+02:00</time>
      </trkpt>
      <trkpt lat="43.59636" lon="1.39551">
        <ele>153</ele>
        <time>2020-10-08T11:06:10+02:00</time>
      </trkpt>
      <trkpt lat="43.59644" lon="1.39521">
        <ele>153</ele>
        <time>2020-10-08T11:06:19+02:00</time>
      </trkpt>
      <trkpt lat="43.59654" lon="1.3949">
        <ele>153</ele>
        <time>2020-10-08T11:06:32+02:00</time>
      </trkpt>
      <trkpt lat="43.59657" lon="1.39459">
        <ele>153</ele>
        <time>2020-10-08T11:06:40+02:00</time>
      </trkpt>
      <trkpt lat="43.59658" lon="1.39427">
        <ele>153</ele>
        <time>2020-10-08T11:06:47+02:00</time>
      </trkpt>
      <trkpt lat="43.59658" lon="1.39393">
        <ele>153</ele>
        <time>2020-10-08T11:06:54+02:00</time>
      </trkpt>
      <trkpt lat="43.5966" lon="1.39361">
        <ele>153</ele>
        <time>2020-10-08T11:07:01+02:00</time>
      </trkpt>
      <trkpt lat="43.5966" lon="1.39328">
        <ele>152</ele>
        <time>2020-10-08T11:07:08+02:00</time>
      </trkpt>
      <trkpt lat="43.5966" lon="1.39296">
        <ele>152</ele>
        <time>2020-10-08T11:07:16+02:00</time>
      </trkpt>
      <trkpt lat="43.59662" lon="1.39259">
        <ele>152</ele>
        <time>2020-10-08T11:07:23+02:00</time>
      </trkpt>
      <trkpt lat="43.5966" lon="1.39225">
        <ele>153</ele>
        <time>2020-10-08T11:07:28+02:00</time>
      </trkpt>
      <trkpt lat="43.59664" lon="1.39192">
        <ele>153</ele>
        <time>2020-10-08T11:07:34+02:00</time>
      </trkpt>
      <trkpt lat="43.59672" lon="1.39157">
        <ele>153</ele>
        <time>2020-10-08T11:07:40+02:00</time>
      </trkpt>
      <trkpt lat="43.5968" lon="1.39127">
        <ele>153</ele>
        <time>2020-10-08T11:07:45+02:00</time>
      </trkpt>
      <trkpt lat="43.59689" lon="1.39092">
        <ele>153</ele>
        <time>2020-10-08T11:07:51+02:00</time>
      </trkpt>
      <trkpt lat="43.59697" lon="1.39057">
        <ele>153</ele>
        <time>2020-10-08T11:07:56+02:00</time>
      </trkpt>
      <trkpt lat="43.59704" lon="1.39026">
        <ele>153</ele>
        <time>2020-10-08T11:08:01+02:00</time>
      </trkpt>
      <trkpt lat="43.59715" lon="1.38993">
        <ele>153</ele>
        <time>2020-10-08T11:08:07+02:00</time>
      </trkpt>
      <trkpt lat="43.59722" lon="1.38963">
        <ele>153</ele>
        <time>2020-10-08T11:08:12+02:00</time>
      </trkpt>
      <trkpt lat="43.59734" lon="1.38933">
        <ele>153</ele>
        <time>2020-10-08T11:08:17+02:00</time>
      </trkpt>
      <trkpt lat="43.59743" lon="1.38899">
        <ele>153</ele>
        <time>2020-10-08T11:08:22+02:00</time>
      </trkpt>
      <trkpt lat="43.59751" lon="1.38863">
        <ele>153</ele>
        <time>2020-10-08T11:08:27+02:00</time>
      </trkpt>
      <trkpt lat="43.5976" lon="1.38834">
        <ele>153</ele>
        <time>2020-10-08T11:08:31+02:00</time>
      </trkpt>
      <trkpt lat="43.59768" lon="1.38805">
        <ele>153</ele>
        <time>2020-10-08T11:08:35+02:00</time>
      </trkpt>
      <trkpt lat="43.59778" lon="1.3877">
        <ele>153</ele>
        <time>2020-10-08T11:08:40+02:00</time>
      </trkpt>
      <trkpt lat="43.59788" lon="1.38736">
        <ele>153</ele>
        <time>2020-10-08T11:08:45+02:00</time>
      </trkpt>
      <trkpt lat="43.59797" lon="1.38704">
        <ele>153</ele>
        <time>2020-10-08T11:08:51+02:00</time>
      </trkpt>
      <trkpt lat="43.59809" lon="1.38674">
        <ele>153</ele>
        <time>2020-10-08T11:08:56+02:00</time>
      </trkpt>
      <trkpt lat="43.59817" lon="1.38639">
        <ele>153</ele>
        <time>2020-10-08T11:09:02+02:00</time>
      </trkpt>
      <trkpt lat="43.59825" lon="1.3861">
        <ele>153</ele>
        <time>2020-10-08T11:09:07+02:00</time>
      </trkpt>
      <trkpt lat="43.59831" lon="1.3858">
        <ele>153</ele>
        <time>2020-10-08T11:09:12+02:00</time>
      </trkpt>
      <trkpt lat="43.59841" lon="1.38546">
        <ele>153</ele>
        <time>2020-10-08T11:09:18+02:00</time>
      </trkpt>
      <trkpt lat="43.5985" lon="1.38514">
        <ele>153</ele>
        <time>2020-10-08T11:09:23+02:00</time>
      </trkpt>
      <trkpt lat="43.59858" lon="1.38481">
        <ele>153</ele>
        <time>2020-10-08T11:09:28+02:00</time>
      </trkpt>
      <trkpt lat="43.59868" lon="1.38449">
        <ele>153</ele>
        <time>2020-10-08T11:09:33+02:00</time>
      </trkpt>
      <trkpt lat="43.59876" lon="1.38421">
        <ele>153</ele>
        <time>2020-10-08T11:09:38+02:00</time>
      </trkpt>
      <trkpt lat="43.59884" lon="1.38389">
        <ele>153</ele>
        <time>2020-10-08T11:09:45+02:00</time>
      </trkpt>
      <trkpt lat="43.59871" lon="1.38361">
        <ele>153</ele>
        <time>2020-10-08T11:09:57+02:00</time>
      </trkpt>
      <trkpt lat="43.59849" lon="1.38352">
        <ele>153</ele>
        <time>2020-10-08T11:10:02+02:00</time>
      </trkpt>
      <trkpt lat="43.59826" lon="1.38344">
        <ele>153</ele>
        <time>2020-10-08T11:10:08+02:00</time>
      </trkpt>
      <trkpt lat="43.59803" lon="1.38336">
        <ele>153</ele>
        <time>2020-10-08T11:10:14+02:00</time>
      </trkpt>
      <trkpt lat="43.5978" lon="1.38327">
        <ele>153</ele>
        <time>2020-10-08T11:10:20+02:00</time>
      </trkpt>
      <trkpt lat="43.59758" lon="1.38318">
        <ele>153</ele>
        <time>2020-10-08T11:10:25+02:00</time>
      </trkpt>
      <trkpt lat="43.59734" lon="1.38311">
        <ele>154</ele>
        <time>2020-10-08T11:10:30+02:00</time>
      </trkpt>
      <trkpt lat="43.59712" lon="1.38305">
        <ele>154</ele>
        <time>2020-10-08T11:10:35+02:00</time>
      </trkpt>
      <trkpt lat="43.59685" lon="1.38296">
        <ele>154</ele>
        <time>2020-10-08T11:10:41+02:00</time>
      </trkpt>
      <trkpt lat="43.59663" lon="1.38289">
        <ele>154</ele>
        <time>2020-10-08T11:10:46+02:00</time>
      </trkpt>
      <trkpt lat="43.59639" lon="1.3828">
        <ele>154</ele>
        <time>2020-10-08T11:10:52+02:00</time>
      </trkpt>
      <trkpt lat="43.59615" lon="1.38269">
        <ele>154</ele>
        <time>2020-10-08T11:10:57+02:00</time>
      </trkpt>
      <trkpt lat="43.59591" lon="1.38257">
        <ele>154</ele>
        <time>2020-10-08T11:11:02+02:00</time>
      </trkpt>
      <trkpt lat="43.59566" lon="1.38246">
        <ele>154</ele>
        <time>2020-10-08T11:11:07+02:00</time>
      </trkpt>
      <trkpt lat="43.59542" lon="1.38237">
        <ele>154</ele>
        <time>2020-10-08T11:11:12+02:00</time>
      </trkpt>
      <trkpt lat="43.59521" lon="1.38227">
        <ele>154</ele>
        <time>2020-10-08T11:11:17+02:00</time>
      </trkpt>
      <trkpt lat="43.59497" lon="1.38213">
        <ele>153</ele>
        <time>2020-10-08T11:11:23+02:00</time>
      </trkpt>
      <trkpt lat="43.59488" lon="1.38183">
        <ele>153</ele>
        <time>2020-10-08T11:11:32+02:00</time>
      </trkpt>
      <trkpt lat="43.59495" lon="1.38147">
        <ele>153</ele>
        <time>2020-10-08T11:11:38+02:00</time>
      </trkpt>
      <trkpt lat="43.59502" lon="1.38111">
        <ele>153</ele>
        <time>2020-10-08T11:11:44+02:00</time>
      </trkpt>
      <trkpt lat="43.59509" lon="1.38076">
        <ele>153</ele>
        <time>2020-10-08T11:11:50+02:00</time>
      </trkpt>
      <trkpt lat="43.59512" lon="1.38045">
        <ele>153</ele>
        <time>2020-10-08T11:11:55+02:00</time>
      </trkpt>
      <trkpt lat="43.59518" lon="1.38013">
        <ele>153</ele>
        <time>2020-10-08T11:12:02+02:00</time>
      </trkpt>
      <trkpt lat="43.59523" lon="1.37978">
        <ele>153</ele>
        <time>2020-10-08T11:12:09+02:00</time>
      </trkpt>
      <trkpt lat="43.59528" lon="1.37947">
        <ele>154</ele>
        <time>2020-10-08T11:12:15+02:00</time>
      </trkpt>
      <trkpt lat="43.5954" lon="1.3792">
        <ele>154</ele>
        <time>2020-10-08T11:12:21+02:00</time>
      </trkpt>
      <trkpt lat="43.59553" lon="1.37892">
        <ele>154</ele>
        <time>2020-10-08T11:12:27+02:00</time>
      </trkpt>
      <trkpt lat="43.59568" lon="1.37865">
        <ele>154</ele>
        <time>2020-10-08T11:12:33+02:00</time>
      </trkpt>
      <trkpt lat="43.59584" lon="1.37838">
        <ele>154</ele>
        <time>2020-10-08T11:12:40+02:00</time>
      </trkpt>
      <trkpt lat="43.59582" lon="1.37807">
        <ele>154</ele>
        <time>2020-10-08T11:12:52+02:00</time>
      </trkpt>
      <trkpt lat="43.59583" lon="1.37773">
        <ele>154</ele>
        <time>2020-10-08T11:13:06+02:00</time>
      </trkpt>
      <trkpt lat="43.59592" lon="1.37743">
        <ele>154</ele>
        <time>2020-10-08T11:13:14+02:00</time>
      </trkpt>
      <trkpt lat="43.59578" lon="1.37713">
        <ele>154</ele>
        <time>2020-10-08T11:13:22+02:00</time>
      </trkpt>
      <trkpt lat="43.5956" lon="1.37689">
        <ele>154</ele>
        <time>2020-10-08T11:13:29+02:00</time>
      </trkpt>
      <trkpt lat="43.59545" lon="1.37664">
        <ele>154</ele>
        <time>2020-10-08T11:13:38+02:00</time>
      </trkpt>
      <trkpt lat="43.59531" lon="1.37636">
        <ele>154</ele>
        <time>2020-10-08T11:13:45+02:00</time>
      </trkpt>
      <trkpt lat="43.59515" lon="1.3761">
        <ele>154</ele>
        <time>2020-10-08T11:13:54+02:00</time>
      </trkpt>
      <trkpt lat="43.5953" lon="1.37581">
        <ele>153</ele>
        <time>2020-10-08T11:14:02+02:00</time>
      </trkpt>
      <trkpt lat="43.59542" lon="1.37551">
        <ele>152</ele>
        <time>2020-10-08T11:14:10+02:00</time>
      </trkpt>
      <trkpt lat="43.59552" lon="1.37518">
        <ele>150</ele>
        <time>2020-10-08T11:14:16+02:00</time>
      </trkpt>
      <trkpt lat="43.59568" lon="1.37494">
        <ele>148</ele>
        <time>2020-10-08T11:14:23+02:00</time>
      </trkpt>
      <trkpt lat="43.59591" lon="1.37491">
        <ele>145</ele>
        <time>2020-10-08T11:14:32+02:00</time>
      </trkpt>
      <trkpt lat="43.59614" lon="1.37486">
        <ele>143</ele>
        <time>2020-10-08T11:14:43+02:00</time>
      </trkpt>
      <trkpt lat="43.59631" lon="1.37461">
        <ele>143</ele>
        <time>2020-10-08T11:14:50+02:00</time>
      </trkpt>
      <trkpt lat="43.59645" lon="1.37436">
        <ele>142</ele>
        <time>2020-10-08T11:14:58+02:00</time>
      </trkpt>
      <trkpt lat="43.59651" lon="1.37405">
        <ele>143</ele>
        <time>2020-10-08T11:15:12+02:00</time>
      </trkpt>
      <trkpt lat="43.59652" lon="1.37371">
        <ele>143</ele>
        <time>2020-10-08T11:15:25+02:00</time>
      </trkpt>
      <trkpt lat="43.59647" lon="1.37341">
        <ele>143</ele>
        <time>2020-10-08T11:15:36+02:00</time>
      </trkpt>
      <trkpt lat="43.59637" lon="1.37313">
        <ele>142</ele>
        <time>2020-10-08T11:15:45+02:00</time>
      </trkpt>
      <trkpt lat="43.59623" lon="1.37288">
        <ele>142</ele>
        <time>2020-10-08T11:15:54+02:00</time>
      </trkpt>
      <trkpt lat="43.59609" lon="1.37261">
        <ele>143</ele>
        <time>2020-10-08T11:16:03+02:00</time>
      </trkpt>
      <trkpt lat="43.59593" lon="1.37234">
        <ele>143</ele>
        <time>2020-10-08T11:16:12+02:00</time>
      </trkpt>
      <trkpt lat="43.59582" lon="1.37206">
        <ele>142</ele>
        <time>2020-10-08T11:16:28+02:00</time>
      </trkpt>
      <trkpt lat="43.59577" lon="1.37172">
        <ele>143</ele>
        <time>2020-10-08T11:16:39+02:00</time>
      </trkpt>
      <trkpt lat="43.59563" lon="1.37148">
        <ele>143</ele>
        <time>2020-10-08T11:17:08+02:00</time>
      </trkpt>
      <trkpt lat="43.59563" lon="1.37114">
        <ele>143</ele>
        <time>2020-10-08T11:17:23+02:00</time>
      </trkpt>
      <trkpt lat="43.59572" lon="1.37084">
        <ele>143</ele>
        <time>2020-10-08T11:17:33+02:00</time>
      </trkpt>
      <trkpt lat="43.59585" lon="1.37056">
        <ele>143</ele>
        <time>2020-10-08T11:17:42+02:00</time>
      </trkpt>
      <trkpt lat="43.59599" lon="1.3703">
        <ele>144</ele>
        <time>2020-10-08T11:17:51+02:00</time>
      </trkpt>
      <trkpt lat="43.59598" lon="1.36997">
        <ele>145</ele>
        <time>2020-10-08T11:18:00+02:00</time>
      </trkpt>
      <trkpt lat="43.59581" lon="1.36969">
        <ele>144</ele>
        <time>2020-10-08T11:18:09+02:00</time>
      </trkpt>
      <trkpt lat="43.59559" lon="1.36957">
        <ele>144</ele>
        <time>2020-10-08T11:18:17+02:00</time>
      </trkpt>
      <trkpt lat="43.59539" lon="1.36939">
        <ele>145</ele>
        <time>2020-10-08T11:18:26+02:00</time>
      </trkpt>
      <trkpt lat="43.59522" lon="1.36917">
        <ele>144</ele>
        <time>2020-10-08T11:18:35+02:00</time>
      </trkpt>
      <trkpt lat="43.59502" lon="1.36899">
        <ele>145</ele>
        <time>2020-10-08T11:18:46+02:00</time>
      </trkpt>
      <trkpt lat="43.59484" lon="1.36881">
        <ele>144</ele>
        <time>2020-10-08T11:18:58+02:00</time>
      </trkpt>
      <trkpt lat="43.59466" lon="1.36861">
        <ele>144</ele>
        <time>2020-10-08T11:19:09+02:00</time>
      </trkpt>
      <trkpt lat="43.59448" lon="1.3684">
        <ele>144</ele>
        <time>2020-10-08T11:19:20+02:00</time>
      </trkpt>
      <trkpt lat="43.59437" lon="1.36812">
        <ele>144</ele>
        <time>2020-10-08T11:19:31+02:00</time>
      </trkpt>
      <trkpt lat="43.59429" lon="1.36782">
        <ele>145</ele>
        <time>2020-10-08T11:19:37+02:00</time>
      </trkpt>
      <trkpt lat="43.59423" lon="1.36749">
        <ele>144</ele>
        <time>2020-10-08T11:19:47+02:00</time>
      </trkpt>
      <trkpt lat="43.59414" lon="1.36717">
        <ele>145</ele>
        <time>2020-10-08T11:19:56+02:00</time>
      </trkpt>
      <trkpt lat="43.59401" lon="1.3669">
        <ele>145</ele>
        <time>2020-10-08T11:20:04+02:00</time>
      </trkpt>
      <trkpt lat="43.59384" lon="1.36668">
        <ele>145</ele>
        <time>2020-10-08T11:20:12+02:00</time>
      </trkpt>
      <trkpt lat="43.5936" lon="1.36666">
        <ele>144</ele>
        <time>2020-10-08T11:20:21+02:00</time>
      </trkpt>
      <trkpt lat="43.59335" lon="1.36661">
        <ele>144</ele>
        <time>2020-10-08T11:20:30+02:00</time>
      </trkpt>
      <trkpt lat="43.59311" lon="1.36657">
        <ele>144</ele>
        <time>2020-10-08T11:20:41+02:00</time>
      </trkpt>
      <trkpt lat="43.59289" lon="1.36649">
        <ele>144</ele>
        <time>2020-10-08T11:20:51+02:00</time>
      </trkpt>
      <trkpt lat="43.59266" lon="1.36646">
        <ele>144</ele>
        <time>2020-10-08T11:21:00+02:00</time>
      </trkpt>
      <trkpt lat="43.59242" lon="1.36645">
        <ele>144</ele>
        <time>2020-10-08T11:21:09+02:00</time>
      </trkpt>
      <trkpt lat="43.59221" lon="1.3663">
        <ele>144</ele>
        <time>2020-10-08T11:21:17+02:00</time>
      </trkpt>
      <trkpt lat="43.59199" lon="1.36623">
        <ele>144</ele>
        <time>2020-10-08T11:21:25+02:00</time>
      </trkpt>
      <trkpt lat="43.59175" lon="1.36624">
        <ele>144</ele>
        <time>2020-10-08T11:21:35+02:00</time>
      </trkpt>
      <trkpt lat="43.59153" lon="1.36626">
        <ele>144</ele>
        <time>2020-10-08T11:21:44+02:00</time>
      </trkpt>
      <trkpt lat="43.59131" lon="1.36643">
        <ele>144</ele>
        <time>2020-10-08T11:21:56+02:00</time>
      </trkpt>
      <trkpt lat="43.59109" lon="1.3666">
        <ele>144</ele>
        <time>2020-10-08T11:22:04+02:00</time>
      </trkpt>
      <trkpt lat="43.59086" lon="1.36667">
        <ele>144</ele>
        <time>2020-10-08T11:22:11+02:00</time>
      </trkpt>
      <trkpt lat="43.59064" lon="1.36675">
        <ele>144</ele>
        <time>2020-10-08T11:22:19+02:00</time>
      </trkpt>
      <trkpt lat="43.59041" lon="1.36687">
        <ele>145</ele>
        <time>2020-10-08T11:22:27+02:00</time>
      </trkpt>
      <trkpt lat="43.59022" lon="1.36703">
        <ele>145</ele>
        <time>2020-10-08T11:22:39+02:00</time>
      </trkpt>
      <trkpt lat="43.58998" lon="1.36703">
        <ele>146</ele>
        <time>2020-10-08T11:23:02+02:00</time>
      </trkpt>
      <trkpt lat="43.58975" lon="1.36697">
        <ele>145</ele>
        <time>2020-10-08T11:23:08+02:00</time>
      </trkpt>
      <trkpt lat="43.58954" lon="1.36685">
        <ele>145</ele>
        <time>2020-10-08T11:23:14+02:00</time>
      </trkpt>
      <trkpt lat="43.58931" lon="1.3667">
        <ele>145</ele>
        <time>2020-10-08T11:23:23+02:00</time>
      </trkpt>
      <trkpt lat="43.58911" lon="1.36651">
        <ele>145</ele>
        <time>2020-10-08T11:23:31+02:00</time>
      </trkpt>
      <trkpt lat="43.58898" lon="1.36626">
        <ele>144</ele>
        <time>2020-10-08T11:23:38+02:00</time>
      </trkpt>
      <trkpt lat="43.58886" lon="1.36598">
        <ele>144</ele>
        <time>2020-10-08T11:23:47+02:00</time>
      </trkpt>
      <trkpt lat="43.58871" lon="1.36573">
        <ele>144</ele>
        <time>2020-10-08T11:23:55+02:00</time>
      </trkpt>
      <trkpt lat="43.58857" lon="1.36545">
        <ele>144</ele>
        <time>2020-10-08T11:24:05+02:00</time>
      </trkpt>
      <trkpt lat="43.5885" lon="1.36512">
        <ele>144</ele>
        <time>2020-10-08T11:24:13+02:00</time>
      </trkpt>
      <trkpt lat="43.58838" lon="1.36481">
        <ele>145</ele>
        <time>2020-10-08T11:24:22+02:00</time>
      </trkpt>
      <trkpt lat="43.58821" lon="1.36458">
        <ele>144</ele>
        <time>2020-10-08T11:24:31+02:00</time>
      </trkpt>
      <trkpt lat="43.58809" lon="1.36429">
        <ele>145</ele>
        <time>2020-10-08T11:24:37+02:00</time>
      </trkpt>
      <trkpt lat="43.58795" lon="1.36404">
        <ele>144</ele>
        <time>2020-10-08T11:24:43+02:00</time>
      </trkpt>
      <trkpt lat="43.58773" lon="1.36389">
        <ele>145</ele>
        <time>2020-10-08T11:24:49+02:00</time>
      </trkpt>
      <trkpt lat="43.58749" lon="1.36372">
        <ele>145</ele>
        <time>2020-10-08T11:24:56+02:00</time>
      </trkpt>
      <trkpt lat="43.58732" lon="1.36351">
        <ele>146</ele>
        <time>2020-10-08T11:25:02+02:00</time>
      </trkpt>
      <trkpt lat="43.58714" lon="1.3633">
        <ele>145</ele>
        <time>2020-10-08T11:25:09+02:00</time>
      </trkpt>
      <trkpt lat="43.58692" lon="1.36312">
        <ele>145</ele>
        <time>2020-10-08T11:25:16+02:00</time>
      </trkpt>
      <trkpt lat="43.58673" lon="1.3629">
        <ele>145</ele>
        <time>2020-10-08T11:25:23+02:00</time>
      </trkpt>
      <trkpt lat="43.58658" lon="1.36265">
        <ele>145</ele>
        <time>2020-10-08T11:25:29+02:00</time>
      </trkpt>
      <trkpt lat="43.5864" lon="1.36243">
        <ele>145</ele>
        <time>2020-10-08T11:25:37+02:00</time>
      </trkpt>
      <trkpt lat="43.58619" lon="1.36233">
        <ele>145</ele>
        <time>2020-10-08T11:25:46+02:00</time>
      </trkpt>
      <trkpt lat="43.58597" lon="1.36245">
        <ele>146</ele>
        <time>2020-10-08T11:25:52+02:00</time>
      </trkpt>
      <trkpt lat="43.58572" lon="1.3625">
        <ele>147</ele>
        <time>2020-10-08T11:25:59+02:00</time>
      </trkpt>
      <trkpt lat="43.58549" lon="1.36266">
        <ele>149</ele>
        <time>2020-10-08T11:26:07+02:00</time>
      </trkpt>
      <trkpt lat="43.58526" lon="1.36272">
        <ele>150</ele>
        <time>2020-10-08T11:26:15+02:00</time>
      </trkpt>
      <trkpt lat="43.58552" lon="1.36267">
        <ele>149</ele>
        <time>2020-10-08T11:26:39+02:00</time>
      </trkpt>
      <trkpt lat="43.58573" lon="1.36254">
        <ele>149</ele>
        <time>2020-10-08T11:26:45+02:00</time>
      </trkpt>
      <trkpt lat="43.58595" lon="1.36237">
        <ele>147</ele>
        <time>2020-10-08T11:26:51+02:00</time>
      </trkpt>
      <trkpt lat="43.58619" lon="1.36227">
        <ele>146</ele>
        <time>2020-10-08T11:26:57+02:00</time>
      </trkpt>
      <trkpt lat="43.58639" lon="1.36213">
        <ele>145</ele>
        <time>2020-10-08T11:27:03+02:00</time>
      </trkpt>
      <trkpt lat="43.58662" lon="1.36203">
        <ele>146</ele>
        <time>2020-10-08T11:27:09+02:00</time>
      </trkpt>
      <trkpt lat="43.58686" lon="1.36192">
        <ele>147</ele>
        <time>2020-10-08T11:27:15+02:00</time>
      </trkpt>
      <trkpt lat="43.58711" lon="1.36179">
        <ele>148</ele>
        <time>2020-10-08T11:27:21+02:00</time>
      </trkpt>
      <trkpt lat="43.58734" lon="1.3617">
        <ele>149</ele>
        <time>2020-10-08T11:27:26+02:00</time>
      </trkpt>
      <trkpt lat="43.58757" lon="1.36163">
        <ele>149</ele>
        <time>2020-10-08T11:27:33+02:00</time>
      </trkpt>
      <trkpt lat="43.58783" lon="1.36158">
        <ele>148</ele>
        <time>2020-10-08T11:27:40+02:00</time>
      </trkpt>
      <trkpt lat="43.58805" lon="1.36151">
        <ele>148</ele>
        <time>2020-10-08T11:27:50+02:00</time>
      </trkpt>
      <trkpt lat="43.58779" lon="1.3616">
        <ele>148</ele>
        <time>2020-10-08T11:28:05+02:00</time>
      </trkpt>
      <trkpt lat="43.58757" lon="1.36171">
        <ele>148</ele>
        <time>2020-10-08T11:28:11+02:00</time>
      </trkpt>
      <trkpt lat="43.58734" lon="1.36182">
        <ele>148</ele>
        <time>2020-10-08T11:28:28+02:00</time>
      </trkpt>
      <trkpt lat="43.58713" lon="1.36195">
        <ele>147</ele>
        <time>2020-10-08T11:28:37+02:00</time>
      </trkpt>
      <trkpt lat="43.58689" lon="1.36202">
        <ele>148</ele>
        <time>2020-10-08T11:28:45+02:00</time>
      </trkpt>
      <trkpt lat="43.58668" lon="1.36215">
        <ele>147</ele>
        <time>2020-10-08T11:28:53+02:00</time>
      </trkpt>
      <trkpt lat="43.58649" lon="1.36198">
        <ele>147</ele>
        <time>2020-10-08T11:29:02+02:00</time>
      </trkpt>
      <trkpt lat="43.58629" lon="1.3618">
        <ele>146</ele>
        <time>2020-10-08T11:29:14+02:00</time>
      </trkpt>
      <trkpt lat="43.58613" lon="1.36155">
        <ele>146</ele>
        <time>2020-10-08T11:29:20+02:00</time>
      </trkpt>
      <trkpt lat="43.58598" lon="1.36132">
        <ele>146</ele>
        <time>2020-10-08T11:29:29+02:00</time>
      </trkpt>
      <trkpt lat="43.58574" lon="1.36117">
        <ele>145</ele>
        <time>2020-10-08T11:29:39+02:00</time>
      </trkpt>
      <trkpt lat="43.58556" lon="1.36097">
        <ele>145</ele>
        <time>2020-10-08T11:29:46+02:00</time>
      </trkpt>
      <trkpt lat="43.58536" lon="1.36075">
        <ele>145</ele>
        <time>2020-10-08T11:29:53+02:00</time>
      </trkpt>
      <trkpt lat="43.58518" lon="1.36057">
        <ele>145</ele>
        <time>2020-10-08T11:30:00+02:00</time>
      </trkpt>
      <trkpt lat="43.58503" lon="1.36033">
        <ele>145</ele>
        <time>2020-10-08T11:30:07+02:00</time>
      </trkpt>
      <trkpt lat="43.58487" lon="1.36008">
        <ele>146</ele>
        <time>2020-10-08T11:30:15+02:00</time>
      </trkpt>
      <trkpt lat="43.58473" lon="1.35983">
        <ele>146</ele>
        <time>2020-10-08T11:30:23+02:00</time>
      </trkpt>
      <trkpt lat="43.58457" lon="1.35957">
        <ele>146</ele>
        <time>2020-10-08T11:30:30+02:00</time>
      </trkpt>
      <trkpt lat="43.5844" lon="1.35934">
        <ele>146</ele>
        <time>2020-10-08T11:30:40+02:00</time>
      </trkpt>
      <trkpt lat="43.58427" lon="1.35908">
        <ele>146</ele>
        <time>2020-10-08T11:30:48+02:00</time>
      </trkpt>
      <trkpt lat="43.58419" lon="1.35877">
        <ele>146</ele>
        <time>2020-10-08T11:30:55+02:00</time>
      </trkpt>
      <trkpt lat="43.58408" lon="1.3585">
        <ele>146</ele>
        <time>2020-10-08T11:31:01+02:00</time>
      </trkpt>
      <trkpt lat="43.58395" lon="1.35821">
        <ele>146</ele>
        <time>2020-10-08T11:31:08+02:00</time>
      </trkpt>
      <trkpt lat="43.58371" lon="1.35813">
        <ele>146</ele>
        <time>2020-10-08T11:31:16+02:00</time>
      </trkpt>
      <trkpt lat="43.58357" lon="1.35783">
        <ele>146</ele>
        <time>2020-10-08T11:31:24+02:00</time>
      </trkpt>
      <trkpt lat="43.5835" lon="1.35752">
        <ele>146</ele>
        <time>2020-10-08T11:31:33+02:00</time>
      </trkpt>
      <trkpt lat="43.58356" lon="1.35721">
        <ele>146</ele>
        <time>2020-10-08T11:31:41+02:00</time>
      </trkpt>
      <trkpt lat="43.58373" lon="1.35698">
        <ele>146</ele>
        <time>2020-10-08T11:31:48+02:00</time>
      </trkpt>
      <trkpt lat="43.58395" lon="1.35688">
        <ele>146</ele>
        <time>2020-10-08T11:31:52+02:00</time>
      </trkpt>
      <trkpt lat="43.58411" lon="1.35665">
        <ele>146</ele>
        <time>2020-10-08T11:31:58+02:00</time>
      </trkpt>
      <trkpt lat="43.58424" lon="1.35635">
        <ele>147</ele>
        <time>2020-10-08T11:32:06+02:00</time>
      </trkpt>
      <trkpt lat="43.58434" lon="1.35604">
        <ele>148</ele>
        <time>2020-10-08T11:32:12+02:00</time>
      </trkpt>
      <trkpt lat="43.58448" lon="1.35578">
        <ele>149</ele>
        <time>2020-10-08T11:32:20+02:00</time>
      </trkpt>
      <trkpt lat="43.58457" lon="1.35547">
        <ele>149</ele>
        <time>2020-10-08T11:32:29+02:00</time>
      </trkpt>
      <trkpt lat="43.58464" lon="1.35514">
        <ele>149</ele>
        <time>2020-10-08T11:32:38+02:00</time>
      </trkpt>
      <trkpt lat="43.58469" lon="1.35481">
        <ele>150</ele>
        <time>2020-10-08T11:32:45+02:00</time>
      </trkpt>
      <trkpt lat="43.58469" lon="1.35448">
        <ele>150</ele>
        <time>2020-10-08T11:32:52+02:00</time>
      </trkpt>
      <trkpt lat="43.58468" lon="1.35412">
        <ele>151</ele>
        <time>2020-10-08T11:33:00+02:00</time>
      </trkpt>
      <trkpt lat="43.58464" lon="1.35381">
        <ele>151</ele>
        <time>2020-10-08T11:33:09+02:00</time>
      </trkpt>
      <trkpt lat="43.5845" lon="1.35358">
        <ele>150</ele>
        <time>2020-10-08T11:33:16+02:00</time>
      </trkpt>
      <trkpt lat="43.58429" lon="1.35342">
        <ele>150</ele>
        <time>2020-10-08T11:33:26+02:00</time>
      </trkpt>
      <trkpt lat="43.58407" lon="1.35324">
        <ele>149</ele>
        <time>2020-10-08T11:33:32+02:00</time>
      </trkpt>
      <trkpt lat="43.58404" lon="1.35292">
        <ele>149</ele>
        <time>2020-10-08T11:33:39+02:00</time>
      </trkpt>
      <trkpt lat="43.58399" lon="1.35261">
        <ele>149</ele>
        <time>2020-10-08T11:33:46+02:00</time>
      </trkpt>
      <trkpt lat="43.58392" lon="1.35229">
        <ele>150</ele>
        <time>2020-10-08T11:33:55+02:00</time>
      </trkpt>
      <trkpt lat="43.58387" lon="1.35195">
        <ele>150</ele>
        <time>2020-10-08T11:34:01+02:00</time>
      </trkpt>
      <trkpt lat="43.5837" lon="1.35169">
        <ele>150</ele>
        <time>2020-10-08T11:34:08+02:00</time>
      </trkpt>
      <trkpt lat="43.58355" lon="1.35146">
        <ele>150</ele>
        <time>2020-10-08T11:34:15+02:00</time>
      </trkpt>
      <trkpt lat="43.58342" lon="1.35118">
        <ele>150</ele>
        <time>2020-10-08T11:34:22+02:00</time>
      </trkpt>
      <trkpt lat="43.5833" lon="1.35092">
        <ele>150</ele>
        <time>2020-10-08T11:34:31+02:00</time>
      </trkpt>
      <trkpt lat="43.5831" lon="1.35072">
        <ele>150</ele>
        <time>2020-10-08T11:34:39+02:00</time>
      </trkpt>
      <trkpt lat="43.58286" lon="1.35077">
        <ele>149</ele>
        <time>2020-10-08T11:34:44+02:00</time>
      </trkpt>
      <trkpt lat="43.58262" lon="1.35079">
        <ele>149</ele>
        <time>2020-10-08T11:34:49+02:00</time>
      </trkpt>
      <trkpt lat="43.5824" lon="1.35084">
        <ele>149</ele>
        <time>2020-10-08T11:34:57+02:00</time>
      </trkpt>
      <trkpt lat="43.58217" lon="1.35071">
        <ele>149</ele>
        <time>2020-10-08T11:35:11+02:00</time>
      </trkpt>
      <trkpt lat="43.582" lon="1.35047">
        <ele>149</ele>
        <time>2020-10-08T11:35:19+02:00</time>
      </trkpt>
      <trkpt lat="43.58182" lon="1.35026">
        <ele>149</ele>
        <time>2020-10-08T11:35:27+02:00</time>
      </trkpt>
      <trkpt lat="43.58155" lon="1.35022">
        <ele>149</ele>
        <time>2020-10-08T11:35:36+02:00</time>
      </trkpt>
      <trkpt lat="43.58133" lon="1.35029">
        <ele>150</ele>
        <time>2020-10-08T11:35:41+02:00</time>
      </trkpt>
      <trkpt lat="43.58111" lon="1.35017">
        <ele>150</ele>
        <time>2020-10-08T11:35:48+02:00</time>
      </trkpt>
      <trkpt lat="43.58087" lon="1.35005">
        <ele>150</ele>
        <time>2020-10-08T11:35:55+02:00</time>
      </trkpt>
      <trkpt lat="43.58062" lon="1.34999">
        <ele>150</ele>
        <time>2020-10-08T11:36:01+02:00</time>
      </trkpt>
      <trkpt lat="43.58037" lon="1.34989">
        <ele>150</ele>
        <time>2020-10-08T11:36:07+02:00</time>
      </trkpt>
      <trkpt lat="43.58016" lon="1.34972">
        <ele>150</ele>
        <time>2020-10-08T11:36:13+02:00</time>
      </trkpt>
      <trkpt lat="43.57998" lon="1.34947">
        <ele>150</ele>
        <time>2020-10-08T11:36:21+02:00</time>
      </trkpt>
      <trkpt lat="43.5798" lon="1.34926">
        <ele>151</ele>
        <time>2020-10-08T11:36:28+02:00</time>
      </trkpt>
      <trkpt lat="43.57958" lon="1.34908">
        <ele>151</ele>
        <time>2020-10-08T11:36:34+02:00</time>
      </trkpt>
      <trkpt lat="43.57936" lon="1.34891">
        <ele>151</ele>
        <time>2020-10-08T11:36:40+02:00</time>
      </trkpt>
      <trkpt lat="43.57918" lon="1.3487">
        <ele>151</ele>
        <time>2020-10-08T11:36:47+02:00</time>
      </trkpt>
      <trkpt lat="43.57897" lon="1.34846">
        <ele>151</ele>
        <time>2020-10-08T11:36:53+02:00</time>
      </trkpt>
      <trkpt lat="43.57875" lon="1.34833">
        <ele>151</ele>
        <time>2020-10-08T11:36:58+02:00</time>
      </trkpt>
      <trkpt lat="43.57857" lon="1.34813">
        <ele>151</ele>
        <time>2020-10-08T11:37:06+02:00</time>
      </trkpt>
      <trkpt lat="43.57845" lon="1.34782">
        <ele>151</ele>
        <time>2020-10-08T11:37:14+02:00</time>
      </trkpt>
      <trkpt lat="43.5783" lon="1.34755">
        <ele>151</ele>
        <time>2020-10-08T11:37:20+02:00</time>
      </trkpt>
      <trkpt lat="43.57818" lon="1.34727">
        <ele>151</ele>
        <time>2020-10-08T11:37:27+02:00</time>
      </trkpt>
      <trkpt lat="43.57805" lon="1.34698">
        <ele>151</ele>
        <time>2020-10-08T11:37:34+02:00</time>
      </trkpt>
      <trkpt lat="43.57795" lon="1.34667">
        <ele>151</ele>
        <time>2020-10-08T11:37:41+02:00</time>
      </trkpt>
      <trkpt lat="43.57787" lon="1.34633">
        <ele>151</ele>
        <time>2020-10-08T11:37:48+02:00</time>
      </trkpt>
      <trkpt lat="43.57783" lon="1.34603">
        <ele>151</ele>
        <time>2020-10-08T11:37:55+02:00</time>
      </trkpt>
      <trkpt lat="43.57783" lon="1.34568">
        <ele>151</ele>
        <time>2020-10-08T11:38:02+02:00</time>
      </trkpt>
      <trkpt lat="43.57785" lon="1.34531">
        <ele>151</ele>
        <time>2020-10-08T11:38:07+02:00</time>
      </trkpt>
      <trkpt lat="43.5779" lon="1.345">
        <ele>151</ele>
        <time>2020-10-08T11:38:11+02:00</time>
      </trkpt>
      <trkpt lat="43.57797" lon="1.34466">
        <ele>151</ele>
        <time>2020-10-08T11:38:16+02:00</time>
      </trkpt>
      <trkpt lat="43.57806" lon="1.34433">
        <ele>152</ele>
        <time>2020-10-08T11:38:22+02:00</time>
      </trkpt>
      <trkpt lat="43.57812" lon="1.344">
        <ele>152</ele>
        <time>2020-10-08T11:38:30+02:00</time>
      </trkpt>
      <trkpt lat="43.57812" lon="1.34367">
        <ele>152</ele>
        <time>2020-10-08T11:38:39+02:00</time>
      </trkpt>
      <trkpt lat="43.57794" lon="1.34345">
        <ele>152</ele>
        <time>2020-10-08T11:38:47+02:00</time>
      </trkpt>
      <trkpt lat="43.57771" lon="1.34348">
        <ele>153</ele>
        <time>2020-10-08T11:38:53+02:00</time>
      </trkpt>
      <trkpt lat="43.57747" lon="1.3435">
        <ele>153</ele>
        <time>2020-10-08T11:38:59+02:00</time>
      </trkpt>
      <trkpt lat="43.5777" lon="1.34345">
        <ele>153</ele>
        <time>2020-10-08T11:39:20+02:00</time>
      </trkpt>
      <trkpt lat="43.5779" lon="1.34327">
        <ele>153</ele>
        <time>2020-10-08T11:39:32+02:00</time>
      </trkpt>
      <trkpt lat="43.57794" lon="1.34296">
        <ele>153</ele>
        <time>2020-10-08T11:39:43+02:00</time>
      </trkpt>
      <trkpt lat="43.57772" lon="1.34282">
        <ele>153</ele>
        <time>2020-10-08T11:39:51+02:00</time>
      </trkpt>
      <trkpt lat="43.57749" lon="1.34279">
        <ele>153</ele>
        <time>2020-10-08T11:40:01+02:00</time>
      </trkpt>
      <trkpt lat="43.57726" lon="1.34266">
        <ele>153</ele>
        <time>2020-10-08T11:40:12+02:00</time>
      </trkpt>
      <trkpt lat="43.57702" lon="1.34256">
        <ele>153</ele>
        <time>2020-10-08T11:40:23+02:00</time>
      </trkpt>
      <trkpt lat="43.57678" lon="1.34247">
        <ele>154</ele>
        <time>2020-10-08T11:40:29+02:00</time>
      </trkpt>
      <trkpt lat="43.57659" lon="1.34224">
        <ele>153</ele>
        <time>2020-10-08T11:40:36+02:00</time>
      </trkpt>
      <trkpt lat="43.57642" lon="1.34199">
        <ele>154</ele>
        <time>2020-10-08T11:40:42+02:00</time>
      </trkpt>
      <trkpt lat="43.57625" lon="1.34177">
        <ele>154</ele>
        <time>2020-10-08T11:40:48+02:00</time>
      </trkpt>
      <trkpt lat="43.57608" lon="1.34151">
        <ele>154</ele>
        <time>2020-10-08T11:40:55+02:00</time>
      </trkpt>
      <trkpt lat="43.57609" lon="1.3412">
        <ele>154</ele>
        <time>2020-10-08T11:41:01+02:00</time>
      </trkpt>
      <trkpt lat="43.5761" lon="1.34087">
        <ele>154</ele>
        <time>2020-10-08T11:41:09+02:00</time>
      </trkpt>
      <trkpt lat="43.57617" lon="1.34054">
        <ele>154</ele>
        <time>2020-10-08T11:41:17+02:00</time>
      </trkpt>
      <trkpt lat="43.57627" lon="1.34026">
        <ele>154</ele>
        <time>2020-10-08T11:41:23+02:00</time>
      </trkpt>
      <trkpt lat="43.57621" lon="1.33995">
        <ele>154</ele>
        <time>2020-10-08T11:41:35+02:00</time>
      </trkpt>
      <trkpt lat="43.57601" lon="1.3398">
        <ele>154</ele>
        <time>2020-10-08T11:41:42+02:00</time>
      </trkpt>
      <trkpt lat="43.57583" lon="1.33956">
        <ele>154</ele>
        <time>2020-10-08T11:41:48+02:00</time>
      </trkpt>
      <trkpt lat="43.57594" lon="1.33927">
        <ele>154</ele>
        <time>2020-10-08T11:41:58+02:00</time>
      </trkpt>
      <trkpt lat="43.57615" lon="1.33905">
        <ele>154</ele>
        <time>2020-10-08T11:42:06+02:00</time>
      </trkpt>
      <trkpt lat="43.57622" lon="1.33873">
        <ele>154</ele>
        <time>2020-10-08T11:42:11+02:00</time>
      </trkpt>
      <trkpt lat="43.57626" lon="1.33839">
        <ele>153</ele>
        <time>2020-10-08T11:42:16+02:00</time>
      </trkpt>
      <trkpt lat="43.57631" lon="1.33804">
        <ele>153</ele>
        <time>2020-10-08T11:42:22+02:00</time>
      </trkpt>
      <trkpt lat="43.57634" lon="1.33769">
        <ele>154</ele>
        <time>2020-10-08T11:42:27+02:00</time>
      </trkpt>
      <trkpt lat="43.5764" lon="1.33733">
        <ele>154</ele>
        <time>2020-10-08T11:42:32+02:00</time>
      </trkpt>
      <trkpt lat="43.57638" lon="1.33701">
        <ele>154</ele>
        <time>2020-10-08T11:42:37+02:00</time>
      </trkpt>
      <trkpt lat="43.57633" lon="1.3367">
        <ele>154</ele>
        <time>2020-10-08T11:42:43+02:00</time>
      </trkpt>
      <trkpt lat="43.5763" lon="1.33634">
        <ele>154</ele>
        <time>2020-10-08T11:42:50+02:00</time>
      </trkpt>
      <trkpt lat="43.57627" lon="1.33599">
        <ele>154</ele>
        <time>2020-10-08T11:42:56+02:00</time>
      </trkpt>
      <trkpt lat="43.57621" lon="1.33566">
        <ele>155</ele>
        <time>2020-10-08T11:43:02+02:00</time>
      </trkpt>
      <trkpt lat="43.57613" lon="1.33535">
        <ele>154</ele>
        <time>2020-10-08T11:43:07+02:00</time>
      </trkpt>
      <trkpt lat="43.57601" lon="1.33507">
        <ele>154</ele>
        <time>2020-10-08T11:43:13+02:00</time>
      </trkpt>
      <trkpt lat="43.57589" lon="1.33481">
        <ele>154</ele>
        <time>2020-10-08T11:43:18+02:00</time>
      </trkpt>
      <trkpt lat="43.57574" lon="1.3345">
        <ele>154</ele>
        <time>2020-10-08T11:43:25+02:00</time>
      </trkpt>
      <trkpt lat="43.57563" lon="1.33421">
        <ele>154</ele>
        <time>2020-10-08T11:43:31+02:00</time>
      </trkpt>
      <trkpt lat="43.57547" lon="1.33394">
        <ele>154</ele>
        <time>2020-10-08T11:43:37+02:00</time>
      </trkpt>
      <trkpt lat="43.57531" lon="1.33369">
        <ele>154</ele>
        <time>2020-10-08T11:43:43+02:00</time>
      </trkpt>
      <trkpt lat="43.57516" lon="1.33346">
        <ele>154</ele>
        <time>2020-10-08T11:43:49+02:00</time>
      </trkpt>
      <trkpt lat="43.5751" lon="1.33313">
        <ele>154</ele>
        <time>2020-10-08T11:43:56+02:00</time>
      </trkpt>
      <trkpt lat="43.57503" lon="1.33279">
        <ele>154</ele>
        <time>2020-10-08T11:44:02+02:00</time>
      </trkpt>
      <trkpt lat="43.57494" lon="1.33248">
        <ele>155</ele>
        <time>2020-10-08T11:44:08+02:00</time>
      </trkpt>
      <trkpt lat="43.5748" lon="1.33218">
        <ele>155</ele>
        <time>2020-10-08T11:44:15+02:00</time>
      </trkpt>
      <trkpt lat="43.57466" lon="1.33191">
        <ele>155</ele>
        <time>2020-10-08T11:44:22+02:00</time>
      </trkpt>
      <trkpt lat="43.57451" lon="1.33167">
        <ele>155</ele>
        <time>2020-10-08T11:44:28+02:00</time>
      </trkpt>
      <trkpt lat="43.57441" lon="1.33139">
        <ele>155</ele>
        <time>2020-10-08T11:44:35+02:00</time>
      </trkpt>
      <trkpt lat="43.57437" lon="1.33108">
        <ele>155</ele>
        <time>2020-10-08T11:44:44+02:00</time>
      </trkpt>
      <trkpt lat="43.57424" lon="1.33079">
        <ele>155</ele>
        <time>2020-10-08T11:44:54+02:00</time>
      </trkpt>
      <trkpt lat="43.57411" lon="1.3305">
        <ele>155</ele>
        <time>2020-10-08T11:45:03+02:00</time>
      </trkpt>
      <trkpt lat="43.57392" lon="1.33032">
        <ele>155</ele>
        <time>2020-10-08T11:45:10+02:00</time>
      </trkpt>
      <trkpt lat="43.57374" lon="1.3301">
        <ele>155</ele>
        <time>2020-10-08T11:45:17+02:00</time>
      </trkpt>
      <trkpt lat="43.57354" lon="1.32993">
        <ele>155</ele>
        <time>2020-10-08T11:45:24+02:00</time>
      </trkpt>
      <trkpt lat="43.57338" lon="1.32971">
        <ele>155</ele>
        <time>2020-10-08T11:45:32+02:00</time>
      </trkpt>
      <trkpt lat="43.57326" lon="1.32944">
        <ele>155</ele>
        <time>2020-10-08T11:45:38+02:00</time>
      </trkpt>
      <trkpt lat="43.57315" lon="1.32914">
        <ele>155</ele>
        <time>2020-10-08T11:45:46+02:00</time>
      </trkpt>
      <trkpt lat="43.57297" lon="1.32894">
        <ele>155</ele>
        <time>2020-10-08T11:45:53+02:00</time>
      </trkpt>
      <trkpt lat="43.57277" lon="1.32876">
        <ele>155</ele>
        <time>2020-10-08T11:45:59+02:00</time>
      </trkpt>
      <trkpt lat="43.57258" lon="1.32859">
        <ele>155</ele>
        <time>2020-10-08T11:46:04+02:00</time>
      </trkpt>
      <trkpt lat="43.57237" lon="1.32839">
        <ele>155</ele>
        <time>2020-10-08T11:46:10+02:00</time>
      </trkpt>
      <trkpt lat="43.57216" lon="1.32819">
        <ele>155</ele>
        <time>2020-10-08T11:46:16+02:00</time>
      </trkpt>
      <trkpt lat="43.57194" lon="1.328">
        <ele>155</ele>
        <time>2020-10-08T11:46:22+02:00</time>
      </trkpt>
      <trkpt lat="43.57175" lon="1.32783">
        <ele>155</ele>
        <time>2020-10-08T11:46:27+02:00</time>
      </trkpt>
      <trkpt lat="43.57156" lon="1.32763">
        <ele>155</ele>
        <time>2020-10-08T11:46:33+02:00</time>
      </trkpt>
      <trkpt lat="43.57133" lon="1.32749">
        <ele>155</ele>
        <time>2020-10-08T11:57:58+02:00</time>
      </trkpt>
      <trkpt lat="43.57118" lon="1.32724">
        <ele>155</ele>
        <time>2020-10-08T11:58:09+02:00</time>
      </trkpt>
      <trkpt lat="43.57113" lon="1.32693">
        <ele>155</ele>
        <time>2020-10-08T11:58:20+02:00</time>
      </trkpt>
      <trkpt lat="43.57114" lon="1.32661">
        <ele>155</ele>
        <time>2020-10-08T11:58:30+02:00</time>
      </trkpt>
      <trkpt lat="43.57119" lon="1.3263">
        <ele>155</ele>
        <time>2020-10-08T11:58:41+02:00</time>
      </trkpt>
      <trkpt lat="43.57123" lon="1.32599">
        <ele>155</ele>
        <time>2020-10-08T11:58:52+02:00</time>
      </trkpt>
      <trkpt lat="43.57132" lon="1.32571">
        <ele>155</ele>
        <time>2020-10-08T11:59:02+02:00</time>
      </trkpt>
      <trkpt lat="43.57141" lon="1.32542">
        <ele>155</ele>
        <time>2020-10-08T11:59:12+02:00</time>
      </trkpt>
      <trkpt lat="43.57149" lon="1.32511">
        <ele>155</ele>
        <time>2020-10-08T11:59:24+02:00</time>
      </trkpt>
      <trkpt lat="43.57156" lon="1.32481">
        <ele>156</ele>
        <time>2020-10-08T11:59:34+02:00</time>
      </trkpt>
      <trkpt lat="43.57163" lon="1.3245">
        <ele>156</ele>
        <time>2020-10-08T11:59:43+02:00</time>
      </trkpt>
      <trkpt lat="43.57172" lon="1.32421">
        <ele>156</ele>
        <time>2020-10-08T11:59:51+02:00</time>
      </trkpt>
      <trkpt lat="43.57176" lon="1.3239">
        <ele>156</ele>
        <time>2020-10-08T11:59:59+02:00</time>
      </trkpt>
      <trkpt lat="43.57175" lon="1.32359">
        <ele>156</ele>
        <time>2020-10-08T12:00:07+02:00</time>
      </trkpt>
      <trkpt lat="43.57173" lon="1.32325">
        <ele>156</ele>
        <time>2020-10-08T12:00:15+02:00</time>
      </trkpt>
      <trkpt lat="43.5717" lon="1.32294">
        <ele>156</ele>
        <time>2020-10-08T12:00:23+02:00</time>
      </trkpt>
      <trkpt lat="43.57171" lon="1.3226">
        <ele>156</ele>
        <time>2020-10-08T12:00:33+02:00</time>
      </trkpt>
      <trkpt lat="43.57174" lon="1.32229">
        <ele>156</ele>
        <time>2020-10-08T12:00:42+02:00</time>
      </trkpt>
      <trkpt lat="43.57184" lon="1.32201">
        <ele>156</ele>
        <time>2020-10-08T12:00:50+02:00</time>
      </trkpt>
      <trkpt lat="43.5719" lon="1.3217">
        <ele>157</ele>
        <time>2020-10-08T12:00:58+02:00</time>
      </trkpt>
      <trkpt lat="43.57192" lon="1.32136">
        <ele>157</ele>
        <time>2020-10-08T12:01:07+02:00</time>
      </trkpt>
      <trkpt lat="43.57191" lon="1.32103">
        <ele>157</ele>
        <time>2020-10-08T12:01:32+02:00</time>
      </trkpt>
      <trkpt lat="43.57182" lon="1.32074">
        <ele>158</ele>
        <time>2020-10-08T12:01:40+02:00</time>
      </trkpt>
      <trkpt lat="43.57173" lon="1.32044">
        <ele>157</ele>
        <time>2020-10-08T12:01:48+02:00</time>
      </trkpt>
      <trkpt lat="43.57156" lon="1.32024">
        <ele>157</ele>
        <time>2020-10-08T12:01:56+02:00</time>
      </trkpt>
      <trkpt lat="43.57135" lon="1.32005">
        <ele>157</ele>
        <time>2020-10-08T12:02:04+02:00</time>
      </trkpt>
      <trkpt lat="43.57114" lon="1.31992">
        <ele>156</ele>
        <time>2020-10-08T12:02:12+02:00</time>
      </trkpt>
      <trkpt lat="43.57093" lon="1.31976">
        <ele>156</ele>
        <time>2020-10-08T12:02:21+02:00</time>
      </trkpt>
      <trkpt lat="43.57071" lon="1.31958">
        <ele>156</ele>
        <time>2020-10-08T12:02:29+02:00</time>
      </trkpt>
      <trkpt lat="43.57049" lon="1.31943">
        <ele>156</ele>
        <time>2020-10-08T12:02:35+02:00</time>
      </trkpt>
      <trkpt lat="43.57028" lon="1.31931">
        <ele>156</ele>
        <time>2020-10-08T12:02:42+02:00</time>
      </trkpt>
      <trkpt lat="43.57005" lon="1.31918">
        <ele>156</ele>
        <time>2020-10-08T12:02:50+02:00</time>
      </trkpt>
      <trkpt lat="43.56982" lon="1.31909">
        <ele>156</ele>
        <time>2020-10-08T12:02:57+02:00</time>
      </trkpt>
      <trkpt lat="43.5696" lon="1.31897">
        <ele>156</ele>
        <time>2020-10-08T12:03:04+02:00</time>
      </trkpt>
      <trkpt lat="43.56946" lon="1.31873">
        <ele>156</ele>
        <time>2020-10-08T12:03:13+02:00</time>
      </trkpt>
      <trkpt lat="43.56938" lon="1.31843">
        <ele>156</ele>
        <time>2020-10-08T12:03:24+02:00</time>
      </trkpt>
      <trkpt lat="43.5693" lon="1.31814">
        <ele>156</ele>
        <time>2020-10-08T12:03:35+02:00</time>
      </trkpt>
      <trkpt lat="43.56925" lon="1.31779">
        <ele>156</ele>
        <time>2020-10-08T12:03:42+02:00</time>
      </trkpt>
      <trkpt lat="43.56921" lon="1.31747">
        <ele>156</ele>
        <time>2020-10-08T12:03:48+02:00</time>
      </trkpt>
      <trkpt lat="43.56911" lon="1.31715">
        <ele>156</ele>
        <time>2020-10-08T12:03:55+02:00</time>
      </trkpt>
      <trkpt lat="43.56902" lon="1.31686">
        <ele>157</ele>
        <time>2020-10-08T12:04:01+02:00</time>
      </trkpt>
      <trkpt lat="43.56891" lon="1.31655">
        <ele>157</ele>
        <time>2020-10-08T12:04:08+02:00</time>
      </trkpt>
      <trkpt lat="43.56887" lon="1.31623">
        <ele>157</ele>
        <time>2020-10-08T12:04:16+02:00</time>
      </trkpt>
      <trkpt lat="43.56874" lon="1.31598">
        <ele>157</ele>
        <time>2020-10-08T12:04:36+02:00</time>
      </trkpt>
      <trkpt lat="43.56851" lon="1.31596">
        <ele>157</ele>
        <time>2020-10-08T12:04:44+02:00</time>
      </trkpt>
      <trkpt lat="43.56829" lon="1.31583">
        <ele>157</ele>
        <time>2020-10-08T12:04:52+02:00</time>
      </trkpt>
      <trkpt lat="43.56812" lon="1.31558">
        <ele>157</ele>
        <time>2020-10-08T12:05:00+02:00</time>
      </trkpt>
      <trkpt lat="43.56801" lon="1.31531">
        <ele>157</ele>
        <time>2020-10-08T12:05:07+02:00</time>
      </trkpt>
      <trkpt lat="43.56788" lon="1.31502">
        <ele>157</ele>
        <time>2020-10-08T12:05:17+02:00</time>
      </trkpt>
      <trkpt lat="43.56774" lon="1.31476">
        <ele>158</ele>
        <time>2020-10-08T12:05:25+02:00</time>
      </trkpt>
      <trkpt lat="43.56757" lon="1.31453">
        <ele>158</ele>
        <time>2020-10-08T12:05:34+02:00</time>
      </trkpt>
      <trkpt lat="43.56742" lon="1.31429">
        <ele>158</ele>
        <time>2020-10-08T12:05:48+02:00</time>
      </trkpt>
      <trkpt lat="43.56739" lon="1.31397">
        <ele>158</ele>
        <time>2020-10-08T12:06:02+02:00</time>
      </trkpt>
      <trkpt lat="43.56732" lon="1.31366">
        <ele>159</ele>
        <time>2020-10-08T12:06:14+02:00</time>
      </trkpt>
      <trkpt lat="43.56725" lon="1.31336">
        <ele>160</ele>
        <time>2020-10-08T12:06:26+02:00</time>
      </trkpt>
      <trkpt lat="43.5672" lon="1.31305">
        <ele>160</ele>
        <time>2020-10-08T12:06:38+02:00</time>
      </trkpt>
      <trkpt lat="43.56706" lon="1.3128">
        <ele>160</ele>
        <time>2020-10-08T12:07:22+02:00</time>
      </trkpt>
      <trkpt lat="43.56683" lon="1.31283">
        <ele>159</ele>
        <time>2020-10-08T12:07:46+02:00</time>
      </trkpt>
      <trkpt lat="43.56663" lon="1.31268">
        <ele>158</ele>
        <time>2020-10-08T12:08:11+02:00</time>
      </trkpt>
      <trkpt lat="43.56647" lon="1.31245">
        <ele>159</ele>
        <time>2020-10-08T12:08:20+02:00</time>
      </trkpt>
      <trkpt lat="43.56633" lon="1.31219">
        <ele>158</ele>
        <time>2020-10-08T12:08:27+02:00</time>
      </trkpt>
      <trkpt lat="43.56612" lon="1.31201">
        <ele>159</ele>
        <time>2020-10-08T12:08:35+02:00</time>
      </trkpt>
      <trkpt lat="43.56591" lon="1.31183">
        <ele>159</ele>
        <time>2020-10-08T12:08:43+02:00</time>
      </trkpt>
      <trkpt lat="43.56567" lon="1.31178">
        <ele>159</ele>
        <time>2020-10-08T12:08:54+02:00</time>
      </trkpt>
      <trkpt lat="43.56567" lon="1.31143">
        <ele>159</ele>
        <time>2020-10-08T12:09:12+02:00</time>
      </trkpt>
      <trkpt lat="43.56572" lon="1.3111">
        <ele>159</ele>
        <time>2020-10-08T12:09:19+02:00</time>
      </trkpt>
      <trkpt lat="43.5657" lon="1.31078">
        <ele>160</ele>
        <time>2020-10-08T12:09:26+02:00</time>
      </trkpt>
      <trkpt lat="43.5656" lon="1.31045">
        <ele>159</ele>
        <time>2020-10-08T12:09:34+02:00</time>
      </trkpt>
      <trkpt lat="43.56543" lon="1.31019">
        <ele>159</ele>
        <time>2020-10-08T12:09:41+02:00</time>
      </trkpt>
      <trkpt lat="43.56528" lon="1.30995">
        <ele>159</ele>
        <time>2020-10-08T12:09:47+02:00</time>
      </trkpt>
      <trkpt lat="43.56513" lon="1.30972">
        <ele>160</ele>
        <time>2020-10-08T12:09:53+02:00</time>
      </trkpt>
      <trkpt lat="43.56499" lon="1.30945">
        <ele>159</ele>
        <time>2020-10-08T12:10:00+02:00</time>
      </trkpt>
      <trkpt lat="43.56503" lon="1.30912">
        <ele>159</ele>
        <time>2020-10-08T12:10:06+02:00</time>
      </trkpt>
      <trkpt lat="43.5652" lon="1.30893">
        <ele>160</ele>
        <time>2020-10-08T12:10:15+02:00</time>
      </trkpt>
      <trkpt lat="43.56545" lon="1.30894">
        <ele>160</ele>
        <time>2020-10-08T12:10:23+02:00</time>
      </trkpt>
      <trkpt lat="43.56568" lon="1.30889">
        <ele>160</ele>
        <time>2020-10-08T12:10:33+02:00</time>
      </trkpt>
      <trkpt lat="43.56584" lon="1.30866">
        <ele>160</ele>
        <time>2020-10-08T12:10:44+02:00</time>
      </trkpt>
      <trkpt lat="43.56561" lon="1.30866">
        <ele>160</ele>
        <time>2020-10-08T12:11:26+02:00</time>
      </trkpt>
      <trkpt lat="43.56543" lon="1.30845">
        <ele>160</ele>
        <time>2020-10-08T12:11:33+02:00</time>
      </trkpt>
      <trkpt lat="43.56519" lon="1.30829">
        <ele>159</ele>
        <time>2020-10-08T12:11:39+02:00</time>
      </trkpt>
      <trkpt lat="43.56503" lon="1.30807">
        <ele>159</ele>
        <time>2020-10-08T12:11:45+02:00</time>
      </trkpt>
      <trkpt lat="43.56487" lon="1.30785">
        <ele>159</ele>
        <time>2020-10-08T12:11:51+02:00</time>
      </trkpt>
      <trkpt lat="43.56467" lon="1.30763">
        <ele>159</ele>
        <time>2020-10-08T12:11:58+02:00</time>
      </trkpt>
      <trkpt lat="43.56444" lon="1.30751">
        <ele>159</ele>
        <time>2020-10-08T12:12:05+02:00</time>
      </trkpt>
      <trkpt lat="43.5642" lon="1.30757">
        <ele>159</ele>
        <time>2020-10-08T12:12:12+02:00</time>
      </trkpt>
      <trkpt lat="43.56404" lon="1.3078">
        <ele>159</ele>
        <time>2020-10-08T12:12:19+02:00</time>
      </trkpt>
      <trkpt lat="43.56396" lon="1.30811">
        <ele>159</ele>
        <time>2020-10-08T12:12:27+02:00</time>
      </trkpt>
      <trkpt lat="43.56396" lon="1.30843">
        <ele>159</ele>
        <time>2020-10-08T12:12:33+02:00</time>
      </trkpt>
      <trkpt lat="43.564" lon="1.30877">
        <ele>159</ele>
        <time>2020-10-08T12:12:41+02:00</time>
      </trkpt>
      <trkpt lat="43.564" lon="1.30912">
        <ele>159</ele>
        <time>2020-10-08T12:12:48+02:00</time>
      </trkpt>
      <trkpt lat="43.56401" lon="1.30947">
        <ele>159</ele>
        <time>2020-10-08T12:12:56+02:00</time>
      </trkpt>
      <trkpt lat="43.56405" lon="1.30981">
        <ele>159</ele>
        <time>2020-10-08T12:13:03+02:00</time>
      </trkpt>
      <trkpt lat="43.5641" lon="1.31014">
        <ele>159</ele>
        <time>2020-10-08T12:13:09+02:00</time>
      </trkpt>
      <trkpt lat="43.56418" lon="1.31047">
        <ele>159</ele>
        <time>2020-10-08T12:13:15+02:00</time>
      </trkpt>
      <trkpt lat="43.56427" lon="1.3108">
        <ele>159</ele>
        <time>2020-10-08T12:13:22+02:00</time>
      </trkpt>
      <trkpt lat="43.56414" lon="1.31106">
        <ele>159</ele>
        <time>2020-10-08T12:13:46+02:00</time>
      </trkpt>
      <trkpt lat="43.56414" lon="1.31143">
        <ele>159</ele>
        <time>2020-10-08T12:14:08+02:00</time>
      </trkpt>
      <trkpt lat="43.56429" lon="1.31167">
        <ele>159</ele>
        <time>2020-10-08T12:14:14+02:00</time>
      </trkpt>
      <trkpt lat="43.56443" lon="1.31196">
        <ele>158</ele>
        <time>2020-10-08T12:14:20+02:00</time>
      </trkpt>
      <trkpt lat="43.5646" lon="1.31222">
        <ele>159</ele>
        <time>2020-10-08T12:14:27+02:00</time>
      </trkpt>
      <trkpt lat="43.56484" lon="1.31233">
        <ele>158</ele>
        <time>2020-10-08T12:14:34+02:00</time>
      </trkpt>
      <trkpt lat="43.56507" lon="1.31244">
        <ele>158</ele>
        <time>2020-10-08T12:14:40+02:00</time>
      </trkpt>
      <trkpt lat="43.5653" lon="1.31249">
        <ele>157</ele>
        <time>2020-10-08T12:14:46+02:00</time>
      </trkpt>
      <trkpt lat="43.56553" lon="1.31246">
        <ele>157</ele>
        <time>2020-10-08T12:14:52+02:00</time>
      </trkpt>
      <trkpt lat="43.56576" lon="1.31255">
        <ele>157</ele>
        <time>2020-10-08T12:15:01+02:00</time>
      </trkpt>
      <trkpt lat="43.56591" lon="1.31281">
        <ele>157</ele>
        <time>2020-10-08T12:15:11+02:00</time>
      </trkpt>
      <trkpt lat="43.56605" lon="1.31312">
        <ele>157</ele>
        <time>2020-10-08T12:15:17+02:00</time>
      </trkpt>
      <trkpt lat="43.5662" lon="1.31336">
        <ele>157</ele>
        <time>2020-10-08T12:15:22+02:00</time>
      </trkpt>
      <trkpt lat="43.56631" lon="1.31367">
        <ele>157</ele>
        <time>2020-10-08T12:15:27+02:00</time>
      </trkpt>
      <trkpt lat="43.56642" lon="1.31397">
        <ele>158</ele>
        <time>2020-10-08T12:15:33+02:00</time>
      </trkpt>
      <trkpt lat="43.56661" lon="1.3142">
        <ele>159</ele>
        <time>2020-10-08T12:15:40+02:00</time>
      </trkpt>
      <trkpt lat="43.56683" lon="1.31441">
        <ele>158</ele>
        <time>2020-10-08T12:15:47+02:00</time>
      </trkpt>
      <trkpt lat="43.56697" lon="1.31467">
        <ele>158</ele>
        <time>2020-10-08T12:15:53+02:00</time>
      </trkpt>
      <trkpt lat="43.56701" lon="1.31498">
        <ele>158</ele>
        <time>2020-10-08T12:15:59+02:00</time>
      </trkpt>
      <trkpt lat="43.56687" lon="1.31525">
        <ele>158</ele>
        <time>2020-10-08T12:16:06+02:00</time>
      </trkpt>
      <trkpt lat="43.56664" lon="1.31545">
        <ele>159</ele>
        <time>2020-10-08T12:16:11+02:00</time>
      </trkpt>
      <trkpt lat="43.5664" lon="1.31561">
        <ele>160</ele>
        <time>2020-10-08T12:16:17+02:00</time>
      </trkpt>
      <trkpt lat="43.56618" lon="1.31581">
        <ele>160</ele>
        <time>2020-10-08T12:16:24+02:00</time>
      </trkpt>
      <trkpt lat="43.56597" lon="1.31594">
        <ele>160</ele>
        <time>2020-10-08T12:16:31+02:00</time>
      </trkpt>
      <trkpt lat="43.56576" lon="1.31609">
        <ele>161</ele>
        <time>2020-10-08T12:16:38+02:00</time>
      </trkpt>
      <trkpt lat="43.56555" lon="1.31626">
        <ele>161</ele>
        <time>2020-10-08T12:16:44+02:00</time>
      </trkpt>
      <trkpt lat="43.56532" lon="1.31645">
        <ele>161</ele>
        <time>2020-10-08T12:16:50+02:00</time>
      </trkpt>
      <trkpt lat="43.56511" lon="1.31661">
        <ele>161</ele>
        <time>2020-10-08T12:16:56+02:00</time>
      </trkpt>
      <trkpt lat="43.56489" lon="1.31676">
        <ele>161</ele>
        <time>2020-10-08T12:17:02+02:00</time>
      </trkpt>
      <trkpt lat="43.56467" lon="1.31695">
        <ele>162</ele>
        <time>2020-10-08T12:17:09+02:00</time>
      </trkpt>
      <trkpt lat="43.56445" lon="1.31712">
        <ele>162</ele>
        <time>2020-10-08T12:17:16+02:00</time>
      </trkpt>
      <trkpt lat="43.56426" lon="1.31732">
        <ele>162</ele>
        <time>2020-10-08T12:17:25+02:00</time>
      </trkpt>
      <trkpt lat="43.56425" lon="1.31765">
        <ele>162</ele>
        <time>2020-10-08T12:17:37+02:00</time>
      </trkpt>
      <trkpt lat="43.56434" lon="1.31796">
        <ele>162</ele>
        <time>2020-10-08T12:17:46+02:00</time>
      </trkpt>
      <trkpt lat="43.56444" lon="1.31826">
        <ele>162</ele>
        <time>2020-10-08T12:17:55+02:00</time>
      </trkpt>
      <trkpt lat="43.56446" lon="1.31857">
        <ele>162</ele>
        <time>2020-10-08T12:18:06+02:00</time>
      </trkpt>
      <trkpt lat="43.56455" lon="1.31887">
        <ele>162</ele>
        <time>2020-10-08T12:18:15+02:00</time>
      </trkpt>
      <trkpt lat="43.56465" lon="1.31918">
        <ele>162</ele>
        <time>2020-10-08T12:18:24+02:00</time>
      </trkpt>
      <trkpt lat="43.56475" lon="1.31949">
        <ele>162</ele>
        <time>2020-10-08T12:18:30+02:00</time>
      </trkpt>
      <trkpt lat="43.56482" lon="1.31983">
        <ele>162</ele>
        <time>2020-10-08T12:18:37+02:00</time>
      </trkpt>
      <trkpt lat="43.56489" lon="1.32017">
        <ele>162</ele>
        <time>2020-10-08T12:18:43+02:00</time>
      </trkpt>
      <trkpt lat="43.56494" lon="1.32048">
        <ele>162</ele>
        <time>2020-10-08T12:18:49+02:00</time>
      </trkpt>
      <trkpt lat="43.56501" lon="1.3208">
        <ele>162</ele>
        <time>2020-10-08T12:18:55+02:00</time>
      </trkpt>
      <trkpt lat="43.56509" lon="1.32114">
        <ele>162</ele>
        <time>2020-10-08T12:19:01+02:00</time>
      </trkpt>
      <trkpt lat="43.56517" lon="1.32147">
        <ele>162</ele>
        <time>2020-10-08T12:19:07+02:00</time>
      </trkpt>
      <trkpt lat="43.56523" lon="1.32177">
        <ele>162</ele>
        <time>2020-10-08T12:19:14+02:00</time>
      </trkpt>
      <trkpt lat="43.56538" lon="1.32204">
        <ele>162</ele>
        <time>2020-10-08T12:19:26+02:00</time>
      </trkpt>
      <trkpt lat="43.5656" lon="1.32214">
        <ele>162</ele>
        <time>2020-10-08T12:21:08+02:00</time>
      </trkpt>
      <trkpt lat="43.56571" lon="1.32244">
        <ele>161</ele>
        <time>2020-10-08T12:21:15+02:00</time>
      </trkpt>
      <trkpt lat="43.56584" lon="1.32272">
        <ele>161</ele>
        <time>2020-10-08T12:21:22+02:00</time>
      </trkpt>
      <trkpt lat="43.56592" lon="1.32305">
        <ele>161</ele>
        <time>2020-10-08T12:21:28+02:00</time>
      </trkpt>
      <trkpt lat="43.56603" lon="1.32336">
        <ele>161</ele>
        <time>2020-10-08T12:21:35+02:00</time>
      </trkpt>
      <trkpt lat="43.56607" lon="1.32367">
        <ele>161</ele>
        <time>2020-10-08T12:21:42+02:00</time>
      </trkpt>
      <trkpt lat="43.56616" lon="1.32401">
        <ele>161</ele>
        <time>2020-10-08T12:21:50+02:00</time>
      </trkpt>
      <trkpt lat="43.56626" lon="1.32433">
        <ele>161</ele>
        <time>2020-10-08T12:21:57+02:00</time>
      </trkpt>
      <trkpt lat="43.56637" lon="1.32463">
        <ele>161</ele>
        <time>2020-10-08T12:22:03+02:00</time>
      </trkpt>
      <trkpt lat="43.56647" lon="1.32494">
        <ele>161</ele>
        <time>2020-10-08T12:22:11+02:00</time>
      </trkpt>
      <trkpt lat="43.56658" lon="1.32523">
        <ele>161</ele>
        <time>2020-10-08T12:22:17+02:00</time>
      </trkpt>
      <trkpt lat="43.56666" lon="1.32552">
        <ele>161</ele>
        <time>2020-10-08T12:22:23+02:00</time>
      </trkpt>
      <trkpt lat="43.56677" lon="1.32583">
        <ele>161</ele>
        <time>2020-10-08T12:22:29+02:00</time>
      </trkpt>
      <trkpt lat="43.56688" lon="1.32613">
        <ele>161</ele>
        <time>2020-10-08T12:22:35+02:00</time>
      </trkpt>
      <trkpt lat="43.567" lon="1.32642">
        <ele>161</ele>
        <time>2020-10-08T12:22:41+02:00</time>
      </trkpt>
      <trkpt lat="43.56711" lon="1.32673">
        <ele>161</ele>
        <time>2020-10-08T12:22:47+02:00</time>
      </trkpt>
      <trkpt lat="43.56723" lon="1.32704">
        <ele>161</ele>
        <time>2020-10-08T12:22:53+02:00</time>
      </trkpt>
      <trkpt lat="43.56734" lon="1.32736">
        <ele>161</ele>
        <time>2020-10-08T12:22:59+02:00</time>
      </trkpt>
      <trkpt lat="43.56743" lon="1.32768">
        <ele>161</ele>
        <time>2020-10-08T12:23:05+02:00</time>
      </trkpt>
      <trkpt lat="43.56753" lon="1.32798">
        <ele>161</ele>
        <time>2020-10-08T12:23:11+02:00</time>
      </trkpt>
      <trkpt lat="43.56763" lon="1.3283">
        <ele>160</ele>
        <time>2020-10-08T12:23:17+02:00</time>
      </trkpt>
      <trkpt lat="43.56773" lon="1.32858">
        <ele>160</ele>
        <time>2020-10-08T12:23:23+02:00</time>
      </trkpt>
      <trkpt lat="43.56785" lon="1.32888">
        <ele>160</ele>
        <time>2020-10-08T12:23:29+02:00</time>
      </trkpt>
      <trkpt lat="43.56796" lon="1.32919">
        <ele>160</ele>
        <time>2020-10-08T12:23:35+02:00</time>
      </trkpt>
      <trkpt lat="43.56804" lon="1.3295">
        <ele>160</ele>
        <time>2020-10-08T12:23:40+02:00</time>
      </trkpt>
      <trkpt lat="43.56814" lon="1.3298">
        <ele>160</ele>
        <time>2020-10-08T12:23:45+02:00</time>
      </trkpt>
      <trkpt lat="43.56822" lon="1.33009">
        <ele>160</ele>
        <time>2020-10-08T12:23:50+02:00</time>
      </trkpt>
      <trkpt lat="43.56833" lon="1.33043">
        <ele>160</ele>
        <time>2020-10-08T12:23:56+02:00</time>
      </trkpt>
      <trkpt lat="43.56843" lon="1.33072">
        <ele>160</ele>
        <time>2020-10-08T12:24:01+02:00</time>
      </trkpt>
      <trkpt lat="43.56856" lon="1.33104">
        <ele>160</ele>
        <time>2020-10-08T12:24:07+02:00</time>
      </trkpt>
      <trkpt lat="43.56866" lon="1.33135">
        <ele>160</ele>
        <time>2020-10-08T12:24:12+02:00</time>
      </trkpt>
      <trkpt lat="43.56878" lon="1.33167">
        <ele>161</ele>
        <time>2020-10-08T12:24:18+02:00</time>
      </trkpt>
      <trkpt lat="43.56888" lon="1.33195">
        <ele>161</ele>
        <time>2020-10-08T12:24:23+02:00</time>
      </trkpt>
      <trkpt lat="43.56899" lon="1.33224">
        <ele>161</ele>
        <time>2020-10-08T12:24:29+02:00</time>
      </trkpt>
      <trkpt lat="43.56912" lon="1.33254">
        <ele>161</ele>
        <time>2020-10-08T12:24:35+02:00</time>
      </trkpt>
      <trkpt lat="43.5692" lon="1.33285">
        <ele>161</ele>
        <time>2020-10-08T12:24:41+02:00</time>
      </trkpt>
      <trkpt lat="43.5693" lon="1.33317">
        <ele>161</ele>
        <time>2020-10-08T12:24:50+02:00</time>
      </trkpt>
      <trkpt lat="43.56943" lon="1.33344">
        <ele>160</ele>
        <time>2020-10-08T12:25:00+02:00</time>
      </trkpt>
      <trkpt lat="43.56965" lon="1.33352">
        <ele>160</ele>
        <time>2020-10-08T12:25:07+02:00</time>
      </trkpt>
      <trkpt lat="43.56989" lon="1.3336">
        <ele>160</ele>
        <time>2020-10-08T12:25:14+02:00</time>
      </trkpt>
      <trkpt lat="43.56996" lon="1.3339">
        <ele>160</ele>
        <time>2020-10-08T12:25:30+02:00</time>
      </trkpt>
      <trkpt lat="43.56976" lon="1.33406">
        <ele>160</ele>
        <time>2020-10-08T12:25:40+02:00</time>
      </trkpt>
      <trkpt lat="43.56958" lon="1.33425">
        <ele>160</ele>
        <time>2020-10-08T12:26:02+02:00</time>
      </trkpt>
      <trkpt lat="43.56936" lon="1.33415">
        <ele>160</ele>
        <time>2020-10-08T12:26:10+02:00</time>
      </trkpt>
      <trkpt lat="43.56914" lon="1.33428">
        <ele>160</ele>
        <time>2020-10-08T12:26:17+02:00</time>
      </trkpt>
      <trkpt lat="43.56892" lon="1.33442">
        <ele>160</ele>
        <time>2020-10-08T12:26:24+02:00</time>
      </trkpt>
      <trkpt lat="43.5687" lon="1.33461">
        <ele>160</ele>
        <time>2020-10-08T12:26:30+02:00</time>
      </trkpt>
      <trkpt lat="43.56851" lon="1.33477">
        <ele>161</ele>
        <time>2020-10-08T12:26:36+02:00</time>
      </trkpt>
      <trkpt lat="43.56831" lon="1.33492">
        <ele>161</ele>
        <time>2020-10-08T12:26:42+02:00</time>
      </trkpt>
      <trkpt lat="43.56809" lon="1.33509">
        <ele>161</ele>
        <time>2020-10-08T12:26:48+02:00</time>
      </trkpt>
      <trkpt lat="43.56788" lon="1.33524">
        <ele>161</ele>
        <time>2020-10-08T12:26:54+02:00</time>
      </trkpt>
      <trkpt lat="43.56766" lon="1.33539">
        <ele>161</ele>
        <time>2020-10-08T12:27:02+02:00</time>
      </trkpt>
      <trkpt lat="43.56745" lon="1.33555">
        <ele>161</ele>
        <time>2020-10-08T12:27:08+02:00</time>
      </trkpt>
      <trkpt lat="43.56727" lon="1.33576">
        <ele>161</ele>
        <time>2020-10-08T12:27:15+02:00</time>
      </trkpt>
      <trkpt lat="43.56706" lon="1.33588">
        <ele>161</ele>
        <time>2020-10-08T12:27:49+02:00</time>
      </trkpt>
      <trkpt lat="43.56684" lon="1.33603">
        <ele>161</ele>
        <time>2020-10-08T12:27:58+02:00</time>
      </trkpt>
      <trkpt lat="43.56661" lon="1.33619">
        <ele>161</ele>
        <time>2020-10-08T12:28:04+02:00</time>
      </trkpt>
      <trkpt lat="43.56642" lon="1.33635">
        <ele>161</ele>
        <time>2020-10-08T12:28:09+02:00</time>
      </trkpt>
      <trkpt lat="43.56619" lon="1.33653">
        <ele>161</ele>
        <time>2020-10-08T12:28:14+02:00</time>
      </trkpt>
      <trkpt lat="43.56598" lon="1.33669">
        <ele>161</ele>
        <time>2020-10-08T12:28:19+02:00</time>
      </trkpt>
      <trkpt lat="43.56577" lon="1.33684">
        <ele>161</ele>
        <time>2020-10-08T12:28:24+02:00</time>
      </trkpt>
      <trkpt lat="43.56558" lon="1.33702">
        <ele>161</ele>
        <time>2020-10-08T12:28:30+02:00</time>
      </trkpt>
      <trkpt lat="43.56536" lon="1.33718">
        <ele>161</ele>
        <time>2020-10-08T12:28:36+02:00</time>
      </trkpt>
      <trkpt lat="43.56513" lon="1.33741">
        <ele>161</ele>
        <time>2020-10-08T12:28:41+02:00</time>
      </trkpt>
      <trkpt lat="43.5649" lon="1.33762">
        <ele>161</ele>
        <time>2020-10-08T12:28:45+02:00</time>
      </trkpt>
      <trkpt lat="43.56469" lon="1.33785">
        <ele>161</ele>
        <time>2020-10-08T12:28:49+02:00</time>
      </trkpt>
      <trkpt lat="43.56446" lon="1.33807">
        <ele>161</ele>
        <time>2020-10-08T12:28:53+02:00</time>
      </trkpt>
      <trkpt lat="43.56428" lon="1.33825">
        <ele>160</ele>
        <time>2020-10-08T12:28:56+02:00</time>
      </trkpt>
      <trkpt lat="43.56404" lon="1.33849">
        <ele>160</ele>
        <time>2020-10-08T12:29:00+02:00</time>
      </trkpt>
      <trkpt lat="43.56386" lon="1.33868">
        <ele>160</ele>
        <time>2020-10-08T12:29:03+02:00</time>
      </trkpt>
      <trkpt lat="43.56364" lon="1.3389">
        <ele>160</ele>
        <time>2020-10-08T12:29:07+02:00</time>
      </trkpt>
      <trkpt lat="43.56341" lon="1.33911">
        <ele>160</ele>
        <time>2020-10-08T12:29:12+02:00</time>
      </trkpt>
      <trkpt lat="43.56304" lon="1.33943">
        <ele>160</ele>
        <time>2020-10-08T12:29:16+02:00</time>
      </trkpt>
      <trkpt lat="43.56292" lon="1.33971">
        <ele>160</ele>
        <time>2020-10-08T12:29:31+02:00</time>
      </trkpt>
      <trkpt lat="43.56291" lon="1.34009">
        <ele>160</ele>
        <time>2020-10-08T12:29:42+02:00</time>
      </trkpt>
      <trkpt lat="43.56275" lon="1.34032">
        <ele>160</ele>
        <time>2020-10-08T12:29:52+02:00</time>
      </trkpt>
      <trkpt lat="43.56265" lon="1.3406">
        <ele>160</ele>
        <time>2020-10-08T12:29:58+02:00</time>
      </trkpt>
      <trkpt lat="43.56255" lon="1.3409">
        <ele>161</ele>
        <time>2020-10-08T12:30:04+02:00</time>
      </trkpt>
      <trkpt lat="43.56243" lon="1.34122">
        <ele>161</ele>
        <time>2020-10-08T12:30:10+02:00</time>
      </trkpt>
      <trkpt lat="43.5623" lon="1.34152">
        <ele>161</ele>
        <time>2020-10-08T12:30:15+02:00</time>
      </trkpt>
      <trkpt lat="43.56219" lon="1.34179">
        <ele>161</ele>
        <time>2020-10-08T12:30:20+02:00</time>
      </trkpt>
      <trkpt lat="43.56206" lon="1.3421">
        <ele>161</ele>
        <time>2020-10-08T12:30:26+02:00</time>
      </trkpt>
      <trkpt lat="43.5619" lon="1.34236">
        <ele>161</ele>
        <time>2020-10-08T12:30:31+02:00</time>
      </trkpt>
      <trkpt lat="43.56173" lon="1.3426">
        <ele>161</ele>
        <time>2020-10-08T12:30:36+02:00</time>
      </trkpt>
      <trkpt lat="43.56157" lon="1.34284">
        <ele>161</ele>
        <time>2020-10-08T12:30:41+02:00</time>
      </trkpt>
      <trkpt lat="43.5614" lon="1.34308">
        <ele>161</ele>
        <time>2020-10-08T12:30:46+02:00</time>
      </trkpt>
      <trkpt lat="43.56124" lon="1.34331">
        <ele>161</ele>
        <time>2020-10-08T12:30:51+02:00</time>
      </trkpt>
      <trkpt lat="43.5611" lon="1.3436">
        <ele>161</ele>
        <time>2020-10-08T12:30:56+02:00</time>
      </trkpt>
      <trkpt lat="43.561" lon="1.3439">
        <ele>161</ele>
        <time>2020-10-08T12:31:01+02:00</time>
      </trkpt>
      <trkpt lat="43.5609" lon="1.34423">
        <ele>162</ele>
        <time>2020-10-08T12:31:07+02:00</time>
      </trkpt>
      <trkpt lat="43.56084" lon="1.34457">
        <ele>162</ele>
        <time>2020-10-08T12:31:13+02:00</time>
      </trkpt>
      <trkpt lat="43.56082" lon="1.34489">
        <ele>162</ele>
        <time>2020-10-08T12:31:18+02:00</time>
      </trkpt>
      <trkpt lat="43.56082" lon="1.3452">
        <ele>162</ele>
        <time>2020-10-08T12:31:23+02:00</time>
      </trkpt>
      <trkpt lat="43.56081" lon="1.34552">
        <ele>162</ele>
        <time>2020-10-08T12:31:28+02:00</time>
      </trkpt>
      <trkpt lat="43.56077" lon="1.34588">
        <ele>161</ele>
        <time>2020-10-08T12:31:33+02:00</time>
      </trkpt>
      <trkpt lat="43.56078" lon="1.34622">
        <ele>161</ele>
        <time>2020-10-08T12:31:38+02:00</time>
      </trkpt>
      <trkpt lat="43.56078" lon="1.34656">
        <ele>161</ele>
        <time>2020-10-08T12:31:43+02:00</time>
      </trkpt>
      <trkpt lat="43.56077" lon="1.3469">
        <ele>161</ele>
        <time>2020-10-08T12:31:48+02:00</time>
      </trkpt>
      <trkpt lat="43.56077" lon="1.34725">
        <ele>161</ele>
        <time>2020-10-08T12:31:54+02:00</time>
      </trkpt>
      <trkpt lat="43.56078" lon="1.34757">
        <ele>161</ele>
        <time>2020-10-08T12:31:59+02:00</time>
      </trkpt>
      <trkpt lat="43.56078" lon="1.34791">
        <ele>161</ele>
        <time>2020-10-08T12:32:05+02:00</time>
      </trkpt>
      <trkpt lat="43.56077" lon="1.34825">
        <ele>161</ele>
        <time>2020-10-08T12:32:14+02:00</time>
      </trkpt>
      <trkpt lat="43.56087" lon="1.34854">
        <ele>161</ele>
        <time>2020-10-08T12:32:24+02:00</time>
      </trkpt>
      <trkpt lat="43.56111" lon="1.34855">
        <ele>161</ele>
        <time>2020-10-08T12:32:35+02:00</time>
      </trkpt>
      <trkpt lat="43.56136" lon="1.34856">
        <ele>161</ele>
        <time>2020-10-08T12:32:44+02:00</time>
      </trkpt>
      <trkpt lat="43.56161" lon="1.34852">
        <ele>161</ele>
        <time>2020-10-08T12:32:52+02:00</time>
      </trkpt>
      <trkpt lat="43.56184" lon="1.34852">
        <ele>161</ele>
        <time>2020-10-08T12:32:59+02:00</time>
      </trkpt>
      <trkpt lat="43.56208" lon="1.34844">
        <ele>161</ele>
        <time>2020-10-08T12:33:06+02:00</time>
      </trkpt>
      <trkpt lat="43.56228" lon="1.34827">
        <ele>161</ele>
        <time>2020-10-08T12:33:12+02:00</time>
      </trkpt>
      <trkpt lat="43.56248" lon="1.34812">
        <ele>161</ele>
        <time>2020-10-08T12:33:24+02:00</time>
      </trkpt>
      <trkpt lat="43.5627" lon="1.3481">
        <ele>161</ele>
        <time>2020-10-08T12:33:33+02:00</time>
      </trkpt>
      <trkpt lat="43.56293" lon="1.34808">
        <ele>160</ele>
        <time>2020-10-08T12:33:43+02:00</time>
      </trkpt>
      <trkpt lat="43.5632" lon="1.34818">
        <ele>160</ele>
        <time>2020-10-08T12:33:49+02:00</time>
      </trkpt>
      <trkpt lat="43.56345" lon="1.3482">
        <ele>161</ele>
        <time>2020-10-08T12:33:54+02:00</time>
      </trkpt>
      <trkpt lat="43.56368" lon="1.34813">
        <ele>160</ele>
        <time>2020-10-08T12:34:01+02:00</time>
      </trkpt>
      <trkpt lat="43.5639" lon="1.3481">
        <ele>160</ele>
        <time>2020-10-08T12:34:17+02:00</time>
      </trkpt>
      <trkpt lat="43.56451" lon="1.34663">
        <ele>158</ele>
        <time>2020-10-08T13:28:54+02:00</time>
      </trkpt>
      <trkpt lat="43.56462" lon="1.34635">
        <ele>158</ele>
        <time>2020-10-08T13:29:02+02:00</time>
      </trkpt>
      <trkpt lat="43.56479" lon="1.34609">
        <ele>160</ele>
        <time>2020-10-08T13:29:10+02:00</time>
      </trkpt>
      <trkpt lat="43.56496" lon="1.34586">
        <ele>161</ele>
        <time>2020-10-08T13:29:18+02:00</time>
      </trkpt>
      <trkpt lat="43.56519" lon="1.34573">
        <ele>161</ele>
        <time>2020-10-08T13:29:26+02:00</time>
      </trkpt>
      <trkpt lat="43.56545" lon="1.3457">
        <ele>161</ele>
        <time>2020-10-08T13:29:32+02:00</time>
      </trkpt>
      <trkpt lat="43.56566" lon="1.34551">
        <ele>162</ele>
        <time>2020-10-08T13:29:38+02:00</time>
      </trkpt>
      <trkpt lat="43.56583" lon="1.34527">
        <ele>162</ele>
        <time>2020-10-08T13:29:44+02:00</time>
      </trkpt>
      <trkpt lat="43.566" lon="1.34504">
        <ele>162</ele>
        <time>2020-10-08T13:29:49+02:00</time>
      </trkpt>
      <trkpt lat="43.56617" lon="1.34478">
        <ele>162</ele>
        <time>2020-10-08T13:29:55+02:00</time>
      </trkpt>
      <trkpt lat="43.56635" lon="1.34456">
        <ele>162</ele>
        <time>2020-10-08T13:30:00+02:00</time>
      </trkpt>
      <trkpt lat="43.56653" lon="1.34434">
        <ele>161</ele>
        <time>2020-10-08T13:30:05+02:00</time>
      </trkpt>
      <trkpt lat="43.56671" lon="1.34414">
        <ele>161</ele>
        <time>2020-10-08T13:30:10+02:00</time>
      </trkpt>
      <trkpt lat="43.56688" lon="1.34392">
        <ele>161</ele>
        <time>2020-10-08T13:30:15+02:00</time>
      </trkpt>
      <trkpt lat="43.56707" lon="1.34369">
        <ele>161</ele>
        <time>2020-10-08T13:30:21+02:00</time>
      </trkpt>
      <trkpt lat="43.56726" lon="1.34348">
        <ele>161</ele>
        <time>2020-10-08T13:30:30+02:00</time>
      </trkpt>
      <trkpt lat="43.56742" lon="1.34372">
        <ele>160</ele>
        <time>2020-10-08T13:30:45+02:00</time>
      </trkpt>
      <trkpt lat="43.56766" lon="1.34363">
        <ele>159</ele>
        <time>2020-10-08T13:30:54+02:00</time>
      </trkpt>
      <trkpt lat="43.56792" lon="1.34367">
        <ele>159</ele>
        <time>2020-10-08T13:31:02+02:00</time>
      </trkpt>
      <trkpt lat="43.56814" lon="1.34377">
        <ele>159</ele>
        <time>2020-10-08T13:31:08+02:00</time>
      </trkpt>
      <trkpt lat="43.56835" lon="1.34396">
        <ele>158</ele>
        <time>2020-10-08T13:31:19+02:00</time>
      </trkpt>
      <trkpt lat="43.56856" lon="1.34415">
        <ele>159</ele>
        <time>2020-10-08T13:31:29+02:00</time>
      </trkpt>
      <trkpt lat="43.5687" lon="1.34443">
        <ele>158</ele>
        <time>2020-10-08T13:31:38+02:00</time>
      </trkpt>
      <trkpt lat="43.56877" lon="1.34479">
        <ele>158</ele>
        <time>2020-10-08T13:31:44+02:00</time>
      </trkpt>
      <trkpt lat="43.56886" lon="1.34511">
        <ele>158</ele>
        <time>2020-10-08T13:31:51+02:00</time>
      </trkpt>
      <trkpt lat="43.56895" lon="1.34542">
        <ele>157</ele>
        <time>2020-10-08T13:32:01+02:00</time>
      </trkpt>
      <trkpt lat="43.56917" lon="1.34561">
        <ele>158</ele>
        <time>2020-10-08T13:32:11+02:00</time>
      </trkpt>
      <trkpt lat="43.56938" lon="1.34573">
        <ele>158</ele>
        <time>2020-10-08T13:32:18+02:00</time>
      </trkpt>
      <trkpt lat="43.56962" lon="1.34582">
        <ele>158</ele>
        <time>2020-10-08T13:32:26+02:00</time>
      </trkpt>
      <trkpt lat="43.56987" lon="1.34582">
        <ele>158</ele>
        <time>2020-10-08T13:32:34+02:00</time>
      </trkpt>
      <trkpt lat="43.5701" lon="1.34589">
        <ele>158</ele>
        <time>2020-10-08T13:32:45+02:00</time>
      </trkpt>
      <trkpt lat="43.57024" lon="1.34615">
        <ele>158</ele>
        <time>2020-10-08T13:32:54+02:00</time>
      </trkpt>
      <trkpt lat="43.57039" lon="1.3464">
        <ele>158</ele>
        <time>2020-10-08T13:33:03+02:00</time>
      </trkpt>
      <trkpt lat="43.57052" lon="1.34669">
        <ele>158</ele>
        <time>2020-10-08T13:33:11+02:00</time>
      </trkpt>
      <trkpt lat="43.57059" lon="1.34699">
        <ele>157</ele>
        <time>2020-10-08T13:33:20+02:00</time>
      </trkpt>
      <trkpt lat="43.57064" lon="1.34732">
        <ele>158</ele>
        <time>2020-10-08T13:33:29+02:00</time>
      </trkpt>
      <trkpt lat="43.57068" lon="1.34766">
        <ele>161</ele>
        <time>2020-10-08T13:33:38+02:00</time>
      </trkpt>
      <trkpt lat="43.57057" lon="1.34796">
        <ele>163</ele>
        <time>2020-10-08T13:33:48+02:00</time>
      </trkpt>
      <trkpt lat="43.57047" lon="1.34825">
        <ele>163</ele>
        <time>2020-10-08T13:33:55+02:00</time>
      </trkpt>
      <trkpt lat="43.5704" lon="1.34857">
        <ele>162</ele>
        <time>2020-10-08T13:34:03+02:00</time>
      </trkpt>
      <trkpt lat="43.57041" lon="1.34891">
        <ele>162</ele>
        <time>2020-10-08T13:34:11+02:00</time>
      </trkpt>
      <trkpt lat="43.57055" lon="1.34919">
        <ele>164</ele>
        <time>2020-10-08T13:34:20+02:00</time>
      </trkpt>
      <trkpt lat="43.57076" lon="1.34942">
        <ele>164</ele>
        <time>2020-10-08T13:34:26+02:00</time>
      </trkpt>
      <trkpt lat="43.57097" lon="1.34957">
        <ele>163</ele>
        <time>2020-10-08T13:34:31+02:00</time>
      </trkpt>
      <trkpt lat="43.57122" lon="1.34966">
        <ele>162</ele>
        <time>2020-10-08T13:34:36+02:00</time>
      </trkpt>
      <trkpt lat="43.57149" lon="1.34974">
        <ele>161</ele>
        <time>2020-10-08T13:34:41+02:00</time>
      </trkpt>
      <trkpt lat="43.57172" lon="1.34983">
        <ele>160</ele>
        <time>2020-10-08T13:34:45+02:00</time>
      </trkpt>
      <trkpt lat="43.57197" lon="1.34994">
        <ele>160</ele>
        <time>2020-10-08T13:34:49+02:00</time>
      </trkpt>
      <trkpt lat="43.57218" lon="1.3501">
        <ele>160</ele>
        <time>2020-10-08T13:34:53+02:00</time>
      </trkpt>
      <trkpt lat="43.57239" lon="1.35031">
        <ele>159</ele>
        <time>2020-10-08T13:34:57+02:00</time>
      </trkpt>
      <trkpt lat="43.57258" lon="1.35051">
        <ele>159</ele>
        <time>2020-10-08T13:35:01+02:00</time>
      </trkpt>
      <trkpt lat="43.57273" lon="1.35075">
        <ele>159</ele>
        <time>2020-10-08T13:35:05+02:00</time>
      </trkpt>
      <trkpt lat="43.57288" lon="1.351">
        <ele>159</ele>
        <time>2020-10-08T13:35:09+02:00</time>
      </trkpt>
      <trkpt lat="43.57295" lon="1.35133">
        <ele>159</ele>
        <time>2020-10-08T13:35:14+02:00</time>
      </trkpt>
      <trkpt lat="43.57311" lon="1.35155">
        <ele>158</ele>
        <time>2020-10-08T13:35:20+02:00</time>
      </trkpt>
      <trkpt lat="43.57334" lon="1.35155">
        <ele>158</ele>
        <time>2020-10-08T13:35:26+02:00</time>
      </trkpt>
      <trkpt lat="43.57361" lon="1.3515">
        <ele>158</ele>
        <time>2020-10-08T13:35:32+02:00</time>
      </trkpt>
      <trkpt lat="43.57388" lon="1.35148">
        <ele>159</ele>
        <time>2020-10-08T13:35:38+02:00</time>
      </trkpt>
      <trkpt lat="43.57414" lon="1.35142">
        <ele>159</ele>
        <time>2020-10-08T13:35:44+02:00</time>
      </trkpt>
      <trkpt lat="43.57437" lon="1.35143">
        <ele>159</ele>
        <time>2020-10-08T13:35:49+02:00</time>
      </trkpt>
      <trkpt lat="43.57464" lon="1.3515">
        <ele>159</ele>
        <time>2020-10-08T13:35:55+02:00</time>
      </trkpt>
      <trkpt lat="43.57487" lon="1.35166">
        <ele>158</ele>
        <time>2020-10-08T13:36:00+02:00</time>
      </trkpt>
      <trkpt lat="43.57508" lon="1.35186">
        <ele>158</ele>
        <time>2020-10-08T13:36:05+02:00</time>
      </trkpt>
      <trkpt lat="43.57525" lon="1.35207">
        <ele>158</ele>
        <time>2020-10-08T13:36:11+02:00</time>
      </trkpt>
      <trkpt lat="43.57538" lon="1.35235">
        <ele>158</ele>
        <time>2020-10-08T13:36:17+02:00</time>
      </trkpt>
      <trkpt lat="43.57549" lon="1.35265">
        <ele>158</ele>
        <time>2020-10-08T13:36:22+02:00</time>
      </trkpt>
      <trkpt lat="43.57554" lon="1.35299">
        <ele>157</ele>
        <time>2020-10-08T13:36:29+02:00</time>
      </trkpt>
      <trkpt lat="43.57558" lon="1.35331">
        <ele>158</ele>
        <time>2020-10-08T13:36:34+02:00</time>
      </trkpt>
      <trkpt lat="43.57562" lon="1.35365">
        <ele>157</ele>
        <time>2020-10-08T13:36:40+02:00</time>
      </trkpt>
      <trkpt lat="43.57563" lon="1.35396">
        <ele>158</ele>
        <time>2020-10-08T13:36:45+02:00</time>
      </trkpt>
      <trkpt lat="43.57561" lon="1.35429">
        <ele>158</ele>
        <time>2020-10-08T13:36:50+02:00</time>
      </trkpt>
      <trkpt lat="43.57561" lon="1.35463">
        <ele>158</ele>
        <time>2020-10-08T13:36:55+02:00</time>
      </trkpt>
      <trkpt lat="43.57561" lon="1.35501">
        <ele>158</ele>
        <time>2020-10-08T13:37:01+02:00</time>
      </trkpt>
      <trkpt lat="43.57559" lon="1.35537">
        <ele>158</ele>
        <time>2020-10-08T13:37:07+02:00</time>
      </trkpt>
      <trkpt lat="43.57558" lon="1.35572">
        <ele>158</ele>
        <time>2020-10-08T13:37:14+02:00</time>
      </trkpt>
      <trkpt lat="43.57558" lon="1.35606">
        <ele>158</ele>
        <time>2020-10-08T13:37:20+02:00</time>
      </trkpt>
      <trkpt lat="43.57559" lon="1.35642">
        <ele>158</ele>
        <time>2020-10-08T13:37:27+02:00</time>
      </trkpt>
      <trkpt lat="43.5756" lon="1.35673">
        <ele>158</ele>
        <time>2020-10-08T13:37:33+02:00</time>
      </trkpt>
      <trkpt lat="43.57545" lon="1.35702">
        <ele>159</ele>
        <time>2020-10-08T13:37:39+02:00</time>
      </trkpt>
      <trkpt lat="43.5752" lon="1.35707">
        <ele>159</ele>
        <time>2020-10-08T13:37:45+02:00</time>
      </trkpt>
      <trkpt lat="43.57495" lon="1.35693">
        <ele>159</ele>
        <time>2020-10-08T13:37:51+02:00</time>
      </trkpt>
      <trkpt lat="43.57471" lon="1.35676">
        <ele>159</ele>
        <time>2020-10-08T13:37:57+02:00</time>
      </trkpt>
      <trkpt lat="43.57449" lon="1.35663">
        <ele>159</ele>
        <time>2020-10-08T13:38:02+02:00</time>
      </trkpt>
      <trkpt lat="43.57426" lon="1.35646">
        <ele>159</ele>
        <time>2020-10-08T13:38:07+02:00</time>
      </trkpt>
      <trkpt lat="43.57403" lon="1.35628">
        <ele>159</ele>
        <time>2020-10-08T13:38:13+02:00</time>
      </trkpt>
      <trkpt lat="43.5738" lon="1.35611">
        <ele>158</ele>
        <time>2020-10-08T13:38:18+02:00</time>
      </trkpt>
      <trkpt lat="43.57357" lon="1.35593">
        <ele>158</ele>
        <time>2020-10-08T13:38:23+02:00</time>
      </trkpt>
      <trkpt lat="43.57336" lon="1.35577">
        <ele>158</ele>
        <time>2020-10-08T13:38:28+02:00</time>
      </trkpt>
      <trkpt lat="43.57315" lon="1.35561">
        <ele>158</ele>
        <time>2020-10-08T13:38:33+02:00</time>
      </trkpt>
      <trkpt lat="43.57292" lon="1.35543">
        <ele>159</ele>
        <time>2020-10-08T13:38:38+02:00</time>
      </trkpt>
      <trkpt lat="43.57271" lon="1.35527">
        <ele>158</ele>
        <time>2020-10-08T13:38:43+02:00</time>
      </trkpt>
      <trkpt lat="43.57248" lon="1.3551">
        <ele>159</ele>
        <time>2020-10-08T13:38:48+02:00</time>
      </trkpt>
      <trkpt lat="43.57228" lon="1.35494">
        <ele>159</ele>
        <time>2020-10-08T13:38:53+02:00</time>
      </trkpt>
      <trkpt lat="43.57206" lon="1.35477">
        <ele>158</ele>
        <time>2020-10-08T13:38:59+02:00</time>
      </trkpt>
      <trkpt lat="43.57188" lon="1.35456">
        <ele>158</ele>
        <time>2020-10-08T13:39:05+02:00</time>
      </trkpt>
      <trkpt lat="43.57169" lon="1.35438">
        <ele>158</ele>
        <time>2020-10-08T13:39:13+02:00</time>
      </trkpt>
      <trkpt lat="43.57147" lon="1.35426">
        <ele>158</ele>
        <time>2020-10-08T13:39:24+02:00</time>
      </trkpt>
      <trkpt lat="43.57126" lon="1.35409">
        <ele>159</ele>
        <time>2020-10-08T13:39:32+02:00</time>
      </trkpt>
      <trkpt lat="43.57104" lon="1.35392">
        <ele>160</ele>
        <time>2020-10-08T13:39:39+02:00</time>
      </trkpt>
      <trkpt lat="43.57081" lon="1.35376">
        <ele>160</ele>
        <time>2020-10-08T13:39:45+02:00</time>
      </trkpt>
      <trkpt lat="43.57059" lon="1.3536">
        <ele>160</ele>
        <time>2020-10-08T13:39:50+02:00</time>
      </trkpt>
      <trkpt lat="43.57038" lon="1.35345">
        <ele>160</ele>
        <time>2020-10-08T13:39:55+02:00</time>
      </trkpt>
      <trkpt lat="43.57018" lon="1.35329">
        <ele>160</ele>
        <time>2020-10-08T13:40:00+02:00</time>
      </trkpt>
      <trkpt lat="43.56998" lon="1.35312">
        <ele>160</ele>
        <time>2020-10-08T13:40:05+02:00</time>
      </trkpt>
      <trkpt lat="43.56977" lon="1.35297">
        <ele>160</ele>
        <time>2020-10-08T13:40:10+02:00</time>
      </trkpt>
      <trkpt lat="43.56951" lon="1.35282">
        <ele>160</ele>
        <time>2020-10-08T13:40:15+02:00</time>
      </trkpt>
      <trkpt lat="43.56927" lon="1.35269">
        <ele>159</ele>
        <time>2020-10-08T13:40:20+02:00</time>
      </trkpt>
      <trkpt lat="43.56906" lon="1.35257">
        <ele>160</ele>
        <time>2020-10-08T13:40:24+02:00</time>
      </trkpt>
      <trkpt lat="43.56884" lon="1.35241">
        <ele>160</ele>
        <time>2020-10-08T13:40:29+02:00</time>
      </trkpt>
      <trkpt lat="43.56864" lon="1.35222">
        <ele>160</ele>
        <time>2020-10-08T13:40:34+02:00</time>
      </trkpt>
      <trkpt lat="43.56839" lon="1.35205">
        <ele>161</ele>
        <time>2020-10-08T13:40:39+02:00</time>
      </trkpt>
      <trkpt lat="43.56815" lon="1.35187">
        <ele>161</ele>
        <time>2020-10-08T13:40:44+02:00</time>
      </trkpt>
      <trkpt lat="43.56793" lon="1.3517">
        <ele>161</ele>
        <time>2020-10-08T13:40:49+02:00</time>
      </trkpt>
      <trkpt lat="43.56772" lon="1.35153">
        <ele>161</ele>
        <time>2020-10-08T13:40:54+02:00</time>
      </trkpt>
      <trkpt lat="43.56752" lon="1.35136">
        <ele>161</ele>
        <time>2020-10-08T13:40:59+02:00</time>
      </trkpt>
      <trkpt lat="43.56728" lon="1.35121">
        <ele>161</ele>
        <time>2020-10-08T13:41:05+02:00</time>
      </trkpt>
      <trkpt lat="43.56709" lon="1.35103">
        <ele>162</ele>
        <time>2020-10-08T13:41:10+02:00</time>
      </trkpt>
      <trkpt lat="43.56686" lon="1.35087">
        <ele>162</ele>
        <time>2020-10-08T13:41:16+02:00</time>
      </trkpt>
      <trkpt lat="43.56662" lon="1.35071">
        <ele>161</ele>
        <time>2020-10-08T13:41:21+02:00</time>
      </trkpt>
      <trkpt lat="43.56642" lon="1.35055">
        <ele>161</ele>
        <time>2020-10-08T13:41:26+02:00</time>
      </trkpt>
      <trkpt lat="43.56621" lon="1.35039">
        <ele>161</ele>
        <time>2020-10-08T13:41:32+02:00</time>
      </trkpt>
      <trkpt lat="43.56599" lon="1.35021">
        <ele>161</ele>
        <time>2020-10-08T13:41:38+02:00</time>
      </trkpt>
      <trkpt lat="43.56576" lon="1.35001">
        <ele>160</ele>
        <time>2020-10-08T13:41:43+02:00</time>
      </trkpt>
      <trkpt lat="43.56553" lon="1.34987">
        <ele>160</ele>
        <time>2020-10-08T13:41:49+02:00</time>
      </trkpt>
      <trkpt lat="43.56531" lon="1.34969">
        <ele>160</ele>
        <time>2020-10-08T13:41:55+02:00</time>
      </trkpt>
      <trkpt lat="43.5651" lon="1.34954">
        <ele>160</ele>
        <time>2020-10-08T13:42:00+02:00</time>
      </trkpt>
      <trkpt lat="43.56489" lon="1.34933">
        <ele>161</ele>
        <time>2020-10-08T13:42:05+02:00</time>
      </trkpt>
      <trkpt lat="43.56471" lon="1.34914">
        <ele>160</ele>
        <time>2020-10-08T13:42:10+02:00</time>
      </trkpt>
      <trkpt lat="43.56455" lon="1.34889">
        <ele>161</ele>
        <time>2020-10-08T13:42:16+02:00</time>
      </trkpt>
      <trkpt lat="43.56438" lon="1.34859">
        <ele>162</ele>
        <time>2020-10-08T13:42:22+02:00</time>
      </trkpt>
      <trkpt lat="43.56423" lon="1.3483">
        <ele>162</ele>
        <time>2020-10-08T13:42:27+02:00</time>
      </trkpt>
      <trkpt lat="43.56417" lon="1.34799">
        <ele>160</ele>
        <time>2020-10-08T13:42:33+02:00</time>
      </trkpt>
      <trkpt lat="43.56422" lon="1.34766">
        <ele>159</ele>
        <time>2020-10-08T13:42:40+02:00</time>
      </trkpt>
      <trkpt lat="43.56398" lon="1.34764">
        <ele>159</ele>
        <time>2020-10-08T13:43:00+02:00</time>
      </trkpt>
      <trkpt lat="43.56375" lon="1.34773">
        <ele>159</ele>
        <time>2020-10-08T13:43:10+02:00</time>
      </trkpt>
      <trkpt lat="43.56354" lon="1.34787">
        <ele>160</ele>
        <time>2020-10-08T13:43:18+02:00</time>
      </trkpt>
      <trkpt lat="43.5633" lon="1.34787">
        <ele>160</ele>
        <time>2020-10-08T13:43:25+02:00</time>
      </trkpt>
      <trkpt lat="43.56305" lon="1.34827">
        <ele>161</ele>
        <time>2020-10-08T13:46:26+02:00</time>
      </trkpt>
      <trkpt lat="43.56296" lon="1.34798">
        <ele>160</ele>
        <time>2020-10-08T13:46:41+02:00</time>
      </trkpt>
      <trkpt lat="43.56271" lon="1.34796">
        <ele>160</ele>
        <time>2020-10-08T13:46:49+02:00</time>
      </trkpt>
      <trkpt lat="43.56249" lon="1.34802">
        <ele>161</ele>
        <time>2020-10-08T13:47:00+02:00</time>
      </trkpt>
      <trkpt lat="43.56232" lon="1.34825">
        <ele>161</ele>
        <time>2020-10-08T13:47:11+02:00</time>
      </trkpt>
      <trkpt lat="43.56244" lon="1.34852">
        <ele>161</ele>
        <time>2020-10-08T13:47:20+02:00</time>
      </trkpt>
      <trkpt lat="43.56262" lon="1.34875">
        <ele>161</ele>
        <time>2020-10-08T13:47:30+02:00</time>
      </trkpt>
      <trkpt lat="43.56282" lon="1.34889">
        <ele>161</ele>
        <time>2020-10-08T13:47:40+02:00</time>
      </trkpt>
      <trkpt lat="43.56302" lon="1.34908">
        <ele>161</ele>
        <time>2020-10-08T13:47:51+02:00</time>
      </trkpt>
      <trkpt lat="43.56317" lon="1.34937">
        <ele>162</ele>
        <time>2020-10-08T13:47:58+02:00</time>
      </trkpt>
      <trkpt lat="43.56338" lon="1.34958">
        <ele>162</ele>
        <time>2020-10-08T13:48:04+02:00</time>
      </trkpt>
      <trkpt lat="43.56356" lon="1.34977">
        <ele>162</ele>
        <time>2020-10-08T13:48:10+02:00</time>
      </trkpt>
      <trkpt lat="43.56378" lon="1.34994">
        <ele>162</ele>
        <time>2020-10-08T13:48:19+02:00</time>
      </trkpt>
      <trkpt lat="43.56397" lon="1.35011">
        <ele>162</ele>
        <time>2020-10-08T13:48:27+02:00</time>
      </trkpt>
      <trkpt lat="43.5642" lon="1.35026">
        <ele>162</ele>
        <time>2020-10-08T13:48:35+02:00</time>
      </trkpt>
      <trkpt lat="43.56443" lon="1.3504">
        <ele>162</ele>
        <time>2020-10-08T13:48:42+02:00</time>
      </trkpt>
      <trkpt lat="43.56465" lon="1.35055">
        <ele>162</ele>
        <time>2020-10-08T13:48:48+02:00</time>
      </trkpt>
      <trkpt lat="43.56484" lon="1.35073">
        <ele>162</ele>
        <time>2020-10-08T13:48:55+02:00</time>
      </trkpt>
      <trkpt lat="43.56505" lon="1.35091">
        <ele>162</ele>
        <time>2020-10-08T13:49:05+02:00</time>
      </trkpt>
      <trkpt lat="43.56522" lon="1.35114">
        <ele>162</ele>
        <time>2020-10-08T13:49:15+02:00</time>
      </trkpt>
      <trkpt lat="43.56543" lon="1.35134">
        <ele>162</ele>
        <time>2020-10-08T13:49:24+02:00</time>
      </trkpt>
      <trkpt lat="43.56567" lon="1.35151">
        <ele>162</ele>
        <time>2020-10-08T13:49:30+02:00</time>
      </trkpt>
      <trkpt lat="43.56592" lon="1.35155">
        <ele>162</ele>
        <time>2020-10-08T13:49:35+02:00</time>
      </trkpt>
      <trkpt lat="43.56616" lon="1.35159">
        <ele>161</ele>
        <time>2020-10-08T13:49:41+02:00</time>
      </trkpt>
      <trkpt lat="43.56641" lon="1.35161">
        <ele>161</ele>
        <time>2020-10-08T13:49:50+02:00</time>
      </trkpt>
      <trkpt lat="43.56665" lon="1.35166">
        <ele>161</ele>
        <time>2020-10-08T13:50:00+02:00</time>
      </trkpt>
      <trkpt lat="43.56684" lon="1.35215">
        <ele>161</ele>
        <time>2020-10-08T13:54:23+02:00</time>
      </trkpt>
      <trkpt lat="43.567" lon="1.35243">
        <ele>161</ele>
        <time>2020-10-08T13:54:30+02:00</time>
      </trkpt>
      <trkpt lat="43.56721" lon="1.35266">
        <ele>161</ele>
        <time>2020-10-08T13:54:36+02:00</time>
      </trkpt>
      <trkpt lat="43.56738" lon="1.35287">
        <ele>161</ele>
        <time>2020-10-08T13:54:41+02:00</time>
      </trkpt>
      <trkpt lat="43.56759" lon="1.35311">
        <ele>160</ele>
        <time>2020-10-08T13:54:47+02:00</time>
      </trkpt>
      <trkpt lat="43.56779" lon="1.35335">
        <ele>160</ele>
        <time>2020-10-08T13:54:53+02:00</time>
      </trkpt>
      <trkpt lat="43.56796" lon="1.35358">
        <ele>160</ele>
        <time>2020-10-08T13:54:58+02:00</time>
      </trkpt>
      <trkpt lat="43.56814" lon="1.35382">
        <ele>160</ele>
        <time>2020-10-08T13:55:03+02:00</time>
      </trkpt>
      <trkpt lat="43.56831" lon="1.35408">
        <ele>160</ele>
        <time>2020-10-08T13:55:09+02:00</time>
      </trkpt>
      <trkpt lat="43.56852" lon="1.3543">
        <ele>160</ele>
        <time>2020-10-08T13:55:15+02:00</time>
      </trkpt>
      <trkpt lat="43.56869" lon="1.35454">
        <ele>160</ele>
        <time>2020-10-08T13:55:21+02:00</time>
      </trkpt>
      <trkpt lat="43.56887" lon="1.35476">
        <ele>160</ele>
        <time>2020-10-08T13:55:27+02:00</time>
      </trkpt>
      <trkpt lat="43.56902" lon="1.35499">
        <ele>160</ele>
        <time>2020-10-08T13:55:32+02:00</time>
      </trkpt>
      <trkpt lat="43.56916" lon="1.35528">
        <ele>160</ele>
        <time>2020-10-08T13:55:40+02:00</time>
      </trkpt>
      <trkpt lat="43.56916" lon="1.3556">
        <ele>160</ele>
        <time>2020-10-08T13:55:51+02:00</time>
      </trkpt>
      <trkpt lat="43.56908" lon="1.35593">
        <ele>160</ele>
        <time>2020-10-08T13:56:03+02:00</time>
      </trkpt>
      <trkpt lat="43.569" lon="1.35624">
        <ele>160</ele>
        <time>2020-10-08T13:56:11+02:00</time>
      </trkpt>
      <trkpt lat="43.5689" lon="1.35659">
        <ele>160</ele>
        <time>2020-10-08T13:56:21+02:00</time>
      </trkpt>
      <trkpt lat="43.5688" lon="1.3569">
        <ele>160</ele>
        <time>2020-10-08T13:56:26+02:00</time>
      </trkpt>
      <trkpt lat="43.56871" lon="1.35723">
        <ele>160</ele>
        <time>2020-10-08T13:56:33+02:00</time>
      </trkpt>
      <trkpt lat="43.56867" lon="1.35753">
        <ele>160</ele>
        <time>2020-10-08T13:56:41+02:00</time>
      </trkpt>
      <trkpt lat="43.56858" lon="1.35785">
        <ele>160</ele>
        <time>2020-10-08T13:56:47+02:00</time>
      </trkpt>
      <trkpt lat="43.56846" lon="1.35816">
        <ele>160</ele>
        <time>2020-10-08T13:56:54+02:00</time>
      </trkpt>
      <trkpt lat="43.56837" lon="1.35848">
        <ele>160</ele>
        <time>2020-10-08T13:57:01+02:00</time>
      </trkpt>
      <trkpt lat="43.5683" lon="1.3588">
        <ele>160</ele>
        <time>2020-10-08T13:57:07+02:00</time>
      </trkpt>
      <trkpt lat="43.5682" lon="1.35912">
        <ele>160</ele>
        <time>2020-10-08T13:57:14+02:00</time>
      </trkpt>
      <trkpt lat="43.56811" lon="1.35946">
        <ele>160</ele>
        <time>2020-10-08T13:57:21+02:00</time>
      </trkpt>
      <trkpt lat="43.56801" lon="1.35978">
        <ele>160</ele>
        <time>2020-10-08T13:57:29+02:00</time>
      </trkpt>
      <trkpt lat="43.5679" lon="1.36009">
        <ele>161</ele>
        <time>2020-10-08T13:57:38+02:00</time>
      </trkpt>
      <trkpt lat="43.56787" lon="1.36044">
        <ele>162</ele>
        <time>2020-10-08T13:57:49+02:00</time>
      </trkpt>
      <trkpt lat="43.56779" lon="1.36075">
        <ele>162</ele>
        <time>2020-10-08T13:58:00+02:00</time>
      </trkpt>
      <trkpt lat="43.56767" lon="1.36105">
        <ele>162</ele>
        <time>2020-10-08T13:58:08+02:00</time>
      </trkpt>
      <trkpt lat="43.56756" lon="1.36132">
        <ele>162</ele>
        <time>2020-10-08T13:58:15+02:00</time>
      </trkpt>
      <trkpt lat="43.56744" lon="1.36161">
        <ele>162</ele>
        <time>2020-10-08T13:58:21+02:00</time>
      </trkpt>
      <trkpt lat="43.56733" lon="1.36188">
        <ele>162</ele>
        <time>2020-10-08T13:58:25+02:00</time>
      </trkpt>
      <trkpt lat="43.56733" lon="1.3622">
        <ele>162</ele>
        <time>2020-10-08T13:58:32+02:00</time>
      </trkpt>
      <trkpt lat="43.56742" lon="1.36252">
        <ele>162</ele>
        <time>2020-10-08T13:58:42+02:00</time>
      </trkpt>
      <trkpt lat="43.5676" lon="1.36275">
        <ele>162</ele>
        <time>2020-10-08T13:58:52+02:00</time>
      </trkpt>
      <trkpt lat="43.56774" lon="1.36303">
        <ele>161</ele>
        <time>2020-10-08T13:59:01+02:00</time>
      </trkpt>
      <trkpt lat="43.56788" lon="1.36331">
        <ele>161</ele>
        <time>2020-10-08T13:59:10+02:00</time>
      </trkpt>
      <trkpt lat="43.568" lon="1.36358">
        <ele>161</ele>
        <time>2020-10-08T13:59:20+02:00</time>
      </trkpt>
      <trkpt lat="43.56817" lon="1.3638">
        <ele>161</ele>
        <time>2020-10-08T13:59:29+02:00</time>
      </trkpt>
      <trkpt lat="43.56833" lon="1.36406">
        <ele>160</ele>
        <time>2020-10-08T13:59:36+02:00</time>
      </trkpt>
      <trkpt lat="43.56846" lon="1.36432">
        <ele>160</ele>
        <time>2020-10-08T13:59:47+02:00</time>
      </trkpt>
      <trkpt lat="43.56858" lon="1.3646">
        <ele>160</ele>
        <time>2020-10-08T13:59:55+02:00</time>
      </trkpt>
      <trkpt lat="43.56873" lon="1.36486">
        <ele>160</ele>
        <time>2020-10-08T14:00:04+02:00</time>
      </trkpt>
      <trkpt lat="43.56894" lon="1.36506">
        <ele>160</ele>
        <time>2020-10-08T14:00:10+02:00</time>
      </trkpt>
      <trkpt lat="43.56914" lon="1.3653">
        <ele>160</ele>
        <time>2020-10-08T14:00:15+02:00</time>
      </trkpt>
      <trkpt lat="43.56934" lon="1.36553">
        <ele>160</ele>
        <time>2020-10-08T14:00:20+02:00</time>
      </trkpt>
      <trkpt lat="43.56952" lon="1.36574">
        <ele>160</ele>
        <time>2020-10-08T14:00:25+02:00</time>
      </trkpt>
      <trkpt lat="43.56969" lon="1.36596">
        <ele>160</ele>
        <time>2020-10-08T14:00:30+02:00</time>
      </trkpt>
      <trkpt lat="43.56986" lon="1.36616">
        <ele>159</ele>
        <time>2020-10-08T14:00:35+02:00</time>
      </trkpt>
      <trkpt lat="43.57008" lon="1.36639">
        <ele>159</ele>
        <time>2020-10-08T14:00:40+02:00</time>
      </trkpt>
      <trkpt lat="43.57027" lon="1.36661">
        <ele>159</ele>
        <time>2020-10-08T14:00:45+02:00</time>
      </trkpt>
      <trkpt lat="43.57047" lon="1.36681">
        <ele>159</ele>
        <time>2020-10-08T14:00:50+02:00</time>
      </trkpt>
      <trkpt lat="43.57063" lon="1.36706">
        <ele>159</ele>
        <time>2020-10-08T14:00:56+02:00</time>
      </trkpt>
      <trkpt lat="43.57078" lon="1.36733">
        <ele>159</ele>
        <time>2020-10-08T14:01:01+02:00</time>
      </trkpt>
      <trkpt lat="43.57094" lon="1.36759">
        <ele>158</ele>
        <time>2020-10-08T14:01:06+02:00</time>
      </trkpt>
      <trkpt lat="43.57109" lon="1.36785">
        <ele>158</ele>
        <time>2020-10-08T14:01:11+02:00</time>
      </trkpt>
      <trkpt lat="43.57126" lon="1.3681">
        <ele>158</ele>
        <time>2020-10-08T14:01:16+02:00</time>
      </trkpt>
      <trkpt lat="43.57145" lon="1.36831">
        <ele>158</ele>
        <time>2020-10-08T14:01:22+02:00</time>
      </trkpt>
      <trkpt lat="43.57157" lon="1.36858">
        <ele>158</ele>
        <time>2020-10-08T14:01:29+02:00</time>
      </trkpt>
      <trkpt lat="43.57156" lon="1.36889">
        <ele>158</ele>
        <time>2020-10-08T14:01:40+02:00</time>
      </trkpt>
      <trkpt lat="43.57147" lon="1.36922">
        <ele>158</ele>
        <time>2020-10-08T14:01:48+02:00</time>
      </trkpt>
      <trkpt lat="43.5714" lon="1.36954">
        <ele>157</ele>
        <time>2020-10-08T14:01:55+02:00</time>
      </trkpt>
      <trkpt lat="43.57133" lon="1.36986">
        <ele>158</ele>
        <time>2020-10-08T14:02:02+02:00</time>
      </trkpt>
      <trkpt lat="43.57124" lon="1.37014">
        <ele>158</ele>
        <time>2020-10-08T14:02:10+02:00</time>
      </trkpt>
      <trkpt lat="43.57116" lon="1.37045">
        <ele>158</ele>
        <time>2020-10-08T14:02:18+02:00</time>
      </trkpt>
      <trkpt lat="43.57106" lon="1.37074">
        <ele>158</ele>
        <time>2020-10-08T14:02:25+02:00</time>
      </trkpt>
      <trkpt lat="43.57094" lon="1.37107">
        <ele>158</ele>
        <time>2020-10-08T14:02:32+02:00</time>
      </trkpt>
      <trkpt lat="43.57084" lon="1.37137">
        <ele>158</ele>
        <time>2020-10-08T14:02:40+02:00</time>
      </trkpt>
      <trkpt lat="43.57067" lon="1.37159">
        <ele>158</ele>
        <time>2020-10-08T14:02:50+02:00</time>
      </trkpt>
      <trkpt lat="43.57044" lon="1.37166">
        <ele>158</ele>
        <time>2020-10-08T14:02:57+02:00</time>
      </trkpt>
      <trkpt lat="43.57027" lon="1.3719">
        <ele>158</ele>
        <time>2020-10-08T14:03:03+02:00</time>
      </trkpt>
      <trkpt lat="43.57007" lon="1.37209">
        <ele>158</ele>
        <time>2020-10-08T14:03:08+02:00</time>
      </trkpt>
      <trkpt lat="43.56983" lon="1.37224">
        <ele>158</ele>
        <time>2020-10-08T14:03:14+02:00</time>
      </trkpt>
      <trkpt lat="43.56959" lon="1.37233">
        <ele>158</ele>
        <time>2020-10-08T14:03:23+02:00</time>
      </trkpt>
      <trkpt lat="43.56939" lon="1.37254">
        <ele>158</ele>
        <time>2020-10-08T14:03:31+02:00</time>
      </trkpt>
      <trkpt lat="43.56926" lon="1.37282">
        <ele>158</ele>
        <time>2020-10-08T14:03:40+02:00</time>
      </trkpt>
      <trkpt lat="43.56915" lon="1.37311">
        <ele>158</ele>
        <time>2020-10-08T14:03:49+02:00</time>
      </trkpt>
      <trkpt lat="43.56899" lon="1.37334">
        <ele>158</ele>
        <time>2020-10-08T14:03:54+02:00</time>
      </trkpt>
      <trkpt lat="43.56899" lon="1.37372">
        <ele>158</ele>
        <time>2020-10-08T14:04:00+02:00</time>
      </trkpt>
      <trkpt lat="43.56922" lon="1.37388">
        <ele>158</ele>
        <time>2020-10-08T14:04:02+02:00</time>
      </trkpt>
      <trkpt lat="43.56902" lon="1.37409">
        <ele>158</ele>
        <time>2020-10-08T14:04:06+02:00</time>
      </trkpt>
      <trkpt lat="43.56915" lon="1.37437">
        <ele>158</ele>
        <time>2020-10-08T14:04:09+02:00</time>
      </trkpt>
      <trkpt lat="43.56921" lon="1.3747">
        <ele>158</ele>
        <time>2020-10-08T14:04:18+02:00</time>
      </trkpt>
      <trkpt lat="43.56934" lon="1.37498">
        <ele>158</ele>
        <time>2020-10-08T14:04:27+02:00</time>
      </trkpt>
      <trkpt lat="43.56957" lon="1.37502">
        <ele>158</ele>
        <time>2020-10-08T14:04:32+02:00</time>
      </trkpt>
      <trkpt lat="43.56981" lon="1.37511">
        <ele>158</ele>
        <time>2020-10-08T14:04:37+02:00</time>
      </trkpt>
      <trkpt lat="43.56984" lon="1.37566">
        <ele>158</ele>
        <time>2020-10-08T14:04:42+02:00</time>
      </trkpt>
      <trkpt lat="43.57025" lon="1.37549">
        <ele>158</ele>
        <time>2020-10-08T14:04:53+02:00</time>
      </trkpt>
      <trkpt lat="43.57045" lon="1.37531">
        <ele>158</ele>
        <time>2020-10-08T14:05:04+02:00</time>
      </trkpt>
      <trkpt lat="43.57068" lon="1.37531">
        <ele>158</ele>
        <time>2020-10-08T14:05:15+02:00</time>
      </trkpt>
      <trkpt lat="43.57092" lon="1.3753">
        <ele>158</ele>
        <time>2020-10-08T14:05:22+02:00</time>
      </trkpt>
      <trkpt lat="43.57105" lon="1.37556">
        <ele>158</ele>
        <time>2020-10-08T14:05:29+02:00</time>
      </trkpt>
      <trkpt lat="43.5711" lon="1.37591">
        <ele>158</ele>
        <time>2020-10-08T14:05:35+02:00</time>
      </trkpt>
      <trkpt lat="43.57111" lon="1.37627">
        <ele>158</ele>
        <time>2020-10-08T14:05:43+02:00</time>
      </trkpt>
      <trkpt lat="43.5711" lon="1.37661">
        <ele>157</ele>
        <time>2020-10-08T14:05:50+02:00</time>
      </trkpt>
      <trkpt lat="43.57107" lon="1.37696">
        <ele>157</ele>
        <time>2020-10-08T14:05:57+02:00</time>
      </trkpt>
      <trkpt lat="43.57103" lon="1.37729">
        <ele>157</ele>
        <time>2020-10-08T14:06:03+02:00</time>
      </trkpt>
      <trkpt lat="43.57117" lon="1.37731">
        <ele>157</ele>
        <time>2020-10-08T14:09:20+02:00</time>
      </trkpt>
      <trkpt lat="43.57111" lon="1.37763">
        <ele>157</ele>
        <time>2020-10-08T14:09:27+02:00</time>
      </trkpt>
      <trkpt lat="43.57116" lon="1.37798">
        <ele>157</ele>
        <time>2020-10-08T14:09:34+02:00</time>
      </trkpt>
      <trkpt lat="43.57114" lon="1.37833">
        <ele>157</ele>
        <time>2020-10-08T14:09:42+02:00</time>
      </trkpt>
      <trkpt lat="43.5712" lon="1.37867">
        <ele>157</ele>
        <time>2020-10-08T14:09:48+02:00</time>
      </trkpt>
      <trkpt lat="43.57123" lon="1.37902">
        <ele>156</ele>
        <time>2020-10-08T14:09:55+02:00</time>
      </trkpt>
      <trkpt lat="43.5713" lon="1.37934">
        <ele>156</ele>
        <time>2020-10-08T14:10:01+02:00</time>
      </trkpt>
      <trkpt lat="43.57135" lon="1.37967">
        <ele>156</ele>
        <time>2020-10-08T14:10:06+02:00</time>
      </trkpt>
      <trkpt lat="43.5715" lon="1.37991">
        <ele>156</ele>
        <time>2020-10-08T14:10:12+02:00</time>
      </trkpt>
      <trkpt lat="43.57162" lon="1.3802">
        <ele>156</ele>
        <time>2020-10-08T14:10:18+02:00</time>
      </trkpt>
      <trkpt lat="43.57177" lon="1.38044">
        <ele>156</ele>
        <time>2020-10-08T14:10:25+02:00</time>
      </trkpt>
      <trkpt lat="43.57196" lon="1.38063">
        <ele>156</ele>
        <time>2020-10-08T14:10:32+02:00</time>
      </trkpt>
      <trkpt lat="43.57218" lon="1.38078">
        <ele>156</ele>
        <time>2020-10-08T14:10:40+02:00</time>
      </trkpt>
      <trkpt lat="43.5724" lon="1.38091">
        <ele>156</ele>
        <time>2020-10-08T14:10:46+02:00</time>
      </trkpt>
      <trkpt lat="43.57262" lon="1.38109">
        <ele>156</ele>
        <time>2020-10-08T14:10:52+02:00</time>
      </trkpt>
      <trkpt lat="43.5728" lon="1.38137">
        <ele>156</ele>
        <time>2020-10-08T14:10:58+02:00</time>
      </trkpt>
      <trkpt lat="43.57284" lon="1.38167">
        <ele>156</ele>
        <time>2020-10-08T14:11:05+02:00</time>
      </trkpt>
      <trkpt lat="43.5728" lon="1.38199">
        <ele>156</ele>
        <time>2020-10-08T14:11:13+02:00</time>
      </trkpt>
      <trkpt lat="43.57269" lon="1.38226">
        <ele>156</ele>
        <time>2020-10-08T14:11:21+02:00</time>
      </trkpt>
      <trkpt lat="43.57247" lon="1.38232">
        <ele>156</ele>
        <time>2020-10-08T14:11:28+02:00</time>
      </trkpt>
      <trkpt lat="43.57245" lon="1.38263">
        <ele>156</ele>
        <time>2020-10-08T14:11:44+02:00</time>
      </trkpt>
      <trkpt lat="43.57237" lon="1.38294">
        <ele>156</ele>
        <time>2020-10-08T14:12:12+02:00</time>
      </trkpt>
      <trkpt lat="43.57215" lon="1.38311">
        <ele>156</ele>
        <time>2020-10-08T14:12:20+02:00</time>
      </trkpt>
      <trkpt lat="43.57191" lon="1.38323">
        <ele>156</ele>
        <time>2020-10-08T14:12:26+02:00</time>
      </trkpt>
      <trkpt lat="43.57167" lon="1.38341">
        <ele>156</ele>
        <time>2020-10-08T14:12:32+02:00</time>
      </trkpt>
      <trkpt lat="43.57146" lon="1.38358">
        <ele>156</ele>
        <time>2020-10-08T14:12:38+02:00</time>
      </trkpt>
      <trkpt lat="43.57139" lon="1.38393">
        <ele>156</ele>
        <time>2020-10-08T14:12:45+02:00</time>
      </trkpt>
      <trkpt lat="43.57142" lon="1.38429">
        <ele>155</ele>
        <time>2020-10-08T14:12:52+02:00</time>
      </trkpt>
      <trkpt lat="43.57136" lon="1.38459">
        <ele>155</ele>
        <time>2020-10-08T14:12:59+02:00</time>
      </trkpt>
      <trkpt lat="43.57133" lon="1.38491">
        <ele>155</ele>
        <time>2020-10-08T14:13:04+02:00</time>
      </trkpt>
      <trkpt lat="43.5713" lon="1.38528">
        <ele>155</ele>
        <time>2020-10-08T14:13:10+02:00</time>
      </trkpt>
      <trkpt lat="43.57131" lon="1.38561">
        <ele>155</ele>
        <time>2020-10-08T14:13:16+02:00</time>
      </trkpt>
      <trkpt lat="43.57129" lon="1.38593">
        <ele>155</ele>
        <time>2020-10-08T14:13:22+02:00</time>
      </trkpt>
      <trkpt lat="43.57124" lon="1.38629">
        <ele>155</ele>
        <time>2020-10-08T14:13:29+02:00</time>
      </trkpt>
      <trkpt lat="43.57122" lon="1.38663">
        <ele>155</ele>
        <time>2020-10-08T14:13:33+02:00</time>
      </trkpt>
      <trkpt lat="43.57116" lon="1.38696">
        <ele>155</ele>
        <time>2020-10-08T14:13:40+02:00</time>
      </trkpt>
      <trkpt lat="43.57114" lon="1.38727">
        <ele>155</ele>
        <time>2020-10-08T14:13:46+02:00</time>
      </trkpt>
      <trkpt lat="43.57112" lon="1.38764">
        <ele>155</ele>
        <time>2020-10-08T14:13:52+02:00</time>
      </trkpt>
      <trkpt lat="43.5711" lon="1.38796">
        <ele>155</ele>
        <time>2020-10-08T14:13:58+02:00</time>
      </trkpt>
      <trkpt lat="43.5711" lon="1.38833">
        <ele>155</ele>
        <time>2020-10-08T14:14:04+02:00</time>
      </trkpt>
      <trkpt lat="43.57108" lon="1.38867">
        <ele>155</ele>
        <time>2020-10-08T14:14:10+02:00</time>
      </trkpt>
      <trkpt lat="43.57109" lon="1.38901">
        <ele>155</ele>
        <time>2020-10-08T14:14:16+02:00</time>
      </trkpt>
      <trkpt lat="43.5711" lon="1.38934">
        <ele>155</ele>
        <time>2020-10-08T14:14:22+02:00</time>
      </trkpt>
      <trkpt lat="43.57111" lon="1.38966">
        <ele>155</ele>
        <time>2020-10-08T14:14:27+02:00</time>
      </trkpt>
      <trkpt lat="43.5711" lon="1.38997">
        <ele>155</ele>
        <time>2020-10-08T14:14:34+02:00</time>
      </trkpt>
      <trkpt lat="43.57109" lon="1.39031">
        <ele>155</ele>
        <time>2020-10-08T14:14:40+02:00</time>
      </trkpt>
      <trkpt lat="43.5711" lon="1.39069">
        <ele>155</ele>
        <time>2020-10-08T14:14:46+02:00</time>
      </trkpt>
      <trkpt lat="43.57117" lon="1.39101">
        <ele>155</ele>
        <time>2020-10-08T14:14:52+02:00</time>
      </trkpt>
      <trkpt lat="43.57124" lon="1.39134">
        <ele>155</ele>
        <time>2020-10-08T14:14:59+02:00</time>
      </trkpt>
      <trkpt lat="43.57106" lon="1.39154">
        <ele>154</ele>
        <time>2020-10-08T14:15:09+02:00</time>
      </trkpt>
      <trkpt lat="43.57106" lon="1.39187">
        <ele>154</ele>
        <time>2020-10-08T14:15:17+02:00</time>
      </trkpt>
      <trkpt lat="43.57111" lon="1.39222">
        <ele>154</ele>
        <time>2020-10-08T14:15:29+02:00</time>
      </trkpt>
      <trkpt lat="43.57105" lon="1.39253">
        <ele>155</ele>
        <time>2020-10-08T14:15:40+02:00</time>
      </trkpt>
      <trkpt lat="43.57096" lon="1.39282">
        <ele>155</ele>
        <time>2020-10-08T14:15:50+02:00</time>
      </trkpt>
      <trkpt lat="43.57083" lon="1.3931">
        <ele>155</ele>
        <time>2020-10-08T14:16:32+02:00</time>
      </trkpt>
      <trkpt lat="43.57071" lon="1.39338">
        <ele>155</ele>
        <time>2020-10-08T14:16:42+02:00</time>
      </trkpt>
      <trkpt lat="43.57059" lon="1.39367">
        <ele>155</ele>
        <time>2020-10-08T14:16:52+02:00</time>
      </trkpt>
      <trkpt lat="43.57036" lon="1.3938">
        <ele>156</ele>
        <time>2020-10-08T14:16:59+02:00</time>
      </trkpt>
      <trkpt lat="43.57039" lon="1.39414">
        <ele>156</ele>
        <time>2020-10-08T14:17:05+02:00</time>
      </trkpt>
      <trkpt lat="43.5704" lon="1.39446">
        <ele>156</ele>
        <time>2020-10-08T14:17:10+02:00</time>
      </trkpt>
      <trkpt lat="43.57041" lon="1.39477">
        <ele>156</ele>
        <time>2020-10-08T14:17:16+02:00</time>
      </trkpt>
      <trkpt lat="43.57043" lon="1.39514">
        <ele>156</ele>
        <time>2020-10-08T14:17:22+02:00</time>
      </trkpt>
      <trkpt lat="43.57044" lon="1.39551">
        <ele>156</ele>
        <time>2020-10-08T14:17:28+02:00</time>
      </trkpt>
      <trkpt lat="43.57043" lon="1.39583">
        <ele>156</ele>
        <time>2020-10-08T14:17:33+02:00</time>
      </trkpt>
      <trkpt lat="43.57043" lon="1.39618">
        <ele>156</ele>
        <time>2020-10-08T14:17:39+02:00</time>
      </trkpt>
      <trkpt lat="43.57044" lon="1.39653">
        <ele>156</ele>
        <time>2020-10-08T14:17:45+02:00</time>
      </trkpt>
      <trkpt lat="43.57039" lon="1.39685">
        <ele>155</ele>
        <time>2020-10-08T14:17:51+02:00</time>
      </trkpt>
      <trkpt lat="43.57026" lon="1.39714">
        <ele>155</ele>
        <time>2020-10-08T14:17:57+02:00</time>
      </trkpt>
      <trkpt lat="43.57031" lon="1.39746">
        <ele>153</ele>
        <time>2020-10-08T14:18:08+02:00</time>
      </trkpt>
      <trkpt lat="43.57054" lon="1.39765">
        <ele>152</ele>
        <time>2020-10-08T14:18:14+02:00</time>
      </trkpt>
      <trkpt lat="43.57075" lon="1.39782">
        <ele>150</ele>
        <time>2020-10-08T14:18:20+02:00</time>
      </trkpt>
      <trkpt lat="43.57099" lon="1.39778">
        <ele>150</ele>
        <time>2020-10-08T14:18:26+02:00</time>
      </trkpt>
      <trkpt lat="43.57123" lon="1.39773">
        <ele>151</ele>
        <time>2020-10-08T14:18:34+02:00</time>
      </trkpt>
      <trkpt lat="43.57142" lon="1.39794">
        <ele>151</ele>
        <time>2020-10-08T14:18:42+02:00</time>
      </trkpt>
      <trkpt lat="43.57165" lon="1.39804">
        <ele>150</ele>
        <time>2020-10-08T14:19:06+02:00</time>
      </trkpt>
      <trkpt lat="43.57189" lon="1.39818">
        <ele>150</ele>
        <time>2020-10-08T14:19:15+02:00</time>
      </trkpt>
      <trkpt lat="43.57212" lon="1.39824">
        <ele>150</ele>
        <time>2020-10-08T14:19:21+02:00</time>
      </trkpt>
      <trkpt lat="43.57237" lon="1.39833">
        <ele>150</ele>
        <time>2020-10-08T14:19:27+02:00</time>
      </trkpt>
      <trkpt lat="43.5726" lon="1.39846">
        <ele>151</ele>
        <time>2020-10-08T14:19:36+02:00</time>
      </trkpt>
      <trkpt lat="43.57285" lon="1.39853">
        <ele>151</ele>
        <time>2020-10-08T14:19:46+02:00</time>
      </trkpt>
      <trkpt lat="43.57291" lon="1.39887">
        <ele>150</ele>
        <time>2020-10-08T14:19:55+02:00</time>
      </trkpt>
      <trkpt lat="43.57281" lon="1.39921">
        <ele>149</ele>
        <time>2020-10-08T14:20:00+02:00</time>
      </trkpt>
      <trkpt lat="43.57276" lon="1.39952">
        <ele>148</ele>
        <time>2020-10-08T14:20:04+02:00</time>
      </trkpt>
      <trkpt lat="43.57264" lon="1.39985">
        <ele>146</ele>
        <time>2020-10-08T14:20:08+02:00</time>
      </trkpt>
      <trkpt lat="43.57249" lon="1.40008">
        <ele>145</ele>
        <time>2020-10-08T14:20:12+02:00</time>
      </trkpt>
      <trkpt lat="43.57223" lon="1.4">
        <ele>145</ele>
        <time>2020-10-08T14:20:18+02:00</time>
      </trkpt>
      <trkpt lat="43.572" lon="1.39995">
        <ele>145</ele>
        <time>2020-10-08T14:20:24+02:00</time>
      </trkpt>
      <trkpt lat="43.57176" lon="1.39992">
        <ele>144</ele>
        <time>2020-10-08T14:20:30+02:00</time>
      </trkpt>
      <trkpt lat="43.57152" lon="1.39984">
        <ele>144</ele>
        <time>2020-10-08T14:20:37+02:00</time>
      </trkpt>
      <trkpt lat="43.57134" lon="1.39965">
        <ele>144</ele>
        <time>2020-10-08T14:20:49+02:00</time>
      </trkpt>
      <trkpt lat="43.57131" lon="1.39933">
        <ele>144</ele>
        <time>2020-10-08T14:20:55+02:00</time>
      </trkpt>
      <trkpt lat="43.5712" lon="1.39963">
        <ele>143</ele>
        <time>2020-10-08T14:21:17+02:00</time>
      </trkpt>
      <trkpt lat="43.57121" lon="1.39996">
        <ele>143</ele>
        <time>2020-10-08T14:21:27+02:00</time>
      </trkpt>
      <trkpt lat="43.57104" lon="1.40019">
        <ele>143</ele>
        <time>2020-10-08T14:21:39+02:00</time>
      </trkpt>
      <trkpt lat="43.57082" lon="1.40023">
        <ele>143</ele>
        <time>2020-10-08T14:21:47+02:00</time>
      </trkpt>
      <trkpt lat="43.57066" lon="1.40046">
        <ele>143</ele>
        <time>2020-10-08T14:21:58+02:00</time>
      </trkpt>
      <trkpt lat="43.57078" lon="1.40075">
        <ele>144</ele>
        <time>2020-10-08T14:22:08+02:00</time>
      </trkpt>
      <trkpt lat="43.57103" lon="1.40083">
        <ele>144</ele>
        <time>2020-10-08T14:22:18+02:00</time>
      </trkpt>
      <trkpt lat="43.57121" lon="1.40105">
        <ele>144</ele>
        <time>2020-10-08T14:22:28+02:00</time>
      </trkpt>
      <trkpt lat="43.5712" lon="1.40138">
        <ele>144</ele>
        <time>2020-10-08T14:22:35+02:00</time>
      </trkpt>
      <trkpt lat="43.57118" lon="1.40171">
        <ele>144</ele>
        <time>2020-10-08T14:22:43+02:00</time>
      </trkpt>
      <trkpt lat="43.57095" lon="1.40179">
        <ele>144</ele>
        <time>2020-10-08T14:22:50+02:00</time>
      </trkpt>
      <trkpt lat="43.5707" lon="1.40181">
        <ele>144</ele>
        <time>2020-10-08T14:22:57+02:00</time>
      </trkpt>
      <trkpt lat="43.57046" lon="1.40187">
        <ele>144</ele>
        <time>2020-10-08T14:23:06+02:00</time>
      </trkpt>
      <trkpt lat="43.57023" lon="1.40185">
        <ele>144</ele>
        <time>2020-10-08T14:23:14+02:00</time>
      </trkpt>
      <trkpt lat="43.56999" lon="1.40187">
        <ele>144</ele>
        <time>2020-10-08T14:23:22+02:00</time>
      </trkpt>
      <trkpt lat="43.56976" lon="1.40174">
        <ele>144</ele>
        <time>2020-10-08T14:23:29+02:00</time>
      </trkpt>
      <trkpt lat="43.56952" lon="1.40163">
        <ele>145</ele>
        <time>2020-10-08T14:23:35+02:00</time>
      </trkpt>
      <trkpt lat="43.56927" lon="1.40162">
        <ele>145</ele>
        <time>2020-10-08T14:23:41+02:00</time>
      </trkpt>
      <trkpt lat="43.56906" lon="1.40172">
        <ele>145</ele>
        <time>2020-10-08T14:24:00+02:00</time>
      </trkpt>
      <trkpt lat="43.56883" lon="1.40173">
        <ele>145</ele>
        <time>2020-10-08T14:24:08+02:00</time>
      </trkpt>
      <trkpt lat="43.56857" lon="1.40173">
        <ele>145</ele>
        <time>2020-10-08T14:24:16+02:00</time>
      </trkpt>
      <trkpt lat="43.56833" lon="1.40164">
        <ele>145</ele>
        <time>2020-10-08T14:24:23+02:00</time>
      </trkpt>
      <trkpt lat="43.5681" lon="1.40164">
        <ele>145</ele>
        <time>2020-10-08T14:24:29+02:00</time>
      </trkpt>
      <trkpt lat="43.56787" lon="1.40162">
        <ele>145</ele>
        <time>2020-10-08T14:24:36+02:00</time>
      </trkpt>
      <trkpt lat="43.56764" lon="1.4017">
        <ele>145</ele>
        <time>2020-10-08T14:24:45+02:00</time>
      </trkpt>
      <trkpt lat="43.56756" lon="1.40202">
        <ele>145</ele>
        <time>2020-10-08T14:24:52+02:00</time>
      </trkpt>
      <trkpt lat="43.5676" lon="1.40234">
        <ele>145</ele>
        <time>2020-10-08T14:24:58+02:00</time>
      </trkpt>
      <trkpt lat="43.56762" lon="1.40266">
        <ele>145</ele>
        <time>2020-10-08T14:25:05+02:00</time>
      </trkpt>
      <trkpt lat="43.56765" lon="1.40297">
        <ele>145</ele>
        <time>2020-10-08T14:25:11+02:00</time>
      </trkpt>
      <trkpt lat="43.56766" lon="1.40329">
        <ele>145</ele>
        <time>2020-10-08T14:25:18+02:00</time>
      </trkpt>
      <trkpt lat="43.56749" lon="1.40348">
        <ele>145</ele>
        <time>2020-10-08T14:25:33+02:00</time>
      </trkpt>
      <trkpt lat="43.56743" lon="1.40379">
        <ele>145</ele>
        <time>2020-10-08T14:25:42+02:00</time>
      </trkpt>
      <trkpt lat="43.56742" lon="1.40413">
        <ele>145</ele>
        <time>2020-10-08T14:25:48+02:00</time>
      </trkpt>
      <trkpt lat="43.56743" lon="1.40447">
        <ele>145</ele>
        <time>2020-10-08T14:25:55+02:00</time>
      </trkpt>
      <trkpt lat="43.56745" lon="1.40482">
        <ele>145</ele>
        <time>2020-10-08T14:26:02+02:00</time>
      </trkpt>
      <trkpt lat="43.56748" lon="1.40516">
        <ele>145</ele>
        <time>2020-10-08T14:26:08+02:00</time>
      </trkpt>
      <trkpt lat="43.56749" lon="1.40549">
        <ele>145</ele>
        <time>2020-10-08T14:26:14+02:00</time>
      </trkpt>
      <trkpt lat="43.56751" lon="1.40584">
        <ele>145</ele>
        <time>2020-10-08T14:26:20+02:00</time>
      </trkpt>
      <trkpt lat="43.56752" lon="1.40616">
        <ele>145</ele>
        <time>2020-10-08T14:26:26+02:00</time>
      </trkpt>
      <trkpt lat="43.56743" lon="1.40648">
        <ele>145</ele>
        <time>2020-10-08T14:26:34+02:00</time>
      </trkpt>
      <trkpt lat="43.5673" lon="1.40675">
        <ele>145</ele>
        <time>2020-10-08T14:26:42+02:00</time>
      </trkpt>
      <trkpt lat="43.56719" lon="1.40703">
        <ele>145</ele>
        <time>2020-10-08T14:26:56+02:00</time>
      </trkpt>
      <trkpt lat="43.56738" lon="1.40724">
        <ele>145</ele>
        <time>2020-10-08T14:27:10+02:00</time>
      </trkpt>
      <trkpt lat="43.56762" lon="1.40734">
        <ele>145</ele>
        <time>2020-10-08T14:27:18+02:00</time>
      </trkpt>
      <trkpt lat="43.56782" lon="1.40757">
        <ele>145</ele>
        <time>2020-10-08T14:27:26+02:00</time>
      </trkpt>
      <trkpt lat="43.56798" lon="1.40783">
        <ele>145</ele>
        <time>2020-10-08T14:27:33+02:00</time>
      </trkpt>
      <trkpt lat="43.56819" lon="1.40795">
        <ele>145</ele>
        <time>2020-10-08T14:27:39+02:00</time>
      </trkpt>
      <trkpt lat="43.56843" lon="1.40805">
        <ele>145</ele>
        <time>2020-10-08T14:27:49+02:00</time>
      </trkpt>
      <trkpt lat="43.56865" lon="1.40812">
        <ele>145</ele>
        <time>2020-10-08T14:28:12+02:00</time>
      </trkpt>
      <trkpt lat="43.56889" lon="1.40824">
        <ele>145</ele>
        <time>2020-10-08T14:28:20+02:00</time>
      </trkpt>
      <trkpt lat="43.56911" lon="1.40831">
        <ele>145</ele>
        <time>2020-10-08T14:28:28+02:00</time>
      </trkpt>
      <trkpt lat="43.56918" lon="1.40861">
        <ele>145</ele>
        <time>2020-10-08T14:28:36+02:00</time>
      </trkpt>
      <trkpt lat="43.56924" lon="1.40893">
        <ele>145</ele>
        <time>2020-10-08T14:28:42+02:00</time>
      </trkpt>
      <trkpt lat="43.56925" lon="1.40927">
        <ele>145</ele>
        <time>2020-10-08T14:28:49+02:00</time>
      </trkpt>
      <trkpt lat="43.56926" lon="1.40958">
        <ele>145</ele>
        <time>2020-10-08T14:28:55+02:00</time>
      </trkpt>
      <trkpt lat="43.56933" lon="1.40991">
        <ele>145</ele>
        <time>2020-10-08T14:29:02+02:00</time>
      </trkpt>
      <trkpt lat="43.56936" lon="1.41026">
        <ele>145</ele>
        <time>2020-10-08T14:29:08+02:00</time>
      </trkpt>
      <trkpt lat="43.56941" lon="1.41057">
        <ele>145</ele>
        <time>2020-10-08T14:29:14+02:00</time>
      </trkpt>
      <trkpt lat="43.56938" lon="1.41091">
        <ele>144</ele>
        <time>2020-10-08T14:29:20+02:00</time>
      </trkpt>
      <trkpt lat="43.56935" lon="1.41124">
        <ele>144</ele>
        <time>2020-10-08T14:29:26+02:00</time>
      </trkpt>
      <trkpt lat="43.56933" lon="1.41156">
        <ele>144</ele>
        <time>2020-10-08T14:29:32+02:00</time>
      </trkpt>
      <trkpt lat="43.56927" lon="1.4119">
        <ele>144</ele>
        <time>2020-10-08T14:29:39+02:00</time>
      </trkpt>
      <trkpt lat="43.56919" lon="1.41222">
        <ele>144</ele>
        <time>2020-10-08T14:29:45+02:00</time>
      </trkpt>
      <trkpt lat="43.5691" lon="1.41253">
        <ele>144</ele>
        <time>2020-10-08T14:29:51+02:00</time>
      </trkpt>
      <trkpt lat="43.56897" lon="1.41283">
        <ele>144</ele>
        <time>2020-10-08T14:29:56+02:00</time>
      </trkpt>
      <trkpt lat="43.56894" lon="1.41313">
        <ele>144</ele>
        <time>2020-10-08T14:30:01+02:00</time>
      </trkpt>
      <trkpt lat="43.5688" lon="1.41341">
        <ele>144</ele>
        <time>2020-10-08T14:30:09+02:00</time>
      </trkpt>
      <trkpt lat="43.56865" lon="1.41364">
        <ele>144</ele>
        <time>2020-10-08T14:30:14+02:00</time>
      </trkpt>
      <trkpt lat="43.56842" lon="1.41375">
        <ele>145</ele>
        <time>2020-10-08T14:30:20+02:00</time>
      </trkpt>
      <trkpt lat="43.56823" lon="1.41357">
        <ele>144</ele>
        <time>2020-10-08T14:30:29+02:00</time>
      </trkpt>
      <trkpt lat="43.56804" lon="1.4134">
        <ele>144</ele>
        <time>2020-10-08T14:30:42+02:00</time>
      </trkpt>
      <trkpt lat="43.56787" lon="1.41361">
        <ele>144</ele>
        <time>2020-10-08T14:30:58+02:00</time>
      </trkpt>
      <trkpt lat="43.56775" lon="1.41389">
        <ele>144</ele>
        <time>2020-10-08T14:31:05+02:00</time>
      </trkpt>
      <trkpt lat="43.56765" lon="1.41421">
        <ele>144</ele>
        <time>2020-10-08T14:31:12+02:00</time>
      </trkpt>
      <trkpt lat="43.56751" lon="1.41446">
        <ele>144</ele>
        <time>2020-10-08T14:31:18+02:00</time>
      </trkpt>
      <trkpt lat="43.56733" lon="1.4147">
        <ele>144</ele>
        <time>2020-10-08T14:31:24+02:00</time>
      </trkpt>
      <trkpt lat="43.5671" lon="1.41457">
        <ele>144</ele>
        <time>2020-10-08T14:31:31+02:00</time>
      </trkpt>
      <trkpt lat="43.56688" lon="1.41439">
        <ele>144</ele>
        <time>2020-10-08T14:31:38+02:00</time>
      </trkpt>
      <trkpt lat="43.56669" lon="1.41422">
        <ele>144</ele>
        <time>2020-10-08T14:31:44+02:00</time>
      </trkpt>
      <trkpt lat="43.5665" lon="1.41403">
        <ele>144</ele>
        <time>2020-10-08T14:31:50+02:00</time>
      </trkpt>
      <trkpt lat="43.56631" lon="1.41388">
        <ele>144</ele>
        <time>2020-10-08T14:31:56+02:00</time>
      </trkpt>
      <trkpt lat="43.56611" lon="1.41371">
        <ele>144</ele>
        <time>2020-10-08T14:32:04+02:00</time>
      </trkpt>
      <trkpt lat="43.56588" lon="1.41382">
        <ele>144</ele>
        <time>2020-10-08T14:32:14+02:00</time>
      </trkpt>
      <trkpt lat="43.56577" lon="1.41412">
        <ele>144</ele>
        <time>2020-10-08T14:32:19+02:00</time>
      </trkpt>
      <trkpt lat="43.56565" lon="1.41442">
        <ele>144</ele>
        <time>2020-10-08T14:32:24+02:00</time>
      </trkpt>
      <trkpt lat="43.56552" lon="1.41469">
        <ele>143</ele>
        <time>2020-10-08T14:32:29+02:00</time>
      </trkpt>
      <trkpt lat="43.56534" lon="1.4149">
        <ele>143</ele>
        <time>2020-10-08T14:32:36+02:00</time>
      </trkpt>
      <trkpt lat="43.56533" lon="1.41525">
        <ele>143</ele>
        <time>2020-10-08T14:32:44+02:00</time>
      </trkpt>
      <trkpt lat="43.56519" lon="1.41554">
        <ele>143</ele>
        <time>2020-10-08T14:32:52+02:00</time>
      </trkpt>
      <trkpt lat="43.56507" lon="1.41584">
        <ele>144</ele>
        <time>2020-10-08T14:32:59+02:00</time>
      </trkpt>
      <trkpt lat="43.56492" lon="1.41611">
        <ele>144</ele>
        <time>2020-10-08T14:33:07+02:00</time>
      </trkpt>
      <trkpt lat="43.56481" lon="1.41638">
        <ele>144</ele>
        <time>2020-10-08T14:33:13+02:00</time>
      </trkpt>
      <trkpt lat="43.56466" lon="1.41667">
        <ele>144</ele>
        <time>2020-10-08T14:33:21+02:00</time>
      </trkpt>
      <trkpt lat="43.56451" lon="1.4169">
        <ele>145</ele>
        <time>2020-10-08T14:33:26+02:00</time>
      </trkpt>
      <trkpt lat="43.56437" lon="1.41716">
        <ele>146</ele>
        <time>2020-10-08T14:33:33+02:00</time>
      </trkpt>
      <trkpt lat="43.56423" lon="1.41744">
        <ele>146</ele>
        <time>2020-10-08T14:33:40+02:00</time>
      </trkpt>
      <trkpt lat="43.56408" lon="1.4177">
        <ele>147</ele>
        <time>2020-10-08T14:33:46+02:00</time>
      </trkpt>
      <trkpt lat="43.56384" lon="1.41767">
        <ele>147</ele>
        <time>2020-10-08T14:33:51+02:00</time>
      </trkpt>
      <trkpt lat="43.56362" lon="1.41777">
        <ele>147</ele>
        <time>2020-10-08T14:33:57+02:00</time>
      </trkpt>
      <trkpt lat="43.56351" lon="1.41805">
        <ele>148</ele>
        <time>2020-10-08T14:34:03+02:00</time>
      </trkpt>
      <trkpt lat="43.56338" lon="1.41837">
        <ele>147</ele>
        <time>2020-10-08T14:34:10+02:00</time>
      </trkpt>
      <trkpt lat="43.56345" lon="1.41872">
        <ele>146</ele>
        <time>2020-10-08T14:34:14+02:00</time>
      </trkpt>
      <trkpt lat="43.56364" lon="1.41895">
        <ele>146</ele>
        <time>2020-10-08T14:34:21+02:00</time>
      </trkpt>
      <trkpt lat="43.56369" lon="1.41926">
        <ele>145</ele>
        <time>2020-10-08T14:34:31+02:00</time>
      </trkpt>
      <trkpt lat="43.56369" lon="1.4196">
        <ele>145</ele>
        <time>2020-10-08T14:34:39+02:00</time>
      </trkpt>
      <trkpt lat="43.56366" lon="1.41995">
        <ele>145</ele>
        <time>2020-10-08T14:34:46+02:00</time>
      </trkpt>
      <trkpt lat="43.56361" lon="1.4203">
        <ele>145</ele>
        <time>2020-10-08T14:34:53+02:00</time>
      </trkpt>
      <trkpt lat="43.56356" lon="1.42063">
        <ele>145</ele>
        <time>2020-10-08T14:35:00+02:00</time>
      </trkpt>
      <trkpt lat="43.56354" lon="1.42096">
        <ele>145</ele>
        <time>2020-10-08T14:35:06+02:00</time>
      </trkpt>
      <trkpt lat="43.5635" lon="1.42128">
        <ele>145</ele>
        <time>2020-10-08T14:35:13+02:00</time>
      </trkpt>
      <trkpt lat="43.56347" lon="1.42164">
        <ele>144</ele>
        <time>2020-10-08T14:35:20+02:00</time>
      </trkpt>
      <trkpt lat="43.56345" lon="1.42196">
        <ele>144</ele>
        <time>2020-10-08T14:35:26+02:00</time>
      </trkpt>
      <trkpt lat="43.56343" lon="1.4223">
        <ele>144</ele>
        <time>2020-10-08T14:35:32+02:00</time>
      </trkpt>
      <trkpt lat="43.56338" lon="1.42261">
        <ele>144</ele>
        <time>2020-10-08T14:35:38+02:00</time>
      </trkpt>
      <trkpt lat="43.56336" lon="1.42297">
        <ele>144</ele>
        <time>2020-10-08T14:35:44+02:00</time>
      </trkpt>
      <trkpt lat="43.5633" lon="1.42333">
        <ele>144</ele>
        <time>2020-10-08T14:35:50+02:00</time>
      </trkpt>
      <trkpt lat="43.5633" lon="1.42366">
        <ele>144</ele>
        <time>2020-10-08T14:35:56+02:00</time>
      </trkpt>
      <trkpt lat="43.56327" lon="1.42399">
        <ele>144</ele>
        <time>2020-10-08T14:36:02+02:00</time>
      </trkpt>
      <trkpt lat="43.56324" lon="1.42432">
        <ele>144</ele>
        <time>2020-10-08T14:36:08+02:00</time>
      </trkpt>
      <trkpt lat="43.56316" lon="1.42467">
        <ele>144</ele>
        <time>2020-10-08T14:36:16+02:00</time>
      </trkpt>
      <trkpt lat="43.56328" lon="1.42499">
        <ele>144</ele>
        <time>2020-10-08T14:36:24+02:00</time>
      </trkpt>
      <trkpt lat="43.56345" lon="1.4252">
        <ele>143</ele>
        <time>2020-10-08T14:36:42+02:00</time>
      </trkpt>
      <trkpt lat="43.56348" lon="1.42552">
        <ele>143</ele>
        <time>2020-10-08T14:36:53+02:00</time>
      </trkpt>
      <trkpt lat="43.5633" lon="1.42569">
        <ele>143</ele>
        <time>2020-10-08T14:37:02+02:00</time>
      </trkpt>
      <trkpt lat="43.56311" lon="1.42587">
        <ele>143</ele>
        <time>2020-10-08T14:37:09+02:00</time>
      </trkpt>
      <trkpt lat="43.56312" lon="1.4262">
        <ele>143</ele>
        <time>2020-10-08T14:37:14+02:00</time>
      </trkpt>
      <trkpt lat="43.56315" lon="1.42651">
        <ele>143</ele>
        <time>2020-10-08T14:37:19+02:00</time>
      </trkpt>
      <trkpt lat="43.56317" lon="1.42686">
        <ele>143</ele>
        <time>2020-10-08T14:37:25+02:00</time>
      </trkpt>
      <trkpt lat="43.56318" lon="1.42721">
        <ele>142</ele>
        <time>2020-10-08T14:37:31+02:00</time>
      </trkpt>
      <trkpt lat="43.5632" lon="1.42752">
        <ele>142</ele>
        <time>2020-10-08T14:37:36+02:00</time>
      </trkpt>
      <trkpt lat="43.5634" lon="1.42768">
        <ele>142</ele>
        <time>2020-10-08T14:37:43+02:00</time>
      </trkpt>
      <trkpt lat="43.56363" lon="1.42763">
        <ele>142</ele>
        <time>2020-10-08T14:37:48+02:00</time>
      </trkpt>
      <trkpt lat="43.56386" lon="1.42759">
        <ele>142</ele>
        <time>2020-10-08T14:37:52+02:00</time>
      </trkpt>
      <trkpt lat="43.56409" lon="1.42759">
        <ele>142</ele>
        <time>2020-10-08T14:37:56+02:00</time>
      </trkpt>
      <trkpt lat="43.56437" lon="1.4276">
        <ele>142</ele>
        <time>2020-10-08T14:38:01+02:00</time>
      </trkpt>
      <trkpt lat="43.56463" lon="1.42763">
        <ele>142</ele>
        <time>2020-10-08T14:38:06+02:00</time>
      </trkpt>
      <trkpt lat="43.56488" lon="1.42767">
        <ele>142</ele>
        <time>2020-10-08T14:38:11+02:00</time>
      </trkpt>
      <trkpt lat="43.5651" lon="1.42773">
        <ele>142</ele>
        <time>2020-10-08T14:38:16+02:00</time>
      </trkpt>
      <trkpt lat="43.56533" lon="1.42773">
        <ele>142</ele>
        <time>2020-10-08T14:38:21+02:00</time>
      </trkpt>
      <trkpt lat="43.56559" lon="1.42782">
        <ele>142</ele>
        <time>2020-10-08T14:38:26+02:00</time>
      </trkpt>
      <trkpt lat="43.5658" lon="1.42793">
        <ele>142</ele>
        <time>2020-10-08T14:38:31+02:00</time>
      </trkpt>
      <trkpt lat="43.56604" lon="1.42807">
        <ele>142</ele>
        <time>2020-10-08T14:38:37+02:00</time>
      </trkpt>
      <trkpt lat="43.56629" lon="1.4282">
        <ele>142</ele>
        <time>2020-10-08T14:38:43+02:00</time>
      </trkpt>
      <trkpt lat="43.56651" lon="1.42835">
        <ele>142</ele>
        <time>2020-10-08T14:38:49+02:00</time>
      </trkpt>
      <trkpt lat="43.56672" lon="1.42855">
        <ele>142</ele>
        <time>2020-10-08T14:38:56+02:00</time>
      </trkpt>
      <trkpt lat="43.56692" lon="1.42875">
        <ele>142</ele>
        <time>2020-10-08T14:39:03+02:00</time>
      </trkpt>
      <trkpt lat="43.56714" lon="1.42893">
        <ele>142</ele>
        <time>2020-10-08T14:39:09+02:00</time>
      </trkpt>
      <trkpt lat="43.56734" lon="1.42909">
        <ele>142</ele>
        <time>2020-10-08T14:39:14+02:00</time>
      </trkpt>
      <trkpt lat="43.56755" lon="1.42926">
        <ele>142</ele>
        <time>2020-10-08T14:39:20+02:00</time>
      </trkpt>
      <trkpt lat="43.56779" lon="1.42939">
        <ele>141</ele>
        <time>2020-10-08T14:39:26+02:00</time>
      </trkpt>
      <trkpt lat="43.56802" lon="1.42951">
        <ele>142</ele>
        <time>2020-10-08T14:39:32+02:00</time>
      </trkpt>
      <trkpt lat="43.56824" lon="1.4296">
        <ele>142</ele>
        <time>2020-10-08T14:39:37+02:00</time>
      </trkpt>
      <trkpt lat="43.56849" lon="1.42968">
        <ele>141</ele>
        <time>2020-10-08T14:39:43+02:00</time>
      </trkpt>
      <trkpt lat="43.56874" lon="1.42976">
        <ele>141</ele>
        <time>2020-10-08T14:39:49+02:00</time>
      </trkpt>
      <trkpt lat="43.56897" lon="1.42979">
        <ele>141</ele>
        <time>2020-10-08T14:39:54+02:00</time>
      </trkpt>
      <trkpt lat="43.5692" lon="1.4298">
        <ele>140</ele>
        <time>2020-10-08T14:39:59+02:00</time>
      </trkpt>
      <trkpt lat="43.56946" lon="1.4298">
        <ele>139</ele>
        <time>2020-10-08T14:40:04+02:00</time>
      </trkpt>
      <trkpt lat="43.56973" lon="1.42978">
        <ele>139</ele>
        <time>2020-10-08T14:40:09+02:00</time>
      </trkpt>
      <trkpt lat="43.56996" lon="1.42974">
        <ele>138</ele>
        <time>2020-10-08T14:40:13+02:00</time>
      </trkpt>
      <trkpt lat="43.57019" lon="1.42973">
        <ele>138</ele>
        <time>2020-10-08T14:40:17+02:00</time>
      </trkpt>
      <trkpt lat="43.57045" lon="1.42972">
        <ele>139</ele>
        <time>2020-10-08T14:40:24+02:00</time>
      </trkpt>
      <trkpt lat="43.57072" lon="1.42967">
        <ele>140</ele>
        <time>2020-10-08T14:40:29+02:00</time>
      </trkpt>
      <trkpt lat="43.57098" lon="1.42949">
        <ele>141</ele>
        <time>2020-10-08T14:40:35+02:00</time>
      </trkpt>
      <trkpt lat="43.57119" lon="1.42935">
        <ele>140</ele>
        <time>2020-10-08T14:40:42+02:00</time>
      </trkpt>
      <trkpt lat="43.57141" lon="1.42923">
        <ele>143</ele>
        <time>2020-10-08T14:40:48+02:00</time>
      </trkpt>
      <trkpt lat="43.57164" lon="1.4291">
        <ele>142</ele>
        <time>2020-10-08T14:40:54+02:00</time>
      </trkpt>
      <trkpt lat="43.57186" lon="1.42897">
        <ele>142</ele>
        <time>2020-10-08T14:41:00+02:00</time>
      </trkpt>
      <trkpt lat="43.57207" lon="1.42885">
        <ele>142</ele>
        <time>2020-10-08T14:41:05+02:00</time>
      </trkpt>
      <trkpt lat="43.57231" lon="1.42883">
        <ele>141</ele>
        <time>2020-10-08T14:41:10+02:00</time>
      </trkpt>
      <trkpt lat="43.57257" lon="1.42877">
        <ele>140</ele>
        <time>2020-10-08T14:41:16+02:00</time>
      </trkpt>
      <trkpt lat="43.5728" lon="1.42877">
        <ele>140</ele>
        <time>2020-10-08T14:41:22+02:00</time>
      </trkpt>
      <trkpt lat="43.57305" lon="1.42871">
        <ele>140</ele>
        <time>2020-10-08T14:41:29+02:00</time>
      </trkpt>
      <trkpt lat="43.57328" lon="1.4287">
        <ele>140</ele>
        <time>2020-10-08T14:41:34+02:00</time>
      </trkpt>
      <trkpt lat="43.57354" lon="1.42862">
        <ele>141</ele>
        <time>2020-10-08T14:41:40+02:00</time>
      </trkpt>
      <trkpt lat="43.57379" lon="1.42855">
        <ele>141</ele>
        <time>2020-10-08T14:41:47+02:00</time>
      </trkpt>
      <trkpt lat="43.57404" lon="1.42843">
        <ele>140</ele>
        <time>2020-10-08T14:41:53+02:00</time>
      </trkpt>
      <trkpt lat="43.57429" lon="1.42833">
        <ele>141</ele>
        <time>2020-10-08T14:42:00+02:00</time>
      </trkpt>
      <trkpt lat="43.57453" lon="1.42828">
        <ele>141</ele>
        <time>2020-10-08T14:42:06+02:00</time>
      </trkpt>
      <trkpt lat="43.57477" lon="1.42817">
        <ele>140</ele>
        <time>2020-10-08T14:42:11+02:00</time>
      </trkpt>
      <trkpt lat="43.57502" lon="1.42809">
        <ele>140</ele>
        <time>2020-10-08T14:42:16+02:00</time>
      </trkpt>
      <trkpt lat="43.57525" lon="1.42798">
        <ele>141</ele>
        <time>2020-10-08T14:42:26+02:00</time>
      </trkpt>
      <trkpt lat="43.57565" lon="1.42778">
        <ele>137.9</ele>
      </trkpt>
      <trkpt lat="43.57575" lon="1.42774">
        <ele>137.5</ele>
      </trkpt>
      <trkpt lat="43.5758" lon="1.42772">
        <ele>137.4</ele>
      </trkpt>
      <trkpt lat="43.57592" lon="1.42768">
        <ele>137.3</ele>
      </trkpt>
      <trkpt lat="43.57602" lon="1.42765">
        <ele>137.3</ele>
      </trkpt>
      <trkpt lat="43.57611" lon="1.42764">
        <ele>137</ele>
      </trkpt>
      <trkpt lat="43.5762" lon="1.42764">
        <ele>137</ele>
      </trkpt>
      <trkpt lat="43.5764" lon="1.42766">
        <ele>136.8</ele>
      </trkpt>
      <trkpt lat="43.57666" lon="1.42766">
        <ele>138.4</ele>
      </trkpt>
      <trkpt lat="43.57682" lon="1.42766">
        <ele>138.1</ele>
      </trkpt>
      <trkpt lat="43.57703" lon="1.42765">
        <ele>138</ele>
      </trkpt>
      <trkpt lat="43.57716" lon="1.42763">
        <ele>138.4</ele>
      </trkpt>
      <trkpt lat="43.57736" lon="1.42759">
        <ele>138.8</ele>
      </trkpt>
      <trkpt lat="43.57742" lon="1.42758">
        <ele>138.6</ele>
      </trkpt>
      <trkpt lat="43.57785" lon="1.42751">
        <ele>134.7</ele>
      </trkpt>
      <trkpt lat="43.57822" lon="1.42746">
        <ele>135</ele>
      </trkpt>
      <trkpt lat="43.57862" lon="1.42743">
        <ele>135.3</ele>
      </trkpt>
      <trkpt lat="43.57898" lon="1.42741">
        <ele>135.6</ele>
      </trkpt>
      <trkpt lat="43.57924" lon="1.42742">
        <ele>135.4</ele>
      </trkpt>
      <trkpt lat="43.57967" lon="1.42743">
        <ele>134.7</ele>
      </trkpt>
      <trkpt lat="43.5799" lon="1.42744">
        <ele>134.8</ele>
      </trkpt>
      <trkpt lat="43.5801" lon="1.42745">
        <ele>135.5</ele>
      </trkpt>
      <trkpt lat="43.58023" lon="1.42746">
        <ele>136.1</ele>
      </trkpt>
      <trkpt lat="43.58041" lon="1.4275">
        <ele>136.5</ele>
      </trkpt>
      <trkpt lat="43.58064" lon="1.42753">
        <ele>136.7</ele>
      </trkpt>
      <trkpt lat="43.5808" lon="1.42756">
        <ele>136.6</ele>
      </trkpt>
      <trkpt lat="43.5811" lon="1.42762">
        <ele>137.6</ele>
      </trkpt>
      <trkpt lat="43.58132" lon="1.42768">
        <ele>135.8</ele>
      </trkpt>
      <trkpt lat="43.58151" lon="1.42773">
        <ele>134.5</ele>
      </trkpt>
      <trkpt lat="43.58168" lon="1.42778">
        <ele>134.3</ele>
      </trkpt>
      <trkpt lat="43.58185" lon="1.42784">
        <ele>137.1</ele>
      </trkpt>
      <trkpt lat="43.58205" lon="1.42792">
        <ele>136.8</ele>
      </trkpt>
      <trkpt lat="43.58226" lon="1.428">
        <ele>135.3</ele>
      </trkpt>
      <trkpt lat="43.5824" lon="1.42805">
        <ele>136.3</ele>
      </trkpt>
      <trkpt lat="43.58255" lon="1.42812">
        <ele>137.2</ele>
      </trkpt>
      <trkpt lat="43.5828" lon="1.42824">
        <ele>136.1</ele>
      </trkpt>
      <trkpt lat="43.58292" lon="1.42829">
        <ele>135.3</ele>
      </trkpt>
      <trkpt lat="43.58307" lon="1.42835">
        <ele>135.2</ele>
      </trkpt>
      <trkpt lat="43.5832" lon="1.42841">
        <ele>137</ele>
      </trkpt>
      <trkpt lat="43.58324" lon="1.42843">
        <ele>137.2</ele>
      </trkpt>
      <trkpt lat="43.58351" lon="1.42857">
        <ele>136.3</ele>
      </trkpt>
      <trkpt lat="43.58373" lon="1.42868">
        <ele>137</ele>
      </trkpt>
      <trkpt lat="43.58398" lon="1.42881">
        <ele>136</ele>
      </trkpt>
      <trkpt lat="43.58419" lon="1.42893">
        <ele>136.7</ele>
      </trkpt>
      <trkpt lat="43.58436" lon="1.42903">
        <ele>136.3</ele>
      </trkpt>
      <trkpt lat="43.58458" lon="1.42915">
        <ele>134.9</ele>
      </trkpt>
      <trkpt lat="43.58471" lon="1.42923">
        <ele>135.2</ele>
      </trkpt>
      <trkpt lat="43.58495" lon="1.42938">
        <ele>134.7</ele>
      </trkpt>
      <trkpt lat="43.58504" lon="1.42943">
        <ele>134.9</ele>
      </trkpt>
      <trkpt lat="43.58525" lon="1.42956">
        <ele>136.2</ele>
      </trkpt>
      <trkpt lat="43.5853" lon="1.4296">
        <ele>135.8</ele>
      </trkpt>
      <trkpt lat="43.58536" lon="1.42963">
        <ele>135.8</ele>
      </trkpt>
      <trkpt lat="43.58542" lon="1.42967">
        <ele>135.8</ele>
      </trkpt>
      <trkpt lat="43.58559" lon="1.42977">
        <ele>136.7</ele>
      </trkpt>
      <trkpt lat="43.58567" lon="1.42983">
        <ele>136.6</ele>
      </trkpt>
      <trkpt lat="43.58582" lon="1.42995">
        <ele>135.2</ele>
      </trkpt>
      <trkpt lat="43.58595" lon="1.43008">
        <ele>136.4</ele>
      </trkpt>
      <trkpt lat="43.58603" lon="1.43014">
        <ele>136.8</ele>
      </trkpt>
      <trkpt lat="43.58609" lon="1.43018">
        <ele>136.6</ele>
      </trkpt>
      <trkpt lat="43.58612" lon="1.4302">
        <ele>136.3</ele>
      </trkpt>
      <trkpt lat="43.58634" lon="1.43034">
        <ele>137</ele>
      </trkpt>
      <trkpt lat="43.58674" lon="1.43062">
        <ele>135.8</ele>
      </trkpt>
      <trkpt lat="43.58696" lon="1.43077">
        <ele>135.1</ele>
      </trkpt>
      <trkpt lat="43.58744" lon="1.43113">
        <ele>136</ele>
      </trkpt>
      <trkpt lat="43.58769" lon="1.43132">
        <ele>135.8</ele>
      </trkpt>
      <trkpt lat="43.58827" lon="1.43179">
        <ele>137</ele>
      </trkpt>
      <trkpt lat="43.58869" lon="1.43211">
        <ele>136.5</ele>
      </trkpt>
      <trkpt lat="43.58897" lon="1.43235">
        <ele>136.2</ele>
      </trkpt>
      <trkpt lat="43.5893" lon="1.43261">
        <ele>136.6</ele>
      </trkpt>
      <trkpt lat="43.58956" lon="1.43285">
        <ele>135.8</ele>
      </trkpt>
      <trkpt lat="43.58982" lon="1.43309">
        <ele>135.7</ele>
      </trkpt>
      <trkpt lat="43.58998" lon="1.43322">
        <ele>135.7</ele>
      </trkpt>
      <trkpt lat="43.59019" lon="1.4334">
        <ele>136.6</ele>
      </trkpt>
      <trkpt lat="43.59054" lon="1.43371">
        <ele>136</ele>
      </trkpt>
      <trkpt lat="43.59074" lon="1.43388">
        <ele>135.7</ele>
      </trkpt>
      <trkpt lat="43.59092" lon="1.43402">
        <ele>135.7</ele>
      </trkpt>
      <trkpt lat="43.59106" lon="1.43415">
        <ele>134.9</ele>
      </trkpt>
      <trkpt lat="43.59122" lon="1.43426">
        <ele>135.8</ele>
      </trkpt>
      <trkpt lat="43.5913" lon="1.43434">
        <ele>135.5</ele>
      </trkpt>
      <trkpt lat="43.59151" lon="1.43454">
        <ele>135.8</ele>
      </trkpt>
      <trkpt lat="43.59171" lon="1.4347">
        <ele>135.4</ele>
      </trkpt>
      <trkpt lat="43.59171" lon="1.43471">
        <ele>135.2</ele>
      </trkpt>
      <trkpt lat="43.59197" lon="1.43494">
        <ele>134.9</ele>
      </trkpt>
      <trkpt lat="43.5921" lon="1.43504">
        <ele>135.3</ele>
      </trkpt>
      <trkpt lat="43.59229" lon="1.43519">
        <ele>134.7</ele>
      </trkpt>
      <trkpt lat="43.59249" lon="1.43532">
        <ele>134.8</ele>
      </trkpt>
      <trkpt lat="43.59271" lon="1.43541">
        <ele>136.9</ele>
      </trkpt>
      <trkpt lat="43.59286" lon="1.43545">
        <ele>137.5</ele>
      </trkpt>
      <trkpt lat="43.59302" lon="1.43547">
        <ele>138.4</ele>
      </trkpt>
      <trkpt lat="43.59319" lon="1.43545">
        <ele>138.8</ele>
      </trkpt>
      <trkpt lat="43.59322" lon="1.43551">
        <ele>138.3</ele>
      </trkpt>
      <trkpt lat="43.59325" lon="1.43556">
        <ele>138</ele>
      </trkpt>
      <trkpt lat="43.59331" lon="1.43568">
        <ele>137.4</ele>
      </trkpt>
      <trkpt lat="43.59333" lon="1.43573">
        <ele>137.3</ele>
      </trkpt>
      <trkpt lat="43.59334" lon="1.43574">
        <ele>137.3</ele>
      </trkpt>
      <trkpt lat="43.59338" lon="1.43579">
        <ele>137.2</ele>
      </trkpt>
      <trkpt lat="43.59346" lon="1.43591">
        <ele>136.4</ele>
      </trkpt>
      <trkpt lat="43.59354" lon="1.43599">
        <ele>136.1</ele>
      </trkpt>
      <trkpt lat="43.59359" lon="1.43603">
        <ele>136.2</ele>
      </trkpt>
      <trkpt lat="43.59361" lon="1.43604">
        <ele>136.3</ele>
      </trkpt>
      <trkpt lat="43.59366" lon="1.43607">
        <ele>136.1</ele>
      </trkpt>
      <trkpt lat="43.59367" lon="1.43607">
        <ele>136.1</ele>
      </trkpt>
      <trkpt lat="43.59374" lon="1.43609">
        <ele>136.1</ele>
      </trkpt>
      <trkpt lat="43.59379" lon="1.4361">
        <ele>136</ele>
      </trkpt>
      <trkpt lat="43.59413" lon="1.43613">
        <ele>136</ele>
      </trkpt>
      <trkpt lat="43.59433" lon="1.43614">
        <ele>136.5</ele>
      </trkpt>
      <trkpt lat="43.59442" lon="1.43616">
        <ele>136.8</ele>
      </trkpt>
      <trkpt lat="43.59449" lon="1.43619">
        <ele>136.7</ele>
      </trkpt>
      <trkpt lat="43.59467" lon="1.43631">
        <ele>136.3</ele>
      </trkpt>
      <trkpt lat="43.59484" lon="1.43642">
        <ele>136</ele>
      </trkpt>
      <trkpt lat="43.595" lon="1.43654">
        <ele>136</ele>
      </trkpt>
      <trkpt lat="43.59512" lon="1.43662">
        <ele>136</ele>
      </trkpt>
      <trkpt lat="43.59515" lon="1.43665">
        <ele>136</ele>
      </trkpt>
      <trkpt lat="43.59534" lon="1.4365">
        <ele>136.2</ele>
      </trkpt>
      <trkpt lat="43.59542" lon="1.43646">
        <ele>136.5</ele>
      </trkpt>
      <trkpt lat="43.59552" lon="1.43643">
        <ele>136.9</ele>
      </trkpt>
      <trkpt lat="43.59559" lon="1.43642">
        <ele>137.2</ele>
      </trkpt>
      <trkpt lat="43.59565" lon="1.43643">
        <ele>137.5</ele>
      </trkpt>
      <trkpt lat="43.59578" lon="1.43647">
        <ele>137.9</ele>
      </trkpt>
      <trkpt lat="43.59585" lon="1.43649">
        <ele>138</ele>
      </trkpt>
      <trkpt lat="43.59587" lon="1.43653">
        <ele>137.6</ele>
      </trkpt>
      <trkpt lat="43.59607" lon="1.43659">
        <ele>138.1</ele>
      </trkpt>
      <trkpt lat="43.59618" lon="1.43666">
        <ele>138.3</ele>
      </trkpt>
      <trkpt lat="43.59623" lon="1.43668">
        <ele>138.3</ele>
      </trkpt>
      <trkpt lat="43.59644" lon="1.43677">
        <ele>137.9</ele>
      </trkpt>
      <trkpt lat="43.59646" lon="1.43678">
        <ele>137.8</ele>
      </trkpt>
      <trkpt lat="43.59734" lon="1.43716">
        <ele>137</ele>
      </trkpt>
      <trkpt lat="43.59743" lon="1.4372">
        <ele>136.9</ele>
      </trkpt>
      <trkpt lat="43.59747" lon="1.43714">
        <ele>137.5</ele>
      </trkpt>
      <trkpt lat="43.59752" lon="1.43699">
        <ele>138.7</ele>
      </trkpt>
      <trkpt lat="43.59754" lon="1.43693">
        <ele>138.9</ele>
      </trkpt>
      <trkpt lat="43.59765" lon="1.43697">
        <ele>139</ele>
      </trkpt>
      <trkpt lat="43.59782" lon="1.43704">
        <ele>139.3</ele>
      </trkpt>
      <trkpt lat="43.59817" lon="1.43718">
        <ele>139.7</ele>
      </trkpt>
      <trkpt lat="43.59827" lon="1.43722">
        <ele>140</ele>
      </trkpt>
      <trkpt lat="43.59868" lon="1.4374">
        <ele>140.6</ele>
      </trkpt>
      <trkpt lat="43.59907" lon="1.43757">
        <ele>137.1</ele>
      </trkpt>
      <trkpt lat="43.59909" lon="1.43769">
        <ele>135.9</ele>
      </trkpt>
      <trkpt lat="43.59932" lon="1.43889">
        <ele>133</ele>
      </trkpt>
      <trkpt lat="43.59937" lon="1.43914">
        <ele>133</ele>
      </trkpt>
      <trkpt lat="43.59942" lon="1.43938">
        <ele>133</ele>
      </trkpt>
      <trkpt lat="43.59961" lon="1.4404">
        <ele>138.4</ele>
      </trkpt>
      <trkpt lat="43.59964" lon="1.44057">
        <ele>145</ele>
      </trkpt>
      <trkpt lat="43.59971" lon="1.44054">
        <ele>144.4</ele>
      </trkpt>
      <trkpt lat="43.59976" lon="1.4405">
        <ele>143</ele>
      </trkpt>
      <trkpt lat="43.59979" lon="1.44048">
        <ele>142.5</ele>
      </trkpt>
      <trkpt lat="43.59981" lon="1.44046">
        <ele>142.1</ele>
      </trkpt>
      <trkpt lat="43.60007" lon="1.44017">
        <ele>140.8</ele>
      </trkpt>
      <trkpt lat="43.60009" lon="1.44015">
        <ele>140.6</ele>
      </trkpt>
      <trkpt lat="43.60035" lon="1.43988">
        <ele>140.1</ele>
      </trkpt>
      <trkpt lat="43.60061" lon="1.43958">
        <ele>140</ele>
      </trkpt>
      <trkpt lat="43.6009" lon="1.4393">
        <ele>139.2</ele>
      </trkpt>
      <trkpt lat="43.60094" lon="1.43931">
        <ele>139.2</ele>
      </trkpt>
      <trkpt lat="43.60097" lon="1.43933">
        <ele>139.5</ele>
      </trkpt>
      <trkpt lat="43.60126" lon="1.43975">
        <ele>142.6</ele>
      </trkpt>
      <trkpt lat="43.60129" lon="1.43979">
        <ele>142.7</ele>
      </trkpt>
      <trkpt lat="43.60131" lon="1.4398">
        <ele>142.8</ele>
      </trkpt>
      <trkpt lat="43.60134" lon="1.43981">
        <ele>142.9</ele>
      </trkpt>
      <trkpt lat="43.60138" lon="1.43982">
        <ele>143</ele>
      </trkpt>
      <trkpt lat="43.60143" lon="1.43981">
        <ele>143</ele>
      </trkpt>
      <trkpt lat="43.60147" lon="1.43978">
        <ele>143</ele>
      </trkpt>
      <trkpt lat="43.60153" lon="1.4398">
        <ele>143</ele>
      </trkpt>
      <trkpt lat="43.60157" lon="1.43983">
        <ele>143</ele>
      </trkpt>
      <trkpt lat="43.6016" lon="1.43986">
        <ele>143</ele>
      </trkpt>
      <trkpt lat="43.60165" lon="1.4399">
        <ele>143</ele>
      </trkpt>
      <trkpt lat="43.60174" lon="1.44003">
        <ele>143.1</ele>
      </trkpt>
      <trkpt lat="43.60216" lon="1.44077">
        <ele>144</ele>
      </trkpt>
      <trkpt lat="43.60219" lon="1.44082">
        <ele>144</ele>
      </trkpt>
      <trkpt lat="43.60223" lon="1.44087">
        <ele>144</ele>
      </trkpt>
      <trkpt lat="43.60227" lon="1.44088">
        <ele>144</ele>
      </trkpt>
      <trkpt lat="43.60233" lon="1.44095">
        <ele>144</ele>
      </trkpt>
      <trkpt lat="43.60245" lon="1.4411">
        <ele>144</ele>
      </trkpt>
      <trkpt lat="43.60249" lon="1.44116">
        <ele>144</ele>
      </trkpt>
      <trkpt lat="43.60256" lon="1.44123">
        <ele>144</ele>
      </trkpt>
      <trkpt lat="43.60263" lon="1.44131">
        <ele>144</ele>
      </trkpt>
      <trkpt lat="43.6027" lon="1.44138">
        <ele>144</ele>
      </trkpt>
      <trkpt lat="43.60283" lon="1.44153">
        <ele>144</ele>
      </trkpt>
      <trkpt lat="43.603" lon="1.44185">
        <ele>144</ele>
      </trkpt>
      <trkpt lat="43.60307" lon="1.44199">
        <ele>144</ele>
      </trkpt>
      <trkpt lat="43.60313" lon="1.44203">
        <ele>144</ele>
      </trkpt>
      <trkpt lat="43.60325" lon="1.44211">
        <ele>144</ele>
      </trkpt>
      <trkpt lat="43.60338" lon="1.4422">
        <ele>144</ele>
      </trkpt>
      <trkpt lat="43.60352" lon="1.44228">
        <ele>144</ele>
      </trkpt>
      <trkpt lat="43.60361" lon="1.44234">
        <ele>144</ele>
      </trkpt>
      <trkpt lat="43.60367" lon="1.44239">
        <ele>144</ele>
      </trkpt>
      <trkpt lat="43.60371" lon="1.44244">
        <ele>144</ele>
      </trkpt>
      <trkpt lat="43.60373" lon="1.44249">
        <ele>144</ele>
      </trkpt>
      <trkpt lat="43.60375" lon="1.44255">
        <ele>143.8</ele>
      </trkpt>
      <trkpt lat="43.60378" lon="1.44262">
        <ele>143.6</ele>
      </trkpt>
      <trkpt lat="43.60379" lon="1.44269">
        <ele>143.3</ele>
      </trkpt>
      <trkpt lat="43.60382" lon="1.44282">
        <ele>143</ele>
      </trkpt>
      <trkpt lat="43.60385" lon="1.44308">
        <ele>143</ele>
      </trkpt>
      <trkpt lat="43.60387" lon="1.44328">
        <ele>143.1</ele>
      </trkpt>
      <trkpt lat="43.60388" lon="1.44339">
        <ele>143</ele>
      </trkpt>
    </trkseg>
  </trk>
</gpx>